Provisional Data: Loyalsock Creek near Ringdale, PA


Please select a monitoring station.
Please select start date.
Please select start date.

Toggle Unit: C/F Toggle Unit: C/F
Sample Time Temperature (C) Temperature (F) Specific Conductivity (mS/cm) pH   Turbidity (NTU+) DO (mg/L)
5/17/2022 12:00:00 AM 14.82 58.676 0.029 8.3 2.71 9.64
5/17/2022 12:15:00 AM 14.74 58.532 0.029 8.28 2.72 9.65
5/17/2022 12:30:00 AM 14.66 58.388 0.029 8.3 2.61 9.68
5/17/2022 12:45:00 AM 14.58 58.244 0.029 8.26 2.7 9.7
5/17/2022 1:00:00 AM 14.5 58.1 0.029 8.32 2.53 9.71
5/17/2022 1:15:00 AM 14.42 57.956 0.029 8.25 2.71 9.72
5/17/2022 1:30:00 AM 14.34 57.812 0.029 8.29 2.59 9.75
5/17/2022 1:45:00 AM 14.27 57.686 0.029 8.26 2.63 9.77
5/17/2022 2:00:00 AM 14.2 57.56 0.029 8.29 2.62 9.79
5/17/2022 2:15:00 AM 14.12 57.416 0.029 8.25 2.67 9.79
5/17/2022 2:30:00 AM 14.05 57.29 0.029 8.27 2.63 9.8
5/17/2022 2:45:00 AM 13.99 57.182 0.029 8.28 2.58 9.83
5/17/2022 3:00:00 AM 13.91 57.038 0.029 8.25 2.65 9.84
5/17/2022 3:15:00 AM 13.83 56.894 0.029 8.22 2.78 9.86
5/17/2022 3:30:00 AM 13.76 56.768 0.029 8.25 3.52 9.87
5/17/2022 3:45:00 AM 13.69 56.642 0.029 8.27 2.69 9.9
5/17/2022 4:00:00 AM 13.61 56.498 0.029 8.23 2.64 9.91
5/17/2022 4:15:00 AM 13.52 56.336 0.029 8.23 2.72 9.94
5/17/2022 4:30:00 AM 13.44 56.192 0.029 8.19 2.8 9.95
5/17/2022 4:45:00 AM 13.37 56.066 0.029 8.21 2.5 9.97
5/17/2022 5:00:00 AM 13.3 55.94 0.029 8.16 2.61 9.98
5/17/2022 5:15:00 AM 13.22 55.796 0.029 8.18 2.59 10
5/17/2022 5:30:00 AM 13.16 55.688 0.029 8.2 2.72 10.03
5/17/2022 5:45:00 AM 13.09 55.562 0.029 8.16 2.77 10.03
5/17/2022 6:00:00 AM 13.01 55.418 0.029 8.19 2.53 10.08
5/17/2022 6:15:00 AM 12.93 55.274 0.029 8.16 2.62 10.1
5/17/2022 6:30:00 AM 12.86 55.148 0.029 8.17 2.58 10.15
5/17/2022 6:45:00 AM 12.81 55.058 0.029 8.18 2.89 10.2
5/17/2022 7:00:00 AM 12.78 55.004 0.029 8.21 2.58 10.27
5/17/2022 7:15:00 AM 12.77 54.986 0.029 8.23 2.56 10.32
5/17/2022 7:30:00 AM 12.77 54.986 0.029 8.25 2.54 10.38
5/17/2022 7:45:00 AM 12.77 54.986 0.029 8.22 2.57 10.41
5/17/2022 8:00:00 AM 12.82 55.076 0.029 8.25 2.65 10.47
5/17/2022 8:15:00 AM 12.9 55.22 0.029 8.25 2.62 10.5
5/17/2022 8:30:00 AM 13.01 55.418 0.028 8.31 2.7 10.55
5/17/2022 8:45:00 AM 13.12 55.616 0.028 8.31 2.66 10.57
5/17/2022 9:00:00 AM 13.17 55.706 0.028 8.3 2.46 10.57
5/17/2022 9:15:00 AM 13.22 55.796 0.028 8.34 2.43 10.58
5/17/2022 9:30:00 AM 13.27 55.886 0.028 8.33 2.52 10.61
5/17/2022 9:45:00 AM 13.37 56.066 0.028 8.35 2.58 10.61
5/17/2022 10:00:00 AM 13.53 56.354 0.028 8.35 2.5 10.59
5/17/2022 10:15:00 AM 13.74 56.732 0.028 8.35 2.56 10.59
5/17/2022 10:30:00 AM 13.98 57.164 0.028 8.37 2.36 10.57
5/17/2022 10:45:00 AM 14.29 57.722 0.028 8.42 2.5 10.55
5/17/2022 11:00:00 AM 14.52 58.136 0.028 8.42 2.36 10.52
5/17/2022 11:15:00 AM 14.68 58.424 0.028 8.44 2.44 10.47
5/17/2022 11:30:00 AM 14.73 58.514 0.028 8.47 2.51 10.43
5/17/2022 11:45:00 AM 14.74 58.532 0.028 8.44 2.43 10.42
5/17/2022 12:00:00 PM 14.8 58.64 0.028 8.48 2.32 10.4
5/17/2022 12:15:00 PM 14.86 58.748 0.028 8.46 2.3 10.38
5/17/2022 12:30:00 PM 14.96 58.928 0.028 8.45 2.44 10.37
5/17/2022 12:45:00 PM 15 59 0.028 8.48 2.29 10.32
5/17/2022 1:00:00 PM 15.06 59.108 0.028 8.45 2.45 10.29
5/17/2022 1:15:00 PM 15.1 59.18 0.028 8.48 2.47 10.28
5/17/2022 1:30:00 PM 15.12 59.216 0.028 8.48 2.45 10.27
5/17/2022 1:45:00 PM 15.18 59.324 0.028 8.46 2.42 10.26
5/17/2022 2:00:00 PM 15.25 59.45 0.028 8.44 2.18 10.24
5/17/2022 2:15:00 PM 15.43 59.774 0.028 8.46 2.32 10.23
5/17/2022 2:30:00 PM 15.68 60.224 0.028 8.48 2.26 10.21
5/17/2022 2:45:00 PM 15.95 60.71 0.028 8.5 2.15 10.19
5/17/2022 3:00:00 PM 16.25 61.25 0.028 8.54 2.17 10.16
5/17/2022 3:15:00 PM 16.45 61.61 0.028 8.56 2.12 10.13
5/17/2022 3:30:00 PM 16.51 61.718 0.029 8.55 2.56 10.05
5/17/2022 3:45:00 PM 16.64 61.952 0.028 8.58 2.19 10.05
5/17/2022 4:00:00 PM 16.68 62.024 0.029 8.57 2.13 10.01
5/17/2022 4:15:00 PM 16.77 62.186 0.028 8.6 2.3 10
5/17/2022 4:30:00 PM 16.86 62.348 0.028 8.61 2.24 9.98
5/17/2022 4:45:00 PM 16.91 62.438 0.029 8.58 2.16 9.91
5/17/2022 5:00:00 PM 16.98 62.564 0.028 8.62 2.31 9.96
5/17/2022 5:15:00 PM 16.93 62.474 0.028 8.6 2.2 9.92
5/17/2022 5:30:00 PM 16.87 62.366 0.029 8.6 2.26 9.9
5/17/2022 5:45:00 PM 16.76 62.168 0.029 8.6 2.35 9.89
5/17/2022 6:00:00 PM 16.59 61.862 0.028 8.61 2.42 9.9
5/17/2022 6:15:00 PM 16.43 61.574 0.028 8.58 2.18 9.91
5/17/2022 6:30:00 PM 16.24 61.232 0.028 8.58 2.4 9.93
5/17/2022 6:45:00 PM 16.09 60.962 0.028 8.57 2.29 9.94
5/17/2022 7:00:00 PM 15.89 60.602 0.028 8.56 2.27 9.95
5/17/2022 7:15:00 PM 15.71 60.278 0.028 8.5 2.5 9.91
5/17/2022 7:30:00 PM 15.48 59.864 0.029 8.52 2.25 9.89
5/17/2022 7:45:00 PM 15.28 59.504 0.028 8.45 2.33 9.86
5/17/2022 8:00:00 PM 15.09 59.162 0.029 8.45 2.31 9.82
5/17/2022 8:15:00 PM 14.93 58.874 0.029 8.37 2.34 9.81
5/17/2022 8:30:00 PM 14.78 58.604 0.031 8.31 2.34 9.75
5/17/2022 8:45:00 PM 14.65 58.37 0.031 8.34 2.36 9.74
5/17/2022 9:00:00 PM 14.53 58.154 0.031 8.34 2.38 9.77
5/17/2022 9:15:00 PM 14.42 57.956 0.031 8.28 2.41 9.76
5/17/2022 9:30:00 PM 14.32 57.776 0.031 8.28 2.26 9.76
5/17/2022 9:45:00 PM 14.22 57.596 0.032 8.24 2.21 9.74
5/17/2022 10:00:00 PM 14.11 57.398 0.032 8.24 2.45 9.76
5/17/2022 10:15:00 PM 14.01 57.218 0.031 8.24 2.49 9.8
5/17/2022 10:30:00 PM 13.91 57.038 0.031 8.2 2.51 9.8
5/17/2022 10:45:00 PM 13.81 56.858 0.031 8.25 2.33 9.87
5/17/2022 11:00:00 PM 13.69 56.642 0.03 8.19 2.22 9.86
5/17/2022 11:15:00 PM 13.6 56.48 0.031 8.21 2.36 9.89
5/17/2022 11:30:00 PM 13.48 56.264 0.03 8.2 2.41 9.94
5/17/2022 11:45:00 PM 13.38 56.084 0.03 8.2 2.52 9.97
5/18/2022 12:00:00 AM 13.27 55.886 0.029 8.17 2.42 9.95
5/18/2022 12:15:00 AM 13.18 55.724 0.031 8.14 2.42 9.93
5/18/2022 12:30:00 AM 13.06 55.508 0.03 8.17 2.44 10.05
5/18/2022 12:45:00 AM 12.97 55.346 0.03 8.16 2.23 10.04
5/18/2022 1:00:00 AM 12.84 55.112 0.031 8.15 2.52 9.97
5/18/2022 1:15:00 AM 12.77 54.986 0.031 8.1 2.26 10
5/18/2022 1:30:00 AM 12.66 54.788 0.031 8.1 2.41 10.02
5/18/2022 1:45:00 AM 12.6 54.68 0.03 8.12 2.97 10.11
5/18/2022 2:00:00 AM 12.5 54.5 0.031 8.11 2.25 10.17
5/18/2022 2:15:00 AM 12.41 54.338 0.031 8.1 2.19 10.13
5/18/2022 2:30:00 AM 12.31 54.158 0.032 8.12 2.39 10.14
5/18/2022 2:45:00 AM 12.22 53.996 0.032 8.06 2.39 10.12
5/18/2022 3:00:00 AM 12.13 53.834 0.031 8.06 2.24 10.15
5/18/2022 3:15:00 AM 12.05 53.69 0.03 8.11 2.24 10.18
5/18/2022 3:30:00 AM 12 53.6 0.03 8.09 2.34 10.24
5/18/2022 3:45:00 AM 11.92 53.456 0.029 8.11 2.38 10.32
5/18/2022 4:00:00 AM 11.85 53.33 0.032 8.07 2.28 10.3
5/18/2022 4:15:00 AM 11.76 53.168 0.032 8.07 2.18 10.31
5/18/2022 4:30:00 AM 11.67 53.006 0.03 8.08 2.27 10.28
5/18/2022 4:45:00 AM 11.59 52.862 0.031 8.07 2.3 10.3
5/18/2022 5:00:00 AM 11.5 52.7 0.032 8.04 2.32 10.33
5/18/2022 5:15:00 AM 11.44 52.592 0.03 8.08 2.29 10.4
5/18/2022 5:30:00 AM 11.38 52.484 0.031 8.05 2.38 10.38
5/18/2022 5:45:00 AM 11.27 52.286 0.031 8.07 2.21 10.4
5/18/2022 6:00:00 AM 11.21 52.178 0.033 8.04 2.16 10.43
5/18/2022 6:15:00 AM 11.15 52.07 0.031 8.06 2.42 10.47
5/18/2022 6:30:00 AM 11.11 51.998 0.03 8.07 2.35 10.55
5/18/2022 6:45:00 AM 11.06 51.908 0.03 8.07 2.4 10.61
5/18/2022 7:00:00 AM 11.03 51.854 0.031 8.04 2.35 10.63
5/18/2022 7:15:00 AM 11.02 51.836 0.031 8.05 2.33 10.69
5/18/2022 7:30:00 AM 11.04 51.872 0.03 8.11 2.36 10.78
5/18/2022 7:45:00 AM 11.08 51.944 0.03 8.09 2.09 10.79
5/18/2022 8:00:00 AM 11.14 52.052 0.03 8.09 2.16 10.86
5/18/2022 8:15:00 AM 11.21 52.178 0.03 8.08 2.38 10.86
5/18/2022 8:30:00 AM 11.29 52.322 0.032 8.08 2.13 10.89
5/18/2022 8:45:00 AM 11.42 52.556 0.03 8.14 2.24 10.96
5/18/2022 9:00:00 AM 11.51 52.718 0.031 8.16 2.21 10.97
5/18/2022 9:15:00 AM 11.63 52.934 0.03 8.19 2.17 11
5/18/2022 9:30:00 AM 11.72 53.096 0.031 8.15 2.32 10.97
5/18/2022 9:45:00 AM 11.83 53.294 0.03 8.22 2.44 11.01
5/18/2022 10:00:00 AM 11.92 53.456 0.03 8.2 2.29 10.99
5/18/2022 10:15:00 AM 12.04 53.672 0.031 8.22 2.28 10.96
5/18/2022 10:30:00 AM 12.29 54.122 0.03 8.22 2.11 10.98
5/18/2022 10:45:00 AM 12.63 54.734 0.029 8.3 2.14 10.92
5/18/2022 11:00:00 AM 12.83 55.094 0.029 8.3 2.15 10.92
5/18/2022 11:15:00 AM 13.02 55.436 0.03 8.3 2.14 10.88
5/18/2022 11:30:00 AM 13.37 56.066 0.029 8.3 2.46 10.84
5/18/2022 11:45:00 AM 13.71 56.678 0.029 8.35 2.09 10.76
5/18/2022 12:00:00 PM 14.04 57.272 0.028 8.44 2.08 10.75
5/18/2022 12:15:00 PM 14.17 57.506 0.029 8.43 2.34 10.71
5/18/2022 12:30:00 PM 14.3 57.74 0.031 8.38 1.95 10.61
5/18/2022 12:45:00 PM 14.52 58.136 0.03 8.41 1.93 10.57
5/18/2022 1:00:00 PM 14.75 58.55 0.03 8.4 1.98 10.53
5/18/2022 1:15:00 PM 14.97 58.946 0.032 8.44 2.14 10.47
5/18/2022 1:30:00 PM 15.26 59.468 0.03 8.44 2.11 10.44
5/18/2022 1:45:00 PM 15.47 59.846 0.029 8.5 2.24 10.42
5/18/2022 2:00:00 PM 15.57 60.026 0.029 8.5 2.17 10.4
5/18/2022 2:15:00 PM 15.69 60.242 0.029 8.54 2.15 10.36
5/18/2022 2:30:00 PM 15.78 60.404 0.03 8.51 1.98 10.29
5/18/2022 2:45:00 PM 15.83 60.494 0.03 8.53 2.16 10.27
5/18/2022 3:00:00 PM 15.83 60.494 0.03 8.48 2.2 10.21
5/18/2022 3:15:00 PM 15.85 60.53 0.029 8.54 2.1 10.25
5/18/2022 3:30:00 PM 15.82 60.476 0.029 8.59 2.24 10.2
5/18/2022 3:45:00 PM 15.8 60.44 0.029 8.54 2.23 10.17
5/18/2022 4:00:00 PM 15.79 60.422 0.03 8.52 1.97 10.17
5/18/2022 4:15:00 PM 15.85 60.53 0.029 8.54 2.08 10.18
5/18/2022 4:30:00 PM 15.86 60.548 0.031 8.54 2.02 10.19
5/18/2022 4:45:00 PM 15.85 60.53 0.03 8.54 2.22 10.11
5/18/2022 5:00:00 PM 15.81 60.458 0.029 8.57 2.2 10.12
5/18/2022 5:15:00 PM 15.67 60.206 0.029 8.56 2.06 10.06
5/18/2022 5:30:00 PM 15.54 59.972 0.029 8.5 2.3 10.03
5/18/2022 5:45:00 PM 15.39 59.702 0.03 8.48 2.29 10
5/18/2022 6:00:00 PM 15.28 59.504 0.029 8.49 2.22 10.02
5/18/2022 6:15:00 PM 15.14 59.252 0.032 8.41 2.33 9.94
5/18/2022 6:30:00 PM 15.08 59.144 0.03 8.44 1.97 9.96
5/18/2022 6:45:00 PM 15.02 59.036 0.028 8.44 2.28 9.98
5/18/2022 7:00:00 PM 14.95 58.91 0.028 8.47 2.25 10
5/18/2022 7:15:00 PM 14.89 58.802 0.028 8.41 2.19 10
5/18/2022 7:30:00 PM 14.82 58.676 0.03 8.38 2.22 9.95
5/18/2022 7:45:00 PM 14.76 58.568 0.029 8.39 2.04 9.91
5/18/2022 8:00:00 PM 14.68 58.424 0.029 8.39 2.05 9.88
5/18/2022 8:15:00 PM 14.59 58.262 0.029 8.33 1.98 9.86
5/18/2022 8:30:00 PM 14.51 58.118 0.029 8.38 2.2 9.85
5/18/2022 8:45:00 PM 14.42 57.956 0.031 8.29 2.27 9.81
5/18/2022 9:00:00 PM 14.35 57.83 0.03 8.28 2.23 9.78
5/18/2022 9:15:00 PM 14.27 57.686 0.033 8.23 2.43 9.65
5/18/2022 9:30:00 PM 14.2 57.56 0.032 8.28 2.14 9.73
5/18/2022 9:45:00 PM 14.14 57.452 0.03 8.25 2.14 9.78
5/18/2022 10:00:00 PM 14.07 57.326 0.031 8.28 2.09 9.75
5/18/2022 10:15:00 PM 14 57.2 0.032 8.22 2.41 9.71
5/18/2022 10:30:00 PM 13.94 57.092 0.03 8.26 2.32 9.77
5/18/2022 10:45:00 PM 13.88 56.984 0.03 8.27 2.26 9.84
5/18/2022 11:00:00 PM 13.82 56.876 0.031 8.2 2.77 9.79
5/18/2022 11:15:00 PM 13.74 56.732 0.031 8.23 2.22 9.78
5/18/2022 11:30:00 PM 13.67 56.606 0.032 8.21 2.09 9.79
5/18/2022 11:45:00 PM 13.61 56.498 0.033 8.2 2.2 9.76
5/19/2022 12:00:00 AM 13.56 56.408 0.031 8.21 2.29 9.85
5/19/2022 12:15:00 AM 13.5 56.3 0.03 8.23 2.1 9.84
5/19/2022 12:30:00 AM 13.44 56.192 0.031 8.23 2.46 9.84
5/19/2022 12:45:00 AM 13.41 56.138 0.03 8.25 2.82 9.91
5/19/2022 1:00:00 AM 13.36 56.048 0.031 8.2 2.45 9.85
5/19/2022 1:15:00 AM 13.32 55.976 0.03 8.21 2.18 9.89
5/19/2022 1:30:00 AM 13.29 55.922 0.03 8.24 2.31 9.97
5/19/2022 1:45:00 AM 13.25 55.85 0.031 8.2 2.17 9.95
5/19/2022 2:00:00 AM 13.22 55.796 0.03 8.23 2.5 9.95
5/19/2022 2:15:00 AM 13.18 55.724 0.031 8.21 2.24 9.92
5/19/2022 2:30:00 AM 13.16 55.688 0.029 8.24 2.27 9.96
5/19/2022 2:45:00 AM 13.14 55.652 0.029 8.24 2.25 10.01
5/19/2022 3:00:00 AM 13.11 55.598 0.03 8.23 2.42 9.97
5/19/2022 3:15:00 AM 13.08 55.544 0.03 8.18 2.35 9.93
5/19/2022 3:30:00 AM 13.07 55.526 0.03 8.23 2.34 9.97
5/19/2022 3:45:00 AM 13.06 55.508 0.03 8.21 2.23 9.96
5/19/2022 4:00:00 AM 13.05 55.49 0.029 8.24 2.2 9.98
5/19/2022 4:15:00 AM 13.04 55.472 0.03 8.23 2.2 9.99
5/19/2022 4:30:00 AM 13.03 55.454 0.029 8.22 2.3 9.99
5/19/2022 4:45:00 AM 13.02 55.436 0.029 8.21 2.17 9.98
5/19/2022 5:00:00 AM 13.01 55.418 0.029 8.24 2.21 10.03
5/19/2022 5:15:00 AM 12.98 55.364 0.032 8.18 2.19 9.93
5/19/2022 5:30:00 AM 12.99 55.382 0.03 8.21 2.11 9.98
5/19/2022 5:45:00 AM 13 55.4 0.029 8.25 2.4 10.03
5/19/2022 6:00:00 AM 12.98 55.364 0.03 8.22 2.58 10
5/19/2022 6:15:00 AM 12.98 55.364 0.029 8.2 2.02 10.03
5/19/2022 6:30:00 AM 12.95 55.31 0.032 8.17 2.21 9.97
5/19/2022 6:45:00 AM 12.97 55.346 0.03 8.19 2.35 10.02
5/19/2022 7:00:00 AM 12.96 55.328 0.03 8.22 2.34 10.06
5/19/2022 7:15:00 AM 12.95 55.31 0.031 8.18 2.25 10.02
5/19/2022 7:30:00 AM 12.96 55.328 0.031 8.19 2.17 10.06
5/19/2022 7:45:00 AM 12.96 55.328 0.03 8.21 2.22 10.1
5/19/2022 8:00:00 AM 12.95 55.31 0.031 8.19 2.16 10.09
5/19/2022 8:15:00 AM 12.97 55.346 0.03 8.21 2.31 10.09
5/19/2022 8:30:00 AM 12.98 55.364 0.029 8.23 2.29 10.15
5/19/2022 8:45:00 AM 12.98 55.364 0.03 8.26 2.22 10.19
5/19/2022 9:00:00 AM 13.01 55.418 0.029 8.27 2.04 10.2
5/19/2022 9:15:00 AM 13.01 55.418 0.029 8.24 2.11 10.22
5/19/2022 9:30:00 AM 13.02 55.436 0.031 8.22 2.14 10.24
5/19/2022 9:45:00 AM 13.05 55.49 0.031 8.25 2.26 10.28
5/19/2022 10:00:00 AM 13.08 55.544 0.031 8.24 2.14 10.32
5/19/2022 10:15:00 AM 13.1 55.58 0.031 8.25 2.25 10.31
5/19/2022 10:30:00 AM 13.16 55.688 0.03 8.23 2.23 10.36
5/19/2022 10:45:00 AM 13.19 55.742 0.031 8.25 2.17 10.37
5/19/2022 11:00:00 AM 13.28 55.904 0.028 8.33 2.04 10.39
5/19/2022 11:15:00 AM 13.31 55.958 0.029 8.29 2.29 10.39
5/19/2022 11:30:00 AM 13.34 56.012 0.03 8.33 2.17 10.43
5/19/2022 11:45:00 AM 13.38 56.084 0.03 8.34 2.15 10.48
5/19/2022 12:00:00 PM 13.45 56.21 0.03 8.33 2.36 10.5
5/19/2022 12:15:00 PM 13.55 56.39 0.029 8.38 2.41 10.52
5/19/2022 12:30:00 PM 13.63 56.534 0.029 8.33 2.21 10.52
5/19/2022 12:45:00 PM 13.71 56.678 0.029 8.37 2.18 10.51
5/19/2022 1:00:00 PM 13.78 56.804 0.029 8.35 2.03 10.49
5/19/2022 1:15:00 PM 13.84 56.912 0.029 8.41 2.24 10.49
5/19/2022 1:30:00 PM 13.92 57.056 0.029 8.37 2.41 10.48
5/19/2022 1:45:00 PM 14.01 57.218 0.03 8.42 2.16 10.48
5/19/2022 2:00:00 PM 14.15 57.47 0.03 8.39 2.22 10.47
5/19/2022 2:15:00 PM 14.3 57.74 0.03 8.4 2.31 10.45
5/19/2022 2:30:00 PM 14.46 58.028 0.031 8.38 2.21 10.36
5/19/2022 2:45:00 PM 14.74 58.532 0.03 8.41 2.54 10.38
5/19/2022 3:00:00 PM 14.98 58.964 0.03 8.47 2.13 10.33
5/19/2022 3:15:00 PM 15.22 59.396 0.029 8.53 2.16 10.28
5/19/2022 3:30:00 PM 15.51 59.918 0.03 8.49 2.16 10.28
5/19/2022 3:45:00 PM 15.77 60.386 0.029 8.53 2.37 10.23
5/19/2022 4:00:00 PM 15.87 60.566 0.03 8.58 2.12 10.22
5/19/2022 4:15:00 PM 15.95 60.71 0.029 8.55 2.05 10.18
5/19/2022 4:30:00 PM 16 60.8 0.029 8.57 2.08 10.16
5/19/2022 4:45:00 PM 16.04 60.872 0.029 8.61 2.14 10.12
5/19/2022 5:00:00 PM 16.02 60.836 0.029 8.57 2.07 10.06
5/19/2022 5:15:00 PM 15.97 60.746 0.03 8.6 2.08 9.98
5/19/2022 5:30:00 PM 15.9 60.62 0.03 8.56 2.16 9.97
5/19/2022 5:45:00 PM 15.9 60.62 0.029 8.61 2.13 10.01
5/19/2022 6:00:00 PM 15.88 60.584 0.03 8.53 2.28 9.98
5/19/2022 6:15:00 PM 15.89 60.602 0.03 8.56 2.22 9.97
5/19/2022 6:30:00 PM 15.88 60.584 0.03 8.53 2.13 9.97
5/19/2022 6:45:00 PM 15.84 60.512 0.029 8.56 2.53 9.98
5/19/2022 7:00:00 PM 15.73 60.314 0.031 8.53 2.07 9.89
5/19/2022 7:15:00 PM 15.59 60.062 0.03 8.56 2.11 9.91
5/19/2022 7:30:00 PM 15.44 59.792 0.03 8.52 2.18 9.87
5/19/2022 7:45:00 PM 15.27 59.486 0.029 8.56 2.22 9.86
5/19/2022 8:00:00 PM 15.13 59.234 0.028 8.48 2.12 9.79
5/19/2022 8:15:00 PM 15.02 59.036 0.03 8.49 2.23 9.76
5/19/2022 8:30:00 PM 14.9 58.82 0.029 8.45 2.5 9.76
5/19/2022 8:45:00 PM 14.79 58.622 0.029 8.43 2.16 9.67
5/19/2022 9:00:00 PM 14.69 58.442 0.031 8.39 2.15 9.65
5/19/2022 9:15:00 PM 14.6 58.28 0.029 8.44 2.06 9.72
5/19/2022 9:30:00 PM 14.53 58.154 0.03 8.4 2.33 9.69
5/19/2022 9:45:00 PM 14.42 57.956 0.031 8.39 2.37 9.62
5/19/2022 10:00:00 PM 14.32 57.776 0.03 8.36 2.24 9.67
5/19/2022 10:15:00 PM 14.23 57.614 0.03 8.35 2.42 9.76
5/19/2022 10:30:00 PM 14.12 57.416 0.031 8.32 2.04 9.72
5/19/2022 10:45:00 PM 14.03 57.254 0.03 8.33 2.35 9.74
5/19/2022 11:00:00 PM 13.93 57.074 0.03 8.32 2.22 9.77
5/19/2022 11:15:00 PM 13.83 56.894 0.03 8.35 2.24 9.82
5/19/2022 11:30:00 PM 13.74 56.732 0.03 8.29 2.38 9.84
5/19/2022 11:45:00 PM 13.66 56.588 0.029 8.35 2.41 9.86
5/20/2022 12:00:00 AM 13.57 56.426 0.029 8.31 2.28 9.86
5/20/2022 12:15:00 AM 13.49 56.282 0.03 8.33 2.16 9.9
5/20/2022 12:30:00 AM 13.41 56.138 0.031 8.27 2.34 9.85
5/20/2022 12:45:00 AM 13.34 56.012 0.029 8.27 2.29 9.95
5/20/2022 1:00:00 AM 13.26 55.868 0.029 8.28 2.57 9.98
5/20/2022 1:15:00 AM 13.18 55.724 0.029 8.26 2.16 9.96
5/20/2022 1:30:00 AM 13.12 55.616 0.03 8.25 2.45 9.97
5/20/2022 1:45:00 AM 13.03 55.454 0.03 8.27 2.12 10.03
5/20/2022 2:00:00 AM 12.95 55.31 0.03 8.24 2.98 10.02
5/20/2022 2:15:00 AM 12.87 55.166 0.029 8.25 2.47 10.04
5/20/2022 2:30:00 AM 12.8 55.04 0.031 8.26 2.29 10.03
5/20/2022 2:45:00 AM 12.72 54.896 0.03 8.23 2.32 10.07
5/20/2022 3:00:00 AM 12.67 54.806 0.031 8.18 2.12 10.07
5/20/2022 3:15:00 AM 12.6 54.68 0.03 8.22 2.22 10.09
5/20/2022 3:30:00 AM 12.52 54.536 0.03 8.21 2.12 10.1
5/20/2022 3:45:00 AM 12.46 54.428 0.03 8.22 2.28 10.1
5/20/2022 4:00:00 AM 12.41 54.338 0.031 8.2 2.22 10.11
5/20/2022 4:15:00 AM 12.35 54.23 0.031 8.18 2.26 10.11
5/20/2022 4:30:00 AM 12.29 54.122 0.03 8.21 2.12 10.16
5/20/2022 4:45:00 AM 12.24 54.032 0.031 8.17 2.17 10.14
5/20/2022 5:00:00 AM 12.17 53.906 0.03 8.2 2.48 10.13
5/20/2022 5:15:00 AM 12.12 53.816 0.029 8.18 2.18 10.21
5/20/2022 5:30:00 AM 12.07 53.726 0.029 8.21 2.22 10.23
5/20/2022 5:45:00 AM 12.01 53.618 0.03 8.18 2.2 10.24
5/20/2022 6:00:00 AM 11.96 53.528 0.03 8.15 2.28 10.3
5/20/2022 6:15:00 AM 11.92 53.456 0.03 8.18 2.29 10.32
5/20/2022 6:30:00 AM 11.9 53.42 0.029 8.2 2.29 10.37
5/20/2022 6:45:00 AM 11.89 53.402 0.03 8.15 2.11 10.39
5/20/2022 7:00:00 AM 11.88 53.384 0.031 8.15 2.21 10.43
5/20/2022 7:15:00 AM 11.9 53.42 0.031 8.18 2.09 10.53
5/20/2022 7:30:00 AM 11.93 53.474 0.031 8.22 2.2 10.58
5/20/2022 7:45:00 AM 11.96 53.528 0.029 8.2 2.3 10.63
5/20/2022 8:00:00 AM 11.99 53.582 0.03 8.26 2.37 10.61
5/20/2022 8:15:00 AM 12.02 53.636 0.031 8.23 2.11 10.64
5/20/2022 8:30:00 AM 12.08 53.744 0.031 8.19 2.11 10.62
5/20/2022 8:45:00 AM 12.16 53.888 0.031 8.2 2.26 10.65
5/20/2022 9:00:00 AM 12.26 54.068 0.032 8.21 2.1 10.65
5/20/2022 9:15:00 AM 12.35 54.23 0.033 8.22 2.18 10.61
5/20/2022 9:30:00 AM 12.52 54.536 0.03 8.24 2.09 10.73
5/20/2022 9:45:00 AM 12.66 54.788 0.031 8.28 2.16 10.7
5/20/2022 10:00:00 AM 12.85 55.13 0.031 8.31 2.09 10.73
5/20/2022 10:15:00 AM 12.92 55.256 0.032 8.27 2.05 10.69
5/20/2022 10:30:00 AM 13.06 55.508 0.031 8.3 2.14 10.71
5/20/2022 10:45:00 AM 13.15 55.67 0.032 8.31 2.13 10.64
5/20/2022 11:00:00 AM 13.26 55.868 0.032 8.33 2.28 10.64
5/20/2022 11:15:00 AM 13.43 56.174 0.029 8.38 2.22 10.62
5/20/2022 11:30:00 AM 13.53 56.354 0.029 8.39 2.03 10.64
5/20/2022 11:45:00 AM 13.64 56.552 0.032 8.38 2.25 10.62
5/20/2022 12:00:00 PM 13.88 56.984 0.029 8.41 2.14 10.58
5/20/2022 12:15:00 PM 14 57.2 0.03 8.44 2.25 10.59
5/20/2022 12:30:00 PM 14.37 57.866 0.029 8.43 2.16 10.56
5/20/2022 12:45:00 PM 14.76 58.568 0.03 8.56 2 10.54
5/20/2022 1:00:00 PM 15.01 59.018 0.029 8.5 2.13 10.53
5/20/2022 1:15:00 PM 15.38 59.684 0.03 8.58 2 10.47
5/20/2022 1:30:00 PM 15.7 60.26 0.03 8.57 2 10.38
5/20/2022 1:45:00 PM 16.06 60.908 0.03 8.62 1.95 10.33
5/20/2022 2:00:00 PM 16.23 61.214 0.029 8.63 2.07 10.23
5/20/2022 2:15:00 PM 16.39 61.502 0.029 8.64 2.19 10.14
5/20/2022 2:30:00 PM 16.51 61.718 0.03 8.63 2.26 10.08
5/20/2022 2:45:00 PM 16.76 62.168 0.03 8.66 2.24 10.05
5/20/2022 3:00:00 PM 16.94 62.492 0.031 8.65 2.44 9.99
5/20/2022 3:15:00 PM 17.17 62.906 0.03 8.7 2.27 9.99
5/20/2022 3:30:00 PM 17.33 63.194 0.03 8.71 2.27 9.95
5/20/2022 3:45:00 PM 17.49 63.482 0.029 8.75 2.06 9.92
5/20/2022 4:00:00 PM 17.46 63.428 0.03 8.74 2.29 9.84
5/20/2022 4:15:00 PM 17.43 63.374 0.03 8.77 2.09 9.76
5/20/2022 4:30:00 PM 17.34 63.212 0.03 8.74 2.38 9.73
5/20/2022 4:45:00 PM 17.26 63.068 0.031 8.69 2.06 9.68
5/20/2022 5:00:00 PM 17.09 62.762 0.031 8.66 2.14 9.62
5/20/2022 5:15:00 PM 17.02 62.636 0.029 8.66 1.96 9.59
5/20/2022 5:30:00 PM 16.93 62.474 0.029 8.66 2.29 9.56
5/20/2022 5:45:00 PM 16.83 62.294 0.031 8.64 2.21 9.54
5/20/2022 6:00:00 PM 16.8 62.24 0.03 8.64 2.3 9.6
5/20/2022 6:15:00 PM 16.76 62.168 0.03 8.66 2.43 9.59
5/20/2022 6:30:00 PM 16.69 62.042 0.03 8.64 2.44 9.64
5/20/2022 6:45:00 PM 16.66 61.988 0.031 8.62 2.27 9.61
5/20/2022 7:00:00 PM 16.64 61.952 0.03 8.64 2.46 9.63
5/20/2022 7:15:00 PM 16.57 61.826 0.031 8.6 2.35 9.63
5/20/2022 7:30:00 PM 16.52 61.736 0.03 8.63 2.24 9.68
5/20/2022 7:45:00 PM 16.44 61.592 0.03 8.61 2.26 9.62
5/20/2022 8:00:00 PM 16.37 61.466 0.031 8.58 2.16 9.57
5/20/2022 8:15:00 PM 16.29 61.322 0.029 8.61 2.05 9.59
5/20/2022 8:30:00 PM 16.21 61.178 0.029 8.6 2.28 9.54
5/20/2022 8:45:00 PM 16.11 60.998 0.031 8.55 2.54 9.47
5/20/2022 9:00:00 PM 16.02 60.836 0.03 8.54 2.16 9.49
5/20/2022 9:15:00 PM 15.93 60.674 0.03 8.57 2.19 9.45
5/20/2022 9:30:00 PM 15.84 60.512 0.031 8.51 2.08 9.44
5/20/2022 9:45:00 PM 15.74 60.332 0.031 8.53 2.36 9.48
5/20/2022 10:00:00 PM 15.65 60.17 0.032 8.49 2.3 9.43
5/20/2022 10:15:00 PM 15.56 60.008 0.032 8.47 2.22 9.44
5/20/2022 10:30:00 PM 15.46 59.828 0.032 8.43 2.34 9.44
5/20/2022 10:45:00 PM 15.37 59.666 0.031 8.45 2.14 9.48
5/20/2022 11:00:00 PM 15.28 59.504 0.032 8.42 2.14 9.48
5/20/2022 11:15:00 PM 15.2 59.36 0.032 8.41 2.04 9.49
5/20/2022 11:30:00 PM 15.11 59.198 0.031 8.41 2.18 9.53
5/20/2022 11:45:00 PM 15.04 59.072 0.032 8.4 2.19 9.56
5/21/2022 12:00:00 AM 14.98 58.964 0.031 8.4 2.32 9.59
5/21/2022 12:15:00 AM 14.92 58.856 0.031 8.41 2.19 9.55
5/21/2022 12:30:00 AM 14.86 58.748 0.032 8.37 2.25 9.58
5/21/2022 12:45:00 AM 14.81 58.658 0.03 8.4 2.41 9.67
5/21/2022 1:00:00 AM 14.75 58.55 0.031 8.39 2.16 9.64
5/21/2022 1:15:00 AM 14.71 58.478 0.031 8.38 2.42 9.63
5/21/2022 1:30:00 AM 14.66 58.388 0.031 8.36 2.39 9.64
5/21/2022 1:45:00 AM 14.61 58.298 0.03 8.37 2.15 9.67
5/21/2022 2:00:00 AM 14.56 58.208 0.031 8.36 2.14 9.69
5/21/2022 2:15:00 AM 14.52 58.136 0.03 8.38 2.25 9.73
5/21/2022 2:30:00 AM 14.47 58.046 0.032 8.33 2.31 9.68
5/21/2022 2:45:00 AM 14.43 57.974 0.031 8.34 2.06 9.73
5/21/2022 3:00:00 AM 14.39 57.902 0.031 8.33 2.19 9.7
5/21/2022 3:15:00 AM 14.36 57.848 0.031 8.32 2.26 9.74
5/21/2022 3:30:00 AM 14.33 57.794 0.03 8.32 7.68 9.67
5/21/2022 3:45:00 AM 14.3 57.74 0.031 8.33 3.74 9.77
5/21/2022 4:00:00 AM 14.26 57.668 0.031 8.33 2.61 9.75
5/21/2022 4:15:00 AM 14.24 57.632 0.031 8.31 2.24 9.75
5/21/2022 4:30:00 AM 14.2 57.56 0.03 8.33 2.06 9.81
5/21/2022 4:45:00 AM 14.17 57.506 0.033 8.3 2.27 9.77
5/21/2022 5:00:00 AM 14.14 57.452 0.031 8.29 2.27 9.78
5/21/2022 5:15:00 AM 14.11 57.398 0.031 8.3 2.31 9.79
5/21/2022 5:30:00 AM 14.09 57.362 0.03 8.32 2.47 9.87
5/21/2022 5:45:00 AM 14.05 57.29 0.031 8.3 2.33 9.82
5/21/2022 6:00:00 AM 14.01 57.218 0.031 8.29 2.3 9.8
5/21/2022 6:15:00 AM 13.99 57.182 0.031 8.3 2.36 9.83
5/21/2022 6:30:00 AM 13.97 57.146 0.03 8.3 2.36 9.88
5/21/2022 6:45:00 AM 13.95 57.11 0.03 8.31 2.73 9.95
5/21/2022 7:00:00 AM 13.94 57.092 0.031 8.3 2.25 9.95
5/21/2022 7:15:00 AM 13.96 57.128 0.031 8.3 2.29 9.97
5/21/2022 7:30:00 AM 14 57.2 0.032 8.3 2.3 10.04
5/21/2022 7:45:00 AM 14.06 57.308 0.031 8.31 2.47 10.11
5/21/2022 8:00:00 AM 14.13 57.434 0.032 8.37 2.22 10.17
5/21/2022 8:15:00 AM 14.29 57.722 0.03 8.36 2.4 10.24
5/21/2022 8:30:00 AM 14.43 57.974 0.029 8.42 2.29 10.3
5/21/2022 8:45:00 AM 14.5 58.1 0.031 8.39 2.29 10.28
5/21/2022 9:00:00 AM 14.62 58.316 0.031 8.4 2.28 10.28
5/21/2022 9:15:00 AM 14.86 58.748 0.031 8.47 2.52 10.34
5/21/2022 9:30:00 AM 15.04 59.072 0.031 8.43 2.1 10.29
5/21/2022 9:45:00 AM 15.24 59.432 0.031 8.5 2.22 10.32
5/21/2022 10:00:00 AM 15.44 59.792 0.031 8.52 2.19 10.31
5/21/2022 10:15:00 AM 15.68 60.224 0.03 8.55 2.14 10.27
5/21/2022 10:30:00 AM 15.95 60.71 0.031 8.6 2.16 10.27
5/21/2022 10:45:00 AM 16.23 61.214 0.03 8.63 2.13 10.23
5/21/2022 11:00:00 AM 16.44 61.592 0.03 8.66 2.03 10.19
5/21/2022 11:15:00 AM 16.77 62.186 0.03 8.7 2.19 10.15
5/21/2022 11:30:00 AM 17.07 62.726 0.029 8.76 2.26 10.13
5/21/2022 11:45:00 AM 17.46 63.428 0.029 8.76 2.33 10.08
5/21/2022 12:00:00 PM 17.79 64.022 0.029 8.76 2.15 9.99
5/21/2022 12:15:00 PM 18.03 64.454 0.029 8.82 1.99 9.97
5/21/2022 12:30:00 PM 18.31 64.958 0.029 8.84 2.21 9.92
5/21/2022 12:45:00 PM 18.6 65.48 0.03 8.85 2.2 9.84
5/21/2022 1:00:00 PM 18.88 65.984 0.03 8.92 2.31 9.77
5/21/2022 1:15:00 PM 19.2 66.56 0.029 8.94 2.12 9.74
5/21/2022 1:30:00 PM 19.58 67.244 0.029 8.99 2.35 9.71
5/21/2022 1:45:00 PM 19.8 67.64 0.029 8.99 2 9.6
5/21/2022 2:00:00 PM 20.07 68.126 0.03 9.02 1.96 9.57
5/21/2022 2:15:00 PM 20.35 68.63 0.029 9.08 2.05 9.52
5/21/2022 2:30:00 PM 20.61 69.098 0.029 9.12 2.24 9.47
5/21/2022 2:45:00 PM 20.8 69.44 0.03 9.09 1.94 9.4
5/21/2022 3:00:00 PM 21.02 69.836 0.029 9.16 2.12 9.38
5/21/2022 3:15:00 PM 21.1 69.98 0.029 9.14 2.05 9.32
5/21/2022 3:30:00 PM 21.21 70.17799 0.029 9.16 2.02 9.28
5/21/2022 3:45:00 PM 21.31 70.358 0.029 9.15 2.12 9.25
5/21/2022 4:00:00 PM 21.42 70.556 0.029 9.2 2.36 9.21
5/21/2022 4:15:00 PM 21.48 70.664 0.029 9.19 2.07 9.19
5/21/2022 4:30:00 PM 21.53 70.754 0.029 9.2 1.94 9.17
5/21/2022 4:45:00 PM 21.51 70.718 0.029 9.2 2.01 9.14
5/21/2022 5:00:00 PM 21.44 70.592 0.03 9.18 2.12 9.08
5/21/2022 5:15:00 PM 21.39 70.502 0.03 9.21 2.22 9.1
5/21/2022 5:30:00 PM 21.31 70.358 0.029 9.15 1.97 9.06
5/21/2022 5:45:00 PM 21.22 70.196 0.03 9.14 2.11 9.01
5/21/2022 6:00:00 PM 21.21 70.17799 0.029 9.17 2.21 9.06
5/21/2022 6:15:00 PM 21.1 69.98 0.03 9.13 2.05 9.06
5/21/2022 6:30:00 PM 21.05 69.89 0.03 9.13 2.17 9.01
5/21/2022 6:45:00 PM 20.92 69.656 0.03 9.13 2.23 9.03
5/21/2022 7:00:00 PM 20.79 69.422 0.03 9.17 2.15 9.05
5/21/2022 7:15:00 PM 20.66 69.188 0.03 9.08 2.01 9
5/21/2022 7:30:00 PM 20.5 68.9 0.03 9.06 2.1 8.95
5/21/2022 7:45:00 PM 20.3 68.54 0.031 9.04 2.17 8.89
5/21/2022 8:00:00 PM 20.14 68.252 0.031 9 2.08 8.85
5/21/2022 8:15:00 PM 19.97 67.946 0.032 8.96 2.21 8.78
5/21/2022 8:30:00 PM 19.83 67.694 0.031 8.95 2.29 8.75
5/21/2022 8:45:00 PM 19.71 67.478 0.03 8.95 2.14 8.75
5/21/2022 9:00:00 PM 19.58 67.244 0.03 8.98 2.15 8.75
5/21/2022 9:15:00 PM 19.45 67.01 0.031 8.95 2.1 8.75
5/21/2022 9:30:00 PM 19.32 66.776 0.031 8.87 2.13 8.7
5/21/2022 9:45:00 PM 19.21 66.578 0.03 8.9 2.32 8.77
5/21/2022 10:00:00 PM 19.09 66.362 0.03 8.93 2.12 8.79
5/21/2022 10:15:00 PM 19 66.2 0.03 8.88 2.21 8.77
5/21/2022 10:30:00 PM 18.9 66.02 0.03 8.87 2.21 8.77
5/21/2022 10:45:00 PM 18.79 65.82201 0.032 8.84 2.05 8.72
5/21/2022 11:00:00 PM 18.69 65.642 0.03 8.84 2.04 8.83
5/21/2022 11:15:00 PM 18.6 65.48 0.03 8.85 2.14 8.84
5/21/2022 11:30:00 PM 18.52 65.336 0.03 8.83 2.14 8.87
5/21/2022 11:45:00 PM 18.44 65.192 0.031 8.84 2.14 8.88
5/22/2022 12:00:00 AM 18.36 65.048 0.032 8.79 2.15 8.84
5/22/2022 12:15:00 AM 18.3 64.94 0.031 8.84 2.4 8.87
5/22/2022 12:30:00 AM 18.24 64.832 0.03 8.82 2.22 8.93
5/22/2022 12:45:00 AM 18.17 64.706 0.031 8.86 2.48 8.95
5/22/2022 1:00:00 AM 18.09 64.562 0.031 8.76 2.31 8.9
5/22/2022 1:15:00 AM 18.02 64.436 0.033 8.76 2.26 8.86
5/22/2022 1:30:00 AM 17.97 64.346 0.032 8.79 2.22 8.91
5/22/2022 1:45:00 AM 17.9 64.22 0.032 8.78 3.04 8.91
5/22/2022 2:00:00 AM 17.84 64.112 0.033 8.76 2.37 8.89
5/22/2022 2:15:00 AM 17.78 64.004 0.033 8.76 2.38 8.91
5/22/2022 2:30:00 AM 17.73 63.914 0.032 8.75 2.19 8.95
5/22/2022 2:45:00 AM 17.71 63.878 0.03 8.77 2.21 9.02
5/22/2022 3:00:00 AM 17.66 63.788 0.031 8.77 2.37 9.02
5/22/2022 3:15:00 AM 17.61 63.698 0.031 8.74 2.11 8.98
5/22/2022 3:30:00 AM 17.55 63.59 0.032 8.72 2.11 8.95
5/22/2022 3:45:00 AM 17.5 63.5 0.031 8.75 2.06 9.01
5/22/2022 4:00:00 AM 17.45 63.41 0.031 8.75 2.31 9.03
5/22/2022 4:15:00 AM 17.39 63.302 0.031 8.74 2.2 9.04
5/22/2022 4:30:00 AM 17.32 63.176 0.031 8.74 2.33 9.06
5/22/2022 4:45:00 AM 17.25 63.05 0.032 8.72 2.28 9.03
5/22/2022 5:00:00 AM 17.18 62.924 0.032 8.71 2.34 9.06
5/22/2022 5:15:00 AM 17.12 62.816 0.032 8.72 2.03 9
5/22/2022 5:30:00 AM 17.07 62.726 0.032 8.68 2.38 9.05
5/22/2022 5:45:00 AM 17.03 62.654 0.031 8.7 2.23 9.15
5/22/2022 6:00:00 AM 16.96 62.528 0.032 8.7 2.34 9.1
5/22/2022 6:15:00 AM 16.91 62.438 0.033 8.66 2.21 9.09
5/22/2022 6:30:00 AM 16.87 62.366 0.034 8.65 2.79 9.12
5/22/2022 6:45:00 AM 16.86 62.348 0.031 8.69 2.27 9.21
5/22/2022 7:00:00 AM 16.87 62.366 0.031 8.72 2.17 9.24
5/22/2022 7:15:00 AM 16.86 62.348 0.032 8.71 2.24 9.29
5/22/2022 7:30:00 AM 16.87 62.366 0.032 8.71 2.6 9.34
5/22/2022 7:45:00 AM 16.89 62.402 0.031 8.7 2.12 9.45
5/22/2022 8:00:00 AM 16.99 62.582 0.03 8.76 2.24 9.47
5/22/2022 8:15:00 AM 17.04 62.672 0.031 8.76 2.02 9.52
5/22/2022 8:30:00 AM 17.11 62.798 0.032 8.77 2.26 9.57
5/22/2022 8:45:00 AM 17.15 62.87 0.032 8.76 2.15 9.58
5/22/2022 9:00:00 AM 17.3 63.14 0.032 8.78 2.16 9.6
5/22/2022 9:15:00 AM 17.44 63.392 0.032 8.78 2.17 9.59
5/22/2022 9:30:00 AM 17.57 63.626 0.032 8.82 2.11 9.62
5/22/2022 9:45:00 AM 17.69 63.842 0.031 8.83 2.06 9.63
5/22/2022 10:00:00 AM 17.81 64.058 0.031 8.88 2.23 9.67
5/22/2022 10:15:00 AM 17.88 64.184 0.031 8.86 2.19 9.66
5/22/2022 10:30:00 AM 17.94 64.292 0.032 8.89 2.21 9.69
5/22/2022 10:45:00 AM 18.05 64.49 0.031 8.87 2.21 9.69
5/22/2022 11:00:00 AM 18.19 64.742 0.03 8.9 2.16 9.69
5/22/2022 11:15:00 AM 18.33 64.994 0.03 8.94 2.14 9.69
5/22/2022 11:30:00 AM 18.51 65.318 0.03 8.95 2.21 9.65
5/22/2022 11:45:00 AM 18.79 65.82201 0.029 8.97 2.17 9.67
5/22/2022 12:00:00 PM 19.06 66.308 0.029 9.02 1.96 9.66
5/22/2022 12:15:00 PM 19.45 67.01 0.029 9.05 2.04 9.62
5/22/2022 12:30:00 PM 19.78 67.604 0.029 9.05 2.2 9.56
5/22/2022 12:45:00 PM 20.1 68.18 0.029 9.05 2.1 9.5
5/22/2022 1:00:00 PM 20.44 68.792 0.029 9.15 2.59 9.45
5/22/2022 1:15:00 PM 20.78 69.404 0.029 9.13 2.33 9.42
5/22/2022 1:30:00 PM 21.05 69.89 0.029 9.17 2.31 9.35
5/22/2022 1:45:00 PM 21.33 70.394 0.029 9.19 1.99 9.31
5/22/2022 2:00:00 PM 21.6 70.88 0.029 9.24 2.42 9.24
5/22/2022 2:15:00 PM 21.82 71.276 0.03 9.28 1.98 9.2
5/22/2022 2:30:00 PM 22.06 71.708 0.029 9.32 2.05 9.19
5/22/2022 2:45:00 PM 22.22 71.996 0.029 9.34 2.18 9.1
5/22/2022 3:00:00 PM 22.23 72.014 0.029 9.37 2.41 9.08
5/22/2022 3:15:00 PM 22.25 72.05 0.03 9.35 2.21 9.04
5/22/2022 3:30:00 PM 22.32 72.176 0.03 9.37 2.2 9.02
5/22/2022 3:45:00 PM 22.36 72.248 0.03 9.37 2.02 8.99
5/22/2022 4:00:00 PM 22.46 72.42799 0.029 9.38 1.92 8.94
5/22/2022 4:15:00 PM 22.5 72.5 0.03 9.4 2.07 8.9
5/22/2022 4:30:00 PM 22.51 72.518 0.029 9.41 2.25 8.87
5/22/2022 4:45:00 PM 22.43 72.374 0.029 9.42 2.69 8.83
5/22/2022 5:00:00 PM 22.36 72.248 0.03 9.38 2.48 8.81
5/22/2022 5:15:00 PM 22.25 72.05 0.033 9.4 7.75 8.78
5/22/2022 5:30:00 PM 22.21 71.978 0.034 9.35 6.91 8.74
5/22/2022 5:45:00 PM 22.08 71.744 0.033 9.37 5.03 8.73
5/22/2022 6:00:00 PM 21.97 71.546 0.032 9.33 3.72 8.7
5/22/2022 6:15:00 PM 21.81 71.258 0.031 9.27 3.28 8.67
5/22/2022 6:30:00 PM 21.62 70.916 0.031 9.26 3.19 8.63
5/22/2022 6:45:00 PM 21.4 70.52 0.034 9.26 22.56 8.57
5/22/2022 7:00:00 PM 21.15 70.07 0.041 9.36 31.39 8.57
5/22/2022 7:15:00 PM 20.96 69.728 0.037 9.32 15.65 8.59
5/22/2022 7:30:00 PM 20.8 69.44 0.036 9.23 10.95 8.53
5/22/2022 7:45:00 PM 20.62 69.116 0.033 9.19 6.09 8.54
5/22/2022 8:00:00 PM 20.45 68.81 0.033 9.12 5.47 8.55
5/22/2022 8:15:00 PM 20.3 68.54 0.033 9.13 4.04 8.54
5/22/2022 8:30:00 PM 20.16 68.288 0.033 9.06 4.12 8.5
5/22/2022 8:45:00 PM 20.01 68.018 0.032 9.09 3.41 8.56
5/22/2022 9:00:00 PM 19.86 67.748 0.033 9.04 3.67 8.53
5/22/2022 9:15:00 PM 19.71 67.478 0.033 9.02 3.74 8.54
5/22/2022 9:30:00 PM 19.57 67.226 0.033 9.03 3.86 8.63
5/22/2022 9:45:00 PM 19.41 66.938 0.032 9.03 3.98 8.67
5/22/2022 10:00:00 PM 19.27 66.686 0.033 9.03 4.5 8.62
5/22/2022 10:15:00 PM 19.11 66.398 0.033 8.98 4.5 8.64
5/22/2022 10:30:00 PM 18.98 66.164 0.032 8.99 4.43 8.71
5/22/2022 10:45:00 PM 18.83 65.894 0.033 8.94 3.84 8.7
5/22/2022 11:00:00 PM 18.66 65.588 0.032 8.95 3.54 8.78
5/22/2022 11:15:00 PM 18.52 65.336 0.033 8.94 3.35 8.78
5/22/2022 11:30:00 PM 18.37 65.066 0.032 8.93 3.68 8.85
5/22/2022 11:45:00 PM 18.2 64.76 0.032 8.94 2.93 8.91
5/23/2022 12:00:00 AM 18.05 64.49 0.032 8.9 2.94 8.93
5/23/2022 12:15:00 AM 17.86 64.148 0.031 8.93 2.75 9.02
5/23/2022 12:30:00 AM 17.69 63.842 0.031 8.9 2.89 9.04
5/23/2022 12:45:00 AM 17.5 63.5 0.031 8.87 2.97 9.1
5/23/2022 1:00:00 AM 17.36 63.248 0.032 8.89 3.27 9.15
5/23/2022 1:15:00 AM 17.2 62.96 0.031 8.86 2.74 9.19
5/23/2022 1:30:00 AM 17.04 62.672 0.032 8.88 3.02 9.23
5/23/2022 1:45:00 AM 16.88 62.384 0.032 8.83 3.48 9.27
5/23/2022 2:00:00 AM 16.74 62.132 0.033 8.82 3.05 9.24
5/23/2022 2:15:00 AM 16.62 61.916 0.032 8.8 2.94 9.33
5/23/2022 2:30:00 AM 16.52 61.736 0.032 8.81 3.21 9.34
5/23/2022 2:45:00 AM 16.42 61.556 0.032 8.75 3.49 9.33
5/23/2022 3:00:00 AM 16.32 61.376 0.032 8.75 2.84 9.34
5/23/2022 3:15:00 AM 16.24 61.232 0.033 8.79 3.15 9.42
5/23/2022 3:30:00 AM 16.15 61.07 0.032 8.79 3.1 9.46
5/23/2022 3:45:00 AM 16.05 60.89 0.032 8.78 3.2 9.51
5/23/2022 4:00:00 AM 15.93 60.674 0.032 8.78 3.1 9.51
5/23/2022 4:15:00 AM 15.82 60.476 0.034 8.72 3.6 9.45
5/23/2022 4:30:00 AM 15.7 60.26 0.033 8.73 3.13 9.49
5/23/2022 4:45:00 AM 15.63 60.134 0.032 8.74 2.84 9.57
5/23/2022 5:00:00 AM 15.49 59.882 0.032 8.72 3.14 9.58
5/23/2022 5:15:00 AM 15.4 59.72 0.032 8.73 3.34 9.61
5/23/2022 5:30:00 AM 15.3 59.54 0.033 8.71 2.82 9.58
5/23/2022 5:45:00 AM 15.18 59.324 0.032 8.7 2.9 9.55
5/23/2022 6:00:00 AM 15.11 59.198 0.032 8.71 2.97 9.63
5/23/2022 6:15:00 AM 15 59 0.031 8.65 2.84 9.62
5/23/2022 6:30:00 AM 14.95 58.91 0.032 8.69 2.91 9.77
5/23/2022 6:45:00 AM 14.89 58.802 0.031 8.7 3.15 9.82
5/23/2022 7:00:00 AM 14.83 58.694 0.032 8.7 2.8 9.8
5/23/2022 7:15:00 AM 14.8 58.64 0.032 8.72 2.95 9.89
5/23/2022 7:30:00 AM 14.79 58.622 0.033 8.69 2.92 9.96
5/23/2022 7:45:00 AM 14.76 58.568 0.033 8.7 2.76 10.02
5/23/2022 8:00:00 AM 14.75 58.55 0.031 8.76 2.56 10.06
5/23/2022 8:15:00 AM 14.73 58.514 0.031 8.7 2.52 10.08
5/23/2022 8:30:00 AM 14.68 58.424 0.032 8.73 2.7 10.11
5/23/2022 8:45:00 AM 14.68 58.424 0.035 8.71 2.94 10.11
5/23/2022 9:00:00 AM 14.79 58.622 0.031 8.73 2.49 10.22
5/23/2022 9:15:00 AM 14.89 58.802 0.031 8.76 2.46 10.24
5/23/2022 9:30:00 AM 15 59 0.033 8.77 2.44 10.22
5/23/2022 9:45:00 AM 15.13 59.234 0.032 8.81 2.57 10.22
5/23/2022 10:00:00 AM 15.44 59.792 0.032 8.8 2.68 10.17
5/23/2022 10:15:00 AM 15.66 60.188 0.031 8.8 2.58 10.16
5/23/2022 10:30:00 AM 15.81 60.458 0.032 8.83 2.57 10.18
5/23/2022 10:45:00 AM 15.95 60.71 0.032 8.83 2.51 10.15
5/23/2022 11:00:00 AM 16.15 61.07 0.032 8.83 2.46 10.14
5/23/2022 11:15:00 AM 16.33 61.394 0.031 8.88 2.42 10.16
5/23/2022 11:30:00 AM 16.5 61.7 0.031 8.87 2.31 10.15
5/23/2022 11:45:00 AM 16.67 62.006 0.03 8.91 2.62 10.13
5/23/2022 12:00:00 PM 16.81 62.258 0.031 8.9 2.34 10.06
5/23/2022 12:15:00 PM 16.96 62.528 0.032 8.89 2.33 10.06
5/23/2022 12:30:00 PM 17.21 62.978 0.03 8.94 2.46 10.04
5/23/2022 12:45:00 PM 17.31 63.158 0.03 8.95 2.27 10.03
5/23/2022 1:00:00 PM 17.39 63.302 0.031 8.93 2.26 9.99
5/23/2022 1:15:00 PM 17.49 63.482 0.031 8.97 2.41 9.96
5/23/2022 1:30:00 PM 17.6 63.68 0.03 8.98 2.21 9.97
5/23/2022 1:45:00 PM 17.67 63.806 0.03 9 2.41 9.96
5/23/2022 2:00:00 PM 17.76 63.968 0.029 8.99 2.55 9.96
5/23/2022 2:15:00 PM 17.82 64.076 0.03 9.03 2.56 9.92
5/23/2022 2:30:00 PM 17.95 64.31 0.029 9.02 2.35 9.93
5/23/2022 2:45:00 PM 18.01 64.418 0.03 9.04 2.51 9.89
5/23/2022 3:00:00 PM 18.06 64.508 0.03 9.05 2.44 9.86
5/23/2022 3:15:00 PM 18.09 64.562 0.03 9 2.44 9.84
5/23/2022 3:30:00 PM 18.12 64.616 0.03 9.01 2.29 9.81
5/23/2022 3:45:00 PM 18.05 64.49 0.032 8.96 2.38 9.76
5/23/2022 4:00:00 PM 18.09 64.562 0.03 9.01 2.34 9.79
5/23/2022 4:15:00 PM 18.06 64.508 0.03 9.02 2.29 9.72
5/23/2022 4:30:00 PM 17.99 64.382 0.029 9.02 2.55 9.74
5/23/2022 4:45:00 PM 17.92 64.256 0.03 8.99 2.41 9.73
5/23/2022 5:00:00 PM 17.81 64.058 0.031 8.94 2.35 9.71
5/23/2022 5:15:00 PM 17.75 63.95 0.03 8.99 2.4 9.73
5/23/2022 5:30:00 PM 17.67 63.806 0.03 8.95 2.52 9.74
5/23/2022 5:45:00 PM 17.56 63.608 0.03 8.92 2.29 9.72
5/23/2022 6:00:00 PM 17.48 63.464 0.031 8.91 2.47 9.7
5/23/2022 6:15:00 PM 17.39 63.302 0.03 8.96 2.43 9.65
5/23/2022 6:30:00 PM 17.3 63.14 0.03 8.9 2.51 9.67
5/23/2022 6:45:00 PM 17.2 62.96 0.03 8.92 2.64 9.68
5/23/2022 7:00:00 PM 17.08 62.744 0.029 8.89 2.34 9.66
5/23/2022 7:15:00 PM 16.98 62.564 0.03 8.9 2.66 9.61
5/23/2022 7:30:00 PM 16.88 62.384 0.03 8.82 2.52 9.56
5/23/2022 7:45:00 PM 16.77 62.186 0.03 8.85 2.47 9.58
5/23/2022 8:00:00 PM 16.67 62.006 0.031 8.83 3.05 9.54
5/23/2022 8:15:00 PM 16.55 61.79 0.03 8.78 2.56 9.51
5/23/2022 8:30:00 PM 16.47 61.646 0.032 8.79 2.95 9.45
5/23/2022 8:45:00 PM 16.37 61.466 0.032 8.79 2.66 9.42
5/23/2022 9:00:00 PM 16.28 61.304 0.032 8.75 2.45 9.42
5/23/2022 9:15:00 PM 16.18 61.124 0.033 8.76 2.43 9.41
5/23/2022 9:30:00 PM 16.1 60.98 0.032 8.75 2.52 9.47
5/23/2022 9:45:00 PM 16 60.8 0.032 8.75 2.59 9.46
5/23/2022 10:00:00 PM 15.92 60.656 0.032 8.76 2.88 9.48
5/23/2022 10:15:00 PM 15.83 60.494 0.033 8.72 2.55 9.47
5/23/2022 10:30:00 PM 15.74 60.332 0.033 8.69 2.61 9.44
5/23/2022 10:45:00 PM 15.66 60.188 0.033 8.69 2.4 9.53
5/23/2022 11:00:00 PM 15.59 60.062 0.033 8.68 2.7 9.53
5/23/2022 11:15:00 PM 15.5 59.9 0.032 8.73 2.48 9.59
5/23/2022 11:30:00 PM 15.44 59.792 0.034 8.63 2.52 9.46
5/23/2022 11:45:00 PM 15.36 59.648 0.032 8.7 2.46 9.56
5/24/2022 12:00:00 AM 15.3 59.54 0.033 8.64 2.39 9.54
5/24/2022 12:15:00 AM 15.22 59.396 0.033 8.64 2.66 9.55
5/24/2022 12:30:00 AM 15.14 59.252 0.034 8.62 2.41 9.55
5/24/2022 12:45:00 AM 15.09 59.162 0.032 8.65 2.5 9.61
5/24/2022 1:00:00 AM 15.02 59.036 0.033 8.65 2.57 9.59
5/24/2022 1:15:00 AM 14.96 58.928 0.032 8.62 2.47 9.67
5/24/2022 1:30:00 AM 14.89 58.802 0.034 8.62 2.32 9.6
5/24/2022 1:45:00 AM 14.83 58.694 0.034 8.59 2.42 9.59
5/24/2022 2:00:00 AM 14.77 58.586 0.034 8.57 2.33 9.58
5/24/2022 2:15:00 AM 14.72 58.496 0.033 8.59 2.42 9.66
5/24/2022 2:30:00 AM 14.63 58.334 0.034 8.55 2.4 9.56
5/24/2022 2:45:00 AM 14.58 58.244 0.034 8.56 2.37 9.63
5/24/2022 3:00:00 AM 14.53 58.154 0.032 8.66 2.39 9.73
5/24/2022 3:15:00 AM 14.47 58.046 0.034 8.6 2.36 9.69
5/24/2022 3:30:00 AM 14.4 57.92 0.034 8.56 2.49 9.64
5/24/2022 3:45:00 AM 14.34 57.812 0.032 8.61 2.36 9.81
5/24/2022 4:00:00 AM 14.27 57.686 0.031 8.57 2.37 9.73
5/24/2022 4:15:00 AM 14.2 57.56 0.033 8.58 2.48 9.78
5/24/2022 4:30:00 AM 14.13 57.434 0.036 8.54 2.35 9.65
5/24/2022 4:45:00 AM 14.04 57.272 0.034 8.56 2.43 9.73
5/24/2022 5:00:00 AM 13.97 57.146 0.034 8.54 2.46 9.78
5/24/2022 5:15:00 AM 13.88 56.984 0.037 8.52 2.22 9.67
5/24/2022 5:30:00 AM 13.8 56.84 0.036 8.55 2.34 9.7
5/24/2022 5:45:00 AM 13.74 56.732 0.033 8.55 2.63 9.84
5/24/2022 6:00:00 AM 13.66 56.588 0.036 8.54 2.33 9.79
5/24/2022 6:15:00 AM 13.6 56.48 0.038 8.45 2.38 9.68
5/24/2022 6:30:00 AM 13.55 56.39 0.037 8.52 2.52 9.74
5/24/2022 6:45:00 AM 13.53 56.354 0.036 8.49 2.39 9.85
5/24/2022 7:00:00 AM 13.48 56.264 0.035 8.51 2.34 9.9
5/24/2022 7:15:00 AM 13.49 56.282 0.034 8.55 2.63 10.03
5/24/2022 7:30:00 AM 13.49 56.282 0.034 8.57 2.49 10.1
5/24/2022 7:45:00 AM 13.49 56.282 0.034 8.59 2.39 10.11
5/24/2022 8:00:00 AM 13.5 56.3 0.035 8.56 2.45 10.18
5/24/2022 8:15:00 AM 13.55 56.39 0.033 8.61 2.3 10.25
5/24/2022 8:30:00 AM 13.63 56.534 0.032 8.63 2.28 10.32
5/24/2022 8:45:00 AM 13.67 56.606 0.031 8.68 2.24 10.36
5/24/2022 9:00:00 AM 13.72 56.696 0.033 8.68 2.95 10.4
5/24/2022 9:15:00 AM 13.78 56.804 0.032 8.65 2.36 10.43
5/24/2022 9:30:00 AM 13.86 56.948 0.031 8.69 2.26 10.46
5/24/2022 9:45:00 AM 13.89 57.002 0.032 8.69 2.17 10.46
5/24/2022 10:00:00 AM 13.95 57.11 0.031 8.74 2.17 10.5
5/24/2022 10:15:00 AM 13.96 57.128 0.033 8.68 2.1 10.43
5/24/2022 10:30:00 AM 14 57.2 0.033 8.65 2.07 10.44
5/24/2022 10:45:00 AM 14.06 57.308 0.034 8.67 2.21 10.44
5/24/2022 11:00:00 AM 14.15 57.47 0.031 8.69 2.09 10.48
5/24/2022 11:15:00 AM 14.22 57.596 0.032 8.71 2.31 10.47
5/24/2022 11:30:00 AM 14.33 57.794 0.033 8.7 2.13 10.44
5/24/2022 11:45:00 AM 14.45 58.01 0.032 8.73 2.27 10.46
5/24/2022 12:00:00 PM 14.58 58.244 0.031 8.78 2.23 10.52
5/24/2022 12:15:00 PM 14.65 58.37 0.032 8.75 2.21 10.52
5/24/2022 12:30:00 PM 14.78 58.604 0.033 8.76 2.19 10.47
5/24/2022 12:45:00 PM 14.88 58.784 0.032 8.79 2.13 10.47
5/24/2022 1:00:00 PM 14.97 58.946 0.033 8.73 2.05 10.42
5/24/2022 1:15:00 PM 15.1 59.18 0.032 8.78 2.25 10.42
5/24/2022 1:30:00 PM 15.18 59.324 0.031 8.8 2.15 10.41
5/24/2022 1:45:00 PM 15.22 59.396 0.031 8.84 2.24 10.38
5/24/2022 2:00:00 PM 15.17 59.306 0.033 8.72 2.19 10.29
5/24/2022 2:15:00 PM 15.18 59.324 0.032 8.77 2.18 10.31
5/24/2022 2:30:00 PM 15.12 59.216 0.033 8.74 2.27 10.21
5/24/2022 2:45:00 PM 15.09 59.162 0.033 8.71 2.07 10.16
5/24/2022 3:00:00 PM 15.12 59.216 0.031 8.78 2.12 10.24
5/24/2022 3:15:00 PM 15.12 59.216 0.031 8.75 2.07 10.24
5/24/2022 3:30:00 PM 15.12 59.216 0.032 8.78 2.13 10.23
5/24/2022 3:45:00 PM 15.12 59.216 0.033 8.71 2.02 10.2
5/24/2022 4:00:00 PM 15.12 59.216 0.033 8.72 2.11 10.21
5/24/2022 4:15:00 PM 15.15 59.27 0.032 8.7 2.35 10.18
5/24/2022 4:30:00 PM 15.23 59.414 0.032 8.75 1.98 10.22
5/24/2022 4:45:00 PM 15.28 59.504 0.031 8.75 2.16 10.22
5/24/2022 5:00:00 PM 15.31 59.558 0.033 8.78 2.24 10.17
5/24/2022 5:15:00 PM 15.32 59.576 0.033 8.73 2.17 10.2
5/24/2022 5:30:00 PM 15.35 59.63 0.031 8.75 2.69 10.2
5/24/2022 5:45:00 PM 15.36 59.648 0.033 8.74 2 10.16
5/24/2022 6:00:00 PM 15.35 59.63 0.033 8.71 2.14 10.17
5/24/2022 6:15:00 PM 15.34 59.612 0.033 8.73 2.23 10.15
5/24/2022 6:30:00 PM 15.35 59.63 0.031 8.72 2.23 10.17
5/24/2022 6:45:00 PM 15.31 59.558 0.032 8.71 2.24 10.11
5/24/2022 7:00:00 PM 15.3 59.54 0.031 8.7 2.17 10.07
5/24/2022 7:15:00 PM 15.25 59.45 0.032 8.72 2.15 10.07
5/24/2022 7:30:00 PM 15.21 59.378 0.031 8.71 2.1 10.07
5/24/2022 7:45:00 PM 15.15 59.27 0.032 8.7 2.32 10.02
5/24/2022 8:00:00 PM 15.09 59.162 0.034 8.66 2.22 9.97
5/24/2022 8:15:00 PM 15.05 59.09 0.033 8.64 2.18 9.92
5/24/2022 8:30:00 PM 14.99 58.982 0.034 8.64 2.25 9.92
5/24/2022 8:45:00 PM 14.94 58.892 0.033 8.63 2.34 9.85
5/24/2022 9:00:00 PM 14.88 58.784 0.034 8.63 2.58 9.8
5/24/2022 9:15:00 PM 14.84 58.712 0.035 8.64 2.24 9.75
5/24/2022 9:30:00 PM 14.77 58.586 0.036 8.57 3.75 9.71
5/24/2022 9:45:00 PM 14.73 58.514 0.036 8.58 2.84 9.74
5/24/2022 10:00:00 PM 14.68 58.424 0.035 8.55 2.45 9.67
5/24/2022 10:15:00 PM 14.63 58.334 0.034 8.59 2.36 9.77
5/24/2022 10:30:00 PM 14.58 58.244 0.035 8.6 2.24 9.74
5/24/2022 10:45:00 PM 14.54 58.172 0.034 8.54 2.32 9.75
5/24/2022 11:00:00 PM 14.5 58.1 0.034 8.53 2.24 9.72
5/24/2022 11:15:00 PM 14.46 58.028 0.033 8.56 2.57 9.79
5/24/2022 11:30:00 PM 14.41 57.938 0.034 8.55 2.2 9.76
5/24/2022 11:45:00 PM 14.36 57.848 0.035 8.55 2.35 9.74
5/25/2022 12:00:00 AM 14.31 57.758 0.033 8.54 2.31 9.85
5/25/2022 12:15:00 AM 14.25 57.65 0.035 8.54 2.29 9.76
5/25/2022 12:30:00 AM 14.2 57.56 0.035 8.51 2.26 9.75
5/25/2022 12:45:00 AM 14.11 57.398 0.036 8.52 2.48 9.79
5/25/2022 1:00:00 AM 14.05 57.29 0.035 8.5 3.12 9.82
5/25/2022 1:15:00 AM 13.97 57.146 0.034 8.53 2.23 9.86
5/25/2022 1:30:00 AM 13.89 57.002 0.034 8.54 2.66 9.89
5/25/2022 1:45:00 AM 13.8 56.84 0.034 8.51 2.3 9.92
5/25/2022 2:00:00 AM 13.72 56.696 0.034 8.54 2.34 9.94
5/25/2022 2:15:00 AM 13.65 56.57 0.034 8.47 2.31 9.86
5/25/2022 2:30:00 AM 13.57 56.426 0.033 8.51 2.4 9.97
5/25/2022 2:45:00 AM 13.49 56.282 0.033 8.52 2.66 9.94
5/25/2022 3:00:00 AM 13.41 56.138 0.034 8.46 2.35 9.99
5/25/2022 3:15:00 AM 13.34 56.012 0.033 8.51 2.41 10.03
5/25/2022 3:30:00 AM 13.26 55.868 0.032 8.5 2.23 10.04
5/25/2022 3:45:00 AM 13.2 55.76 0.035 8.47 2.4 9.98
5/25/2022 4:00:00 AM 13.15 55.67 0.033 8.48 2.41 10.11
5/25/2022 4:15:00 AM 13.1 55.58 0.033 8.47 2.35 10.12
5/25/2022 4:30:00 AM 13.06 55.508 0.033 8.48 2.48 10.12
5/25/2022 4:45:00 AM 13.01 55.418 0.034 8.48 2.76 10.11
5/25/2022 5:00:00 AM 12.97 55.346 0.035 8.5 2.37 10.11
5/25/2022 5:15:00 AM 12.94 55.292 0.034 8.49 2.25 10.15
5/25/2022 5:30:00 AM 12.9 55.22 0.035 8.46 2.29 10.1
5/25/2022 5:45:00 AM 12.87 55.166 0.036 8.46 2.3 10.1
5/25/2022 6:00:00 AM 12.84 55.112 0.035 8.49 2.51 10.13
5/25/2022 6:15:00 AM 12.82 55.076 0.035 8.47 2.35 10.18
5/25/2022 6:30:00 AM 12.8 55.04 0.035 8.51 2.26 10.22
5/25/2022 6:45:00 AM 12.79 55.022 0.033 8.48 2.32 10.27
5/25/2022 7:00:00 AM 12.79 55.022 0.034 8.53 2.56 10.31
5/25/2022 7:15:00 AM 12.8 55.04 0.034 8.52 2.2 10.35
5/25/2022 7:30:00 AM 12.82 55.076 0.033 8.5 2.43 10.41
5/25/2022 7:45:00 AM 12.85 55.13 0.033 8.53 2.19 10.45
5/25/2022 8:00:00 AM 12.89 55.202 0.033 8.54 2.23 10.5
5/25/2022 8:15:00 AM 12.95 55.31 0.033 8.55 2.2 10.57
5/25/2022 8:30:00 AM 13.01 55.418 0.034 8.59 2.26 10.59
5/25/2022 8:45:00 AM 13.06 55.508 0.034 8.54 2.25 10.58
5/25/2022 9:00:00 AM 13.18 55.724 0.033 8.58 2.25 10.65
5/25/2022 9:15:00 AM 13.26 55.868 0.033 8.61 2.16 10.66
5/25/2022 9:30:00 AM 13.36 56.048 0.033 8.62 2.2 10.65
5/25/2022 9:45:00 AM 13.5 56.3 0.034 8.64 2.23 10.68
5/25/2022 10:00:00 AM 13.68 56.624 0.034 8.63 2.19 10.69
5/25/2022 10:15:00 AM 13.87 56.966 0.032 8.66 2.17 10.68
5/25/2022 10:30:00 AM 14.08 57.344 0.032 8.7 2.11 10.71
5/25/2022 10:45:00 AM 14.26 57.668 0.032 8.71 2.17 10.66
5/25/2022 11:00:00 AM 14.49 58.082 0.032 8.74 2 10.63
5/25/2022 11:15:00 AM 14.78 58.604 0.033 8.74 2.02 10.58
5/25/2022 11:30:00 AM 15.03 59.054 0.031 8.8 2.11 10.56
5/25/2022 11:45:00 AM 15.35 59.63 0.032 8.83 2.07 10.5
5/25/2022 12:00:00 PM 15.66 60.188 0.032 8.82 2 10.46
5/25/2022 12:15:00 PM 16.01 60.818 0.031 8.89 2.11 10.43
5/25/2022 12:30:00 PM 16.29 61.322 0.031 8.92 2.04 10.36
5/25/2022 12:45:00 PM 16.57 61.826 0.031 8.9 1.96 10.29
5/25/2022 1:00:00 PM 16.92 62.456 0.031 8.96 2.09 10.23
5/25/2022 1:15:00 PM 17.21 62.978 0.031 8.97 2.05 10.18
5/25/2022 1:30:00 PM 17.5 63.5 0.032 8.98 2.1 10.1
5/25/2022 1:45:00 PM 17.8 64.04 0.031 9.01 2.02 10.06
5/25/2022 2:00:00 PM 18.01 64.418 0.031 9.05 2.05 10.01
5/25/2022 2:15:00 PM 18.28 64.904 0.031 9.08 2.04 9.95
5/25/2022 2:30:00 PM 18.54 65.372 0.031 9.07 1.91 9.89
5/25/2022 2:45:00 PM 18.76 65.768 0.031 9.09 2.09 9.85
5/25/2022 3:00:00 PM 18.95 66.11 0.031 9.12 1.9 9.83
5/25/2022 3:15:00 PM 19.17 66.506 0.031 9.14 2.14 9.78
5/25/2022 3:30:00 PM 19.22 66.596 0.031 9.15 2.04 9.74
5/25/2022 3:45:00 PM 19.35 66.83 0.031 9.15 2.01 9.71
5/25/2022 4:00:00 PM 19.45 67.01 0.031 9.19 1.82 9.74
5/25/2022 4:15:00 PM 19.48 67.064 0.031 9.18 2.15 9.66
5/25/2022 4:30:00 PM 19.55 67.19 0.031 9.18 2.03 9.63
5/25/2022 4:45:00 PM 19.6 67.28 0.031 9.2 2.07 9.57
5/25/2022 5:00:00 PM 19.68 67.424 0.031 9.21 1.98 9.58
5/25/2022 5:15:00 PM 19.63 67.334 0.031 9.19 2.55 9.54
5/25/2022 5:30:00 PM 19.63 67.334 0.031 9.21 2.13 9.52
5/25/2022 5:45:00 PM 19.61 67.298 0.031 9.23 2.06 9.52
5/25/2022 6:00:00 PM 19.55 67.19 0.032 9.21 2 9.51
5/25/2022 6:15:00 PM 19.43 66.974 0.032 9.17 2.06 9.49
5/25/2022 6:30:00 PM 19.28 66.704 0.032 9.17 2.14 9.47
5/25/2022 6:45:00 PM 19.11 66.398 0.032 9.16 2.08 9.48
5/25/2022 7:00:00 PM 18.91 66.038 0.033 9.08 2.72 9.38
5/25/2022 7:15:00 PM 18.68 65.624 0.033 9.1 2.12 9.44
5/25/2022 7:30:00 PM 18.42 65.156 0.033 9.05 2.11 9.4
5/25/2022 7:45:00 PM 18.18 64.724 0.032 9.08 2.2 9.42
5/25/2022 8:00:00 PM 17.97 64.346 0.033 9.03 2.16 9.38
5/25/2022 8:15:00 PM 17.79 64.022 0.033 9 2.11 9.35
5/25/2022 8:30:00 PM 17.6 63.68 0.034 8.99 2.21 9.28
5/25/2022 8:45:00 PM 17.45 63.41 0.033 8.97 2.17 9.31
5/25/2022 9:00:00 PM 17.28 63.104 0.034 8.96 2.27 9.29
5/25/2022 9:15:00 PM 17.12 62.816 0.034 8.88 2.73 9.27
5/25/2022 9:30:00 PM 17 62.6 0.033 8.91 2.45 9.27
5/25/2022 9:45:00 PM 16.88 62.384 0.035 8.8 4.47 9.18
5/25/2022 10:00:00 PM 16.75 62.15 0.034 8.88 2.16 9.27
5/25/2022 10:15:00 PM 16.64 61.952 0.033 8.82 2.35 9.29
5/25/2022 10:30:00 PM 16.53 61.754 0.034 8.82 2.46 9.29
5/25/2022 10:45:00 PM 16.43 61.574 0.034 8.82 2.13 9.31
5/25/2022 11:00:00 PM 16.32 61.376 0.035 8.79 2.1 9.32
5/25/2022 11:15:00 PM 16.25 61.25 0.034 8.81 2.25 9.37
5/25/2022 11:30:00 PM 16.15 61.07 0.033 8.79 2.34 9.39
5/25/2022 11:45:00 PM 16.05 60.89 0.037 8.75 5.74 9.3
5/26/2022 12:00:00 AM 15.96 60.728 0.035 8.81 2.49 9.41
5/26/2022 12:15:00 AM 15.88 60.584 0.034 8.77 2.21 9.41
5/26/2022 12:30:00 AM 15.8 60.44 0.034 8.78 2.22 9.44
5/26/2022 12:45:00 AM 15.72 60.296 0.034 8.75 2.36 9.45
5/26/2022 1:00:00 AM 15.63 60.134 0.035 8.72 2.24 9.43
5/26/2022 1:15:00 AM 15.55 59.99 0.034 8.75 2.25 9.48
5/26/2022 1:30:00 AM 15.47 59.846 0.035 8.77 2.26 9.51
5/26/2022 1:45:00 AM 15.39 59.702 0.035 8.71 3.61 9.48
5/26/2022 2:00:00 AM 15.31 59.558 0.035 8.71 2.47 9.52
5/26/2022 2:15:00 AM 15.23 59.414 0.034 8.73 2.24 9.57
5/26/2022 2:30:00 AM 15.16 59.288 0.034 8.73 2.21 9.57
5/26/2022 2:45:00 AM 15.07 59.126 0.034 8.73 2.37 9.6
5/26/2022 3:00:00 AM 15 59 0.035 8.72 2.36 9.6
5/26/2022 3:15:00 AM 14.93 58.874 0.035 8.74 2.43 9.63
5/26/2022 3:30:00 AM 14.86 58.748 0.035 8.74 2.37 9.64
5/26/2022 3:45:00 AM 14.79 58.622 0.035 8.68 2.36 9.66
5/26/2022 4:00:00 AM 14.72 58.496 0.035 8.66 2.67 9.65
5/26/2022 4:15:00 AM 14.65 58.37 0.034 8.69 2.44 9.7
5/26/2022 4:30:00 AM 14.58 58.244 0.035 8.73 2.37 9.7
5/26/2022 4:45:00 AM 14.51 58.118 0.036 8.68 2.34 9.71
5/26/2022 5:00:00 AM 14.44 57.992 0.035 8.7 2.33 9.74
5/26/2022 5:15:00 AM 14.37 57.866 0.035 8.66 2.28 9.72
5/26/2022 5:30:00 AM 14.3 57.74 0.035 8.67 2.25 9.75
5/26/2022 5:45:00 AM 14.23 57.614 0.035 8.69 2.32 9.75
5/26/2022 6:00:00 AM 14.15 57.47 0.036 8.67 2.32 9.74
5/26/2022 6:15:00 AM 14.1 57.38 0.035 8.64 2.21 9.79
5/26/2022 6:30:00 AM 14.03 57.254 0.036 8.63 2.29 9.81
5/26/2022 6:45:00 AM 13.98 57.164 0.035 8.64 2.3 9.88
5/26/2022 7:00:00 AM 13.95 57.11 0.034 8.66 2.71 9.93
5/26/2022 7:15:00 AM 13.91 57.038 0.035 8.62 2.34 9.98
5/26/2022 7:30:00 AM 13.89 57.002 0.036 8.65 2.21 10.07
5/26/2022 7:45:00 AM 13.88 56.984 0.036 8.65 2.82 10.13
5/26/2022 8:00:00 AM 13.85 56.93 0.035 8.66 2.13 10.18
5/26/2022 8:15:00 AM 13.86 56.948 0.034 8.67 2.76 10.21
5/26/2022 8:30:00 AM 13.9 57.02 0.035 8.69 2.22 10.28
5/26/2022 8:45:00 AM 13.96 57.128 0.035 8.7 2.39 10.32
5/26/2022 9:00:00 AM 14 57.2 0.035 8.72 2.21 10.36
5/26/2022 9:15:00 AM 14.1 57.38 0.034 8.75 2.24 10.39
5/26/2022 9:30:00 AM 14.23 57.614 0.033 8.76 2.17 10.44
5/26/2022 9:45:00 AM 14.38 57.884 0.034 8.79 2.1 10.44
5/26/2022 10:00:00 AM 14.5 58.1 0.034 8.81 2.15 10.43
5/26/2022 10:15:00 AM 14.67 58.406 0.034 8.85 2.09 10.45
5/26/2022 10:30:00 AM 14.83 58.694 0.033 8.85 2.05 10.46
5/26/2022 10:45:00 AM 15.03 59.054 0.033 8.87 2.13 10.47
5/26/2022 11:00:00 AM 15.2 59.36 0.033 8.88 2.07 10.42
5/26/2022 11:15:00 AM 15.36 59.648 0.033 8.91 2.12 10.43
5/26/2022 11:30:00 AM 15.53 59.954 0.034 8.91 2.73 10.42
5/26/2022 11:45:00 AM 15.71 60.278 0.033 8.93 2.15 10.42
5/26/2022 12:00:00 PM 15.88 60.584 0.033 8.96 2.13 10.37
5/26/2022 12:15:00 PM 16.17 61.106 0.033 8.97 2.3 10.38
5/26/2022 12:30:00 PM 16.41 61.538 0.032 9.01 2.15 10.35
5/26/2022 12:45:00 PM 16.62 61.916 0.032 9.01 2.11 10.3
5/26/2022 1:00:00 PM 16.81 62.258 0.032 9.07 2 10.28
5/26/2022 1:15:00 PM 16.98 62.564 0.032 9 1.98 10.24
5/26/2022 1:30:00 PM 17.13 62.834 0.033 9.04 1.93 10.19
5/26/2022 1:45:00 PM 17.33 63.194 0.032 9.03 2.15 10.16
5/26/2022 2:00:00 PM 17.57 63.626 0.032 9.07 2.05 10.09
5/26/2022 2:15:00 PM 17.74 63.932 0.032 9.08 1.98 10.03
5/26/2022 2:30:00 PM 17.88 64.184 0.032 9.08 2.03 9.99
5/26/2022 2:45:00 PM 18.07 64.526 0.032 9.12 2.1 9.97
5/26/2022 3:00:00 PM 18.2 64.76 0.032 9.13 2.22 9.92
5/26/2022 3:15:00 PM 18.18 64.724 0.034 9.12 1.94 9.87
5/26/2022 3:30:00 PM 18.2 64.76 0.032 9.09 2.12 9.84
5/26/2022 3:45:00 PM 18.17 64.706 0.032 9.12 2.12 9.81
5/26/2022 4:00:00 PM 18.13 64.634 0.033 9.1 2.08 9.77
5/26/2022 4:15:00 PM 18.07 64.526 0.034 9.08 2.34 9.78
5/26/2022 4:30:00 PM 18.03 64.454 0.032 9.1 2.24 9.76
5/26/2022 4:45:00 PM 17.95 64.31 0.033 9.08 2.11 9.67
5/26/2022 5:00:00 PM 17.89 64.202 0.032 9.03 2.71 9.65
5/26/2022 5:15:00 PM 17.82 64.076 0.033 9.03 2.08 9.63
5/26/2022 5:30:00 PM 17.76 63.968 0.033 9.02 2.13 9.61
5/26/2022 5:45:00 PM 17.69 63.842 0.033 9.02 2.1 9.55
5/26/2022 6:00:00 PM 17.61 63.698 0.033 9.01 2.15 9.53
5/26/2022 6:15:00 PM 17.53 63.554 0.033 8.98 2.15 9.48
5/26/2022 6:30:00 PM 17.46 63.428 0.033 8.97 2.2 9.45
5/26/2022 6:45:00 PM 17.38 63.284 0.033 8.95 2.08 9.41
5/26/2022 7:00:00 PM 17.31 63.158 0.033 8.98 2.25 9.41
5/26/2022 7:15:00 PM 17.22 62.996 0.033 8.93 2.23 9.39
5/26/2022 7:30:00 PM 17.15 62.87 0.033 8.93 2.14 9.38
5/26/2022 7:45:00 PM 17.07 62.726 0.034 8.92 2.31 9.35
5/26/2022 8:00:00 PM 17 62.6 0.034 8.92 2.54 9.31
5/26/2022 8:15:00 PM 16.93 62.474 0.034 8.86 2.54 9.3
5/26/2022 8:30:00 PM 16.88 62.384 0.034 8.9 2.21 9.28
5/26/2022 8:45:00 PM 16.81 62.258 0.034 8.87 2.25 9.28
5/26/2022 9:00:00 PM 16.73 62.114 0.034 8.84 2.17 9.27
5/26/2022 9:15:00 PM 16.66 61.988 0.036 8.81 2.59 9.23
5/26/2022 9:30:00 PM 16.62 61.916 0.034 8.86 2.81 9.24
5/26/2022 9:45:00 PM 16.56 61.808 0.034 8.84 4.23 9.25
5/26/2022 10:00:00 PM 16.5 61.7 0.035 8.89 2.37 9.26
5/26/2022 10:15:00 PM 16.45 61.61 0.035 8.82 2.27 9.22
5/26/2022 10:30:00 PM 16.4 61.52 0.035 8.83 2.22 9.23
5/26/2022 10:45:00 PM 16.35 61.43 0.035 8.84 2.09 9.24
5/26/2022 11:00:00 PM 16.3 61.34 0.035 8.81 2.22 9.23
5/26/2022 11:15:00 PM 16.26 61.268 0.035 8.84 2.17 9.26
5/26/2022 11:30:00 PM 16.21 61.178 0.036 8.78 2.16 9.22
5/26/2022 11:45:00 PM 16.16 61.088 0.036 8.81 2.18 9.25
5/27/2022 12:00:00 AM 16.12 61.016 0.036 8.79 2.25 9.26
5/27/2022 12:15:00 AM 16.08 60.944 0.036 8.77 2.2 9.25
5/27/2022 12:30:00 AM 16.05 60.89 0.036 8.78 2.23 9.29
5/27/2022 12:45:00 AM 16.02 60.836 0.036 8.78 2.32 9.26
5/27/2022 1:00:00 AM 15.98 60.764 0.037 8.75 3.03 9.27
5/27/2022 1:15:00 AM 15.95 60.71 0.038 8.75 2.9 9.21
5/27/2022 1:30:00 AM 15.92 60.656 0.037 8.78 2.35 9.27
5/27/2022 1:45:00 AM 15.89 60.602 0.037 8.75 2.58 9.27
5/27/2022 2:00:00 AM 15.87 60.566 0.037 8.75 3.05 9.26
5/27/2022 2:15:00 AM 15.84 60.512 0.037 8.75 2.44 9.25
5/27/2022 2:30:00 AM 15.82 60.476 0.036 8.78 2.37 9.29
5/27/2022 2:45:00 AM 15.79 60.422 0.037 8.77 2.33 9.32
5/27/2022 3:00:00 AM 15.76 60.368 0.037 8.79 2.24 9.34
5/27/2022 3:15:00 AM 15.74 60.332 0.037 8.79 2.19 9.35
5/27/2022 3:30:00 AM 15.72 60.296 0.036 8.78 2.28 9.34
5/27/2022 3:45:00 AM 15.7 60.26 0.037 8.75 2.5 9.32
5/27/2022 4:00:00 AM 15.67 60.206 0.037 8.74 2.44 9.32
5/27/2022 4:15:00 AM 15.65 60.17 0.037 8.76 2.38 9.36
5/27/2022 4:30:00 AM 15.62 60.116 0.037 8.77 2.31 9.37
5/27/2022 4:45:00 AM 15.61 60.098 0.036 8.8 2.22 9.39
5/27/2022 5:00:00 AM 15.59 60.062 0.038 8.77 2.39 9.35
5/27/2022 5:15:00 AM 15.56 60.008 0.037 8.71 2.53 9.3
5/27/2022 5:30:00 AM 15.54 59.972 0.038 8.74 2.89 9.3
5/27/2022 5:45:00 AM 15.53 59.954 0.036 8.78 2.25 9.36
5/27/2022 6:00:00 AM 15.51 59.918 0.037 8.73 2.38 9.37
5/27/2022 6:15:00 AM 15.49 59.882 0.037 8.78 3.23 9.36
5/27/2022 6:30:00 AM 15.48 59.864 0.037 8.74 2.5 9.39
5/27/2022 6:45:00 AM 15.46 59.828 0.037 8.75 2.23 9.41
5/27/2022 7:00:00 AM 15.45 59.81 0.037 8.77 2.39 9.44
5/27/2022 7:15:00 AM 15.44 59.792 0.038 8.75 2.39 9.39
5/27/2022 7:30:00 AM 15.44 59.792 0.037 8.76 2.32 9.44
5/27/2022 7:45:00 AM 15.44 59.792 0.037 8.75 2.41 9.46
5/27/2022 8:00:00 AM 15.43 59.774 0.037 8.79 2.33 9.48
5/27/2022 8:15:00 AM 15.44 59.792 0.037 8.77 2.29 9.53
5/27/2022 8:30:00 AM 15.46 59.828 0.036 8.78 2.26 9.54
5/27/2022 8:45:00 AM 15.48 59.864 0.036 8.76 2.42 9.55
5/27/2022 9:00:00 AM 15.5 59.9 0.036 8.78 2.21 9.6
5/27/2022 9:15:00 AM 15.5 59.9 0.037 8.78 2.18 9.63
5/27/2022 9:30:00 AM 15.53 59.954 0.036 8.79 2.17 9.66
5/27/2022 9:45:00 AM 15.55 59.99 0.035 8.81 2.26 9.66
5/27/2022 10:00:00 AM 15.58 60.044 0.035 8.81 2.32 9.69
5/27/2022 10:15:00 AM 15.62 60.116 0.036 8.83 2.27 9.73
5/27/2022 10:30:00 AM 15.66 60.188 0.036 8.81 2.24 9.76
5/27/2022 10:45:00 AM 15.7 60.26 0.037 8.83 2.21 9.79
5/27/2022 11:00:00 AM 15.77 60.386 0.035 8.87 2.26 9.81
5/27/2022 11:15:00 AM 15.81 60.458 0.035 8.87 2.15 9.84
5/27/2022 11:30:00 AM 15.86 60.548 0.035 8.87 2.16 9.87
5/27/2022 11:45:00 AM 15.96 60.728 0.034 8.91 2.21 9.89
5/27/2022 12:00:00 PM 16.01 60.818 0.035 8.87 2.19 9.88
5/27/2022 12:15:00 PM 16.1 60.98 0.035 8.91 2.12 9.93
5/27/2022 12:30:00 PM 16.16 61.088 0.035 8.9 2.05 9.91
5/27/2022 12:45:00 PM 16.21 61.178 0.035 8.92 2.18 9.91
5/27/2022 1:00:00 PM 16.24 61.232 0.035 8.95 1.99 9.89
5/27/2022 1:15:00 PM 16.33 61.394 0.035 8.92 2.04 9.9
5/27/2022 1:30:00 PM 16.43 61.574 0.034 8.93 2.1 9.9
5/27/2022 1:45:00 PM 16.51 61.718 0.034 8.93 2.07 9.89
5/27/2022 2:00:00 PM 16.57 61.826 0.034 8.97 2.26 9.92
5/27/2022 2:15:00 PM 16.63 61.934 0.034 8.97 2.09 9.88
5/27/2022 2:30:00 PM 16.64 61.952 0.035 8.96 2.13 9.83
5/27/2022 2:45:00 PM 16.66 61.988 0.034 8.95 2.24 9.75
5/27/2022 3:00:00 PM 16.67 62.006 0.034 8.92 2.24 9.73
5/27/2022 3:15:00 PM 16.66 61.988 0.035 8.91 2.34 9.66
5/27/2022 3:30:00 PM 16.66 61.988 0.035 8.95 2.99 9.67
5/27/2022 3:45:00 PM 16.7 62.06 0.037 8.93 4.14 9.69
5/27/2022 4:00:00 PM 16.73 62.114 0.037 8.95 4.29 9.68
5/27/2022 4:15:00 PM 16.8 62.24 0.035 8.98 3.75 9.7
5/27/2022 4:30:00 PM 16.84 62.312 0.035 8.95 3.44 9.73
5/27/2022 4:45:00 PM 16.87 62.366 0.035 8.96 3.14 9.7
5/27/2022 5:00:00 PM 16.94 62.492 0.034 8.97 3.09 9.73
5/27/2022 5:15:00 PM 17.01 62.618 0.034 8.99 2.77 9.72
5/27/2022 5:30:00 PM 17.09 62.762 0.034 8.99 2.7 9.75
5/27/2022 5:45:00 PM 17.17 62.906 0.034 9.03 2.56 9.74
5/27/2022 6:00:00 PM 17.25 63.05 0.034 9.02 2.57 9.76
5/27/2022 6:15:00 PM 17.29 63.122 0.034 9.03 2.4 9.77
5/27/2022 6:30:00 PM 17.29 63.122 0.035 9.06 2.46 9.72
5/27/2022 6:45:00 PM 17.31 63.158 0.034 9.04 2.3 9.69
5/27/2022 7:00:00 PM 17.29 63.122 0.035 9.05 2.45 9.66
5/27/2022 7:15:00 PM 17.25 63.05 0.034 9.01 2.47 9.66
5/27/2022 7:30:00 PM 17.2 62.96 0.034 9.05 2.37 9.61
5/27/2022 7:45:00 PM 17.13 62.834 0.034 9.01 2.57 9.58
5/27/2022 8:00:00 PM 17.05 62.69 0.033 9.05 2.47 9.55
5/27/2022 8:15:00 PM 16.96 62.528 0.034 8.97 2.67 9.5
5/27/2022 8:30:00 PM 16.87 62.366 0.034 8.97 2.8 9.45
5/27/2022 8:45:00 PM 16.79 62.222 0.034 8.94 2.46 9.42
5/27/2022 9:00:00 PM 16.69 62.042 0.034 8.93 3.85 9.37
5/27/2022 9:15:00 PM 16.61 61.898 0.034 8.93 2.96 9.34
5/27/2022 9:30:00 PM 16.51 61.718 0.034 8.88 2.47 9.32
5/27/2022 9:45:00 PM 16.42 61.556 0.034 8.87 2.72 9.31
5/27/2022 10:00:00 PM 16.33 61.394 0.034 8.88 2.36 9.31
5/27/2022 10:15:00 PM 16.25 61.25 0.033 8.86 2.57 9.32
5/27/2022 10:30:00 PM 16.17 61.106 0.034 8.87 2.4 9.31
5/27/2022 10:45:00 PM 16.11 60.998 0.034 8.83 2.52 9.29
5/27/2022 11:00:00 PM 16.05 60.89 0.034 8.83 2.51 9.31
5/27/2022 11:15:00 PM 15.99 60.782 0.035 8.77 2.48 9.3
5/27/2022 11:30:00 PM 15.94 60.692 0.035 8.78 2.3 9.3
5/27/2022 11:45:00 PM 15.88 60.584 0.034 8.8 2.34 9.37
5/28/2022 12:00:00 AM 15.83 60.494 0.035 8.8 2.83 9.32
5/28/2022 12:15:00 AM 15.77 60.386 0.035 8.78 2.48 9.36
5/28/2022 12:30:00 AM 15.73 60.314 0.035 8.77 2.71 9.36
5/28/2022 12:45:00 AM 15.68 60.224 0.035 8.76 2.44 9.36
5/28/2022 1:00:00 AM 15.63 60.134 0.034 8.76 2.29 9.39
5/28/2022 1:15:00 AM 15.58 60.044 0.035 8.75 2.29 9.39
5/28/2022 1:30:00 AM 15.54 59.972 0.035 8.74 2.47 9.38
5/28/2022 1:45:00 AM 15.51 59.918 0.035 8.75 2.5 9.39
5/28/2022 2:00:00 AM 15.47 59.846 0.035 8.74 2.48 9.41
5/28/2022 2:15:00 AM 15.44 59.792 0.036 8.75 2.95 9.36
5/28/2022 2:30:00 AM 15.41 59.738 0.035 8.75 2.44 9.41
5/28/2022 2:45:00 AM 15.38 59.684 0.034 8.76 2.41 9.42
5/28/2022 3:00:00 AM 15.35 59.63 0.035 8.75 2.33 9.45
5/28/2022 3:15:00 AM 15.31 59.558 0.036 8.71 2.26 9.42
5/28/2022 3:30:00 AM 15.27 59.486 0.035 8.73 2.28 9.46
5/28/2022 3:45:00 AM 15.22 59.396 0.035 8.7 2.54 9.46
5/28/2022 4:00:00 AM 15.18 59.324 0.035 8.7 2.27 9.46
5/28/2022 4:15:00 AM 15.13 59.234 0.035 8.68 2.53 9.46
5/28/2022 4:30:00 AM 15.09 59.162 0.036 8.69 2.43 9.48
5/28/2022 4:45:00 AM 15.05 59.09 0.035 8.7 2.38 9.5
5/28/2022 5:00:00 AM 15 59 0.036 8.68 2.72 9.5
5/28/2022 5:15:00 AM 14.96 58.928 0.036 8.67 2.48 9.5
5/28/2022 5:30:00 AM 14.92 58.856 0.035 8.67 2.51 9.53
5/28/2022 5:45:00 AM 14.89 58.802 0.034 8.69 2.44 9.56
5/28/2022 6:00:00 AM 14.86 58.748 0.035 8.68 2.63 9.54
5/28/2022 6:15:00 AM 14.83 58.694 0.035 8.69 2.51 9.56
5/28/2022 6:30:00 AM 14.8 58.64 0.035 8.69 3.42 9.54
5/28/2022 6:45:00 AM 14.77 58.586 0.035 8.71 2.33 9.61
5/28/2022 7:00:00 AM 14.74 58.532 0.035 8.65 2.82 9.67
5/28/2022 7:15:00 AM 14.72 58.496 0.035 8.67 2.51 9.68
5/28/2022 7:30:00 AM 14.72 58.496 0.035 8.66 2.44 9.7
5/28/2022 7:45:00 AM 14.72 58.496 0.035 8.7 2.53 9.74
5/28/2022 8:00:00 AM 14.75 58.55 0.036 8.68 2.32 9.75
5/28/2022 8:15:00 AM 14.79 58.622 0.035 8.69 2.16 9.84
5/28/2022 8:30:00 AM 14.81 58.658 0.035 8.72 2.23 9.84
5/28/2022 8:45:00 AM 14.85 58.73 0.035 8.73 2.21 9.86
5/28/2022 9:00:00 AM 14.88 58.784 0.035 8.74 2.23 9.89
5/28/2022 9:15:00 AM 14.9 58.82 0.035 8.71 2.37 9.88
5/28/2022 9:30:00 AM 14.94 58.892 0.035 8.72 2.19 9.92
5/28/2022 9:45:00 AM 14.98 58.964 0.035 8.74 2.17 9.93
5/28/2022 10:00:00 AM 15.04 59.072 0.035 8.77 2.22 9.96
5/28/2022 10:15:00 AM 15.12 59.216 0.035 8.77 2.36 9.98
5/28/2022 10:30:00 AM 15.22 59.396 0.035 8.79 2.23 9.99
5/28/2022 10:45:00 AM 15.34 59.612 0.034 8.84 2.11 10
5/28/2022 11:00:00 AM 15.43 59.774 0.034 8.87 2.16 10.03
5/28/2022 11:15:00 AM 15.58 60.044 0.034 8.87 2.1 10.02
5/28/2022 11:30:00 AM 15.81 60.458 0.034 8.92 2.26 10.06
5/28/2022 11:45:00 AM 15.96 60.728 0.035 8.9 2.01 10.06
5/28/2022 12:00:00 PM 16.17 61.106 0.033 8.96 2.17 10.06
5/28/2022 12:15:00 PM 16.36 61.448 0.034 8.96 2.19 10.03
5/28/2022 12:30:00 PM 16.52 61.736 0.033 8.99 2.17 10.02
5/28/2022 12:45:00 PM 16.57 61.826 0.034 8.98 2.21 9.95
5/28/2022 1:00:00 PM 16.63 61.934 0.034 8.99 2.28 9.89
5/28/2022 1:15:00 PM 16.68 62.024 0.033 8.97 2.11 9.89
5/28/2022 1:30:00 PM 16.7 62.06 0.033 8.97 2.13 9.9
5/28/2022 1:45:00 PM 16.68 62.024 0.033 8.98 2.16 9.88
5/28/2022 2:00:00 PM 16.83 62.294 0.033 8.98 2.21 9.87
5/28/2022 2:15:00 PM 16.95 62.51 0.033 9.02 2.25 9.84
5/28/2022 2:30:00 PM 17.1 62.78 0.033 9.01 2.13 9.82
5/28/2022 2:45:00 PM 17.31 63.158 0.032 9.06 2.03 9.79
5/28/2022 3:00:00 PM 17.6 63.68 0.032 9.07 2.11 9.79
5/28/2022 3:15:00 PM 17.76 63.968 0.033 9.09 2 9.71
5/28/2022 3:30:00 PM 17.91 64.238 0.032 9.09 2.23 9.71
5/28/2022 3:45:00 PM 18.04 64.472 0.032 9.11 2.08 9.67
5/28/2022 4:00:00 PM 18.06 64.508 0.033 9.13 2.12 9.65
5/28/2022 4:15:00 PM 18.1 64.58 0.033 9.1 2.06 9.64
5/28/2022 4:30:00 PM 18.08 64.544 0.033 9.11 2.17 9.65
5/28/2022 4:45:00 PM 18.02 64.436 0.033 9.08 2.17 9.63
5/28/2022 5:00:00 PM 18.07 64.526 0.033 9.13 2.25 9.64
5/28/2022 5:15:00 PM 18.1 64.58 0.033 9.08 2.26 9.58
5/28/2022 5:30:00 PM 18.14 64.652 0.033 9.11 2.24 9.57
5/28/2022 5:45:00 PM 18.21 64.778 0.033 9.1 2.12 9.61
5/28/2022 6:00:00 PM 18.24 64.832 0.032 9.13 2.28 9.58
5/28/2022 6:15:00 PM 18.27 64.886 0.033 9.13 2.15 9.58
5/28/2022 6:30:00 PM 18.25 64.85 0.033 9.12 2.24 9.56
5/28/2022 6:45:00 PM 18.17 64.706 0.032 9.14 2.2 9.56
5/28/2022 7:00:00 PM 18.05 64.49 0.033 9.09 2.28 9.51
5/28/2022 7:15:00 PM 17.91 64.238 0.033 9.07 2.25 9.5
5/28/2022 7:30:00 PM 17.75 63.95 0.033 9.11 2.36 9.49
5/28/2022 7:45:00 PM 17.59 63.662 0.032 9.11 2.27 9.5
5/28/2022 8:00:00 PM 17.41 63.338 0.034 9.06 2.19 9.42
5/28/2022 8:15:00 PM 17.27 63.086 0.034 8.94 2.28 9.34
5/28/2022 8:30:00 PM 17.11 62.798 0.033 9.01 2.43 9.35
5/28/2022 8:45:00 PM 16.97 62.546 0.033 9.01 2.55 9.35
5/28/2022 9:00:00 PM 16.84 62.312 0.032 8.98 2.27 9.33
5/28/2022 9:15:00 PM 16.73 62.114 0.033 8.92 2.57 9.27
5/28/2022 9:30:00 PM 16.61 61.898 0.034 8.89 2.56 9.25
5/28/2022 9:45:00 PM 16.49 61.682 0.035 8.88 2.39 9.27
5/28/2022 10:00:00 PM 16.39 61.502 0.035 8.87 2.47 9.24
5/28/2022 10:15:00 PM 16.28 61.304 0.034 8.88 2.52 9.3
5/28/2022 10:30:00 PM 16.18 61.124 0.033 8.89 2.82 9.31
5/28/2022 10:45:00 PM 16.06 60.908 0.034 8.87 3.09 9.34
5/28/2022 11:00:00 PM 15.97 60.746 0.033 8.85 2.52 9.33
5/28/2022 11:15:00 PM 15.86 60.548 0.035 8.82 2.84 9.34
5/28/2022 11:30:00 PM 15.75 60.35 0.034 8.79 2.57 9.36
5/28/2022 11:45:00 PM 15.64 60.152 0.033 8.83 2.68 9.43
5/29/2022 12:00:00 AM 15.55 59.99 0.033 8.78 2.67 9.43
5/29/2022 12:15:00 AM 15.44 59.792 0.033 8.8 2.47 9.46
5/29/2022 12:30:00 AM 15.36 59.648 0.034 8.75 2.59 9.45
5/29/2022 12:45:00 AM 15.27 59.486 0.037 8.69 2.98 9.33
5/29/2022 1:00:00 AM 15.17 59.306 0.034 8.75 2.57 9.49
5/29/2022 1:15:00 AM 15.07 59.126 0.033 8.77 2.44 9.54
5/29/2022 1:30:00 AM 14.99 58.982 0.034 8.73 3.35 9.56
5/29/2022 1:45:00 AM 14.92 58.856 0.035 8.67 2.46 9.44
5/29/2022 2:00:00 AM 14.84 58.712 0.033 8.69 2.67 9.54
5/29/2022 2:15:00 AM 14.75 58.55 0.033 8.7 2.81 9.62
5/29/2022 2:30:00 AM 14.68 58.424 0.034 8.73 3.24 9.66
5/29/2022 2:45:00 AM 14.58 58.244 0.034 8.71 2.5 9.63
5/29/2022 3:00:00 AM 14.5 58.1 0.033 8.74 2.44 9.69
5/29/2022 3:15:00 AM 14.39 57.902 0.033 8.71 2.55 9.73
5/29/2022 3:30:00 AM 14.32 57.776 0.033 8.68 2.78 9.72
5/29/2022 3:45:00 AM 14.22 57.596 0.033 8.72 2.57 9.73
5/29/2022 4:00:00 AM 14.14 57.452 0.033 8.7 2.73 9.8
5/29/2022 4:15:00 AM 14.07 57.326 0.033 8.67 2.4 9.81
5/29/2022 4:30:00 AM 13.99 57.182 0.034 8.65 2.54 9.79
5/29/2022 4:45:00 AM 13.91 57.038 0.034 8.67 2.56 9.85
5/29/2022 5:00:00 AM 13.86 56.948 0.034 8.67 2.35 9.85
5/29/2022 5:15:00 AM 13.81 56.858 0.034 8.66 2.61 9.87
5/29/2022 5:30:00 AM 13.75 56.75 0.033 8.64 2.3 9.88
5/29/2022 5:45:00 AM 13.7 56.66 0.037 8.63 2.49 9.85
5/29/2022 6:00:00 AM 13.65 56.57 0.034 8.67 2.36 9.87
5/29/2022 6:15:00 AM 13.62 56.516 0.034 8.66 2.43 9.92
5/29/2022 6:30:00 AM 13.56 56.408 0.034 8.67 2.41 9.96
5/29/2022 6:45:00 AM 13.53 56.354 0.034 8.64 2.62 9.99
5/29/2022 7:00:00 AM 13.52 56.336 0.034 8.66 2.32 10.04
5/29/2022 7:15:00 AM 13.51 56.318 0.034 8.62 2.35 10.05
5/29/2022 7:30:00 AM 13.51 56.318 0.036 8.64 2.2 10.13
5/29/2022 7:45:00 AM 13.56 56.408 0.033 8.71 2.54 10.23
5/29/2022 8:00:00 AM 13.61 56.498 0.033 8.63 2.47 10.25
5/29/2022 8:15:00 AM 13.68 56.624 0.034 8.66 2.36 10.31
5/29/2022 8:30:00 AM 13.77 56.786 0.033 8.73 2.37 10.33
5/29/2022 8:45:00 AM 13.9 57.02 0.033 8.69 2.31 10.36
5/29/2022 9:00:00 AM 14.03 57.254 0.033 8.74 2.73 10.38
5/29/2022 9:15:00 AM 14.19 57.542 0.033 8.76 2.38 10.4
5/29/2022 9:30:00 AM 14.34 57.812 0.033 8.77 2.29 10.37
5/29/2022 9:45:00 AM 14.51 58.118 0.032 8.83 2.27 10.39
5/29/2022 10:00:00 AM 14.74 58.532 0.032 8.84 2.31 10.36
5/29/2022 10:15:00 AM 14.95 58.91 0.032 8.88 2.37 10.4
5/29/2022 10:30:00 AM 15.13 59.234 0.032 8.92 2.17 10.36
5/29/2022 10:45:00 AM 15.35 59.63 0.032 8.95 2.24 10.35
5/29/2022 11:00:00 AM 15.48 59.864 0.032 8.9 2.25 10.31
5/29/2022 11:15:00 AM 15.63 60.134 0.031 8.93 2.51 10.25
5/29/2022 11:30:00 AM 15.82 60.476 0.032 8.93 2.07 10.24
5/29/2022 11:45:00 AM 15.98 60.764 0.032 8.95 2.39 10.19
5/29/2022 12:00:00 PM 16.2 61.16 0.031 8.97 2.09 10.12
5/29/2022 12:15:00 PM 16.49 61.682 0.031 9.03 2.15 10.17
5/29/2022 12:30:00 PM 16.84 62.312 0.031 9.05 2.11 10.14
5/29/2022 12:45:00 PM 17.17 62.906 0.03 9.08 2.14 10.12
5/29/2022 1:00:00 PM 17.5 63.5 0.03 9.1 2.33 10.06
5/29/2022 1:15:00 PM 17.7 63.86 0.031 9.1 2.25 9.98
5/29/2022 1:30:00 PM 17.97 64.346 0.03 9.11 2.31 9.95
5/29/2022 1:45:00 PM 18.27 64.886 0.03 9.17 1.94 9.89
5/29/2022 2:00:00 PM 18.51 65.318 0.03 9.15 3.27 9.84
5/29/2022 2:15:00 PM 18.77 65.786 0.03 9.21 2.1 9.81
5/29/2022 2:30:00 PM 19.01 66.218 0.03 9.21 2.37 9.75
5/29/2022 2:45:00 PM 19.26 66.668 0.03 9.22 2.02 9.7
5/29/2022 3:00:00 PM 19.44 66.992 0.03 9.26 2.14 9.65
5/29/2022 3:15:00 PM 19.63 67.334 0.03 9.25 2.08 9.61
5/29/2022 3:30:00 PM 19.9 67.82 0.03 9.27 2.31 9.61
5/29/2022 3:45:00 PM 20.07 68.126 0.03 9.3 1.97 9.5
5/29/2022 4:00:00 PM 20.31 68.558 0.03 9.32 1.89 9.44
5/29/2022 4:15:00 PM 20.49 68.882 0.03 9.36 1.97 9.37
5/29/2022 4:30:00 PM 20.61 69.098 0.03 9.36 2.02 9.28
5/29/2022 4:45:00 PM 20.7 69.26 0.03 9.41 1.98 9.27
5/29/2022 5:00:00 PM 20.78 69.404 0.03 9.41 2.19 9.21
5/29/2022 5:15:00 PM 20.84 69.512 0.03 9.44 2.17 9.21
5/29/2022 5:30:00 PM 20.85 69.53 0.03 9.44 2.01 9.21
5/29/2022 5:45:00 PM 20.8 69.44 0.031 9.43 2.14 9.19
5/29/2022 6:00:00 PM 20.78 69.404 0.031 9.41 2.16 9.19
5/29/2022 6:15:00 PM 20.68 69.224 0.031 9.38 2.13 9.18
5/29/2022 6:30:00 PM 20.57 69.026 0.031 9.42 2.55 9.14
5/29/2022 6:45:00 PM 20.4 68.72 0.031 9.37 2.26 9.14
5/29/2022 7:00:00 PM 20.2 68.36 0.031 9.36 2.09 9.12
5/29/2022 7:15:00 PM 19.96 67.92799 0.031 9.33 2.18 9.11
5/29/2022 7:30:00 PM 19.72 67.496 0.032 9.33 2.02 9.09
5/29/2022 7:45:00 PM 19.5 67.1 0.032 9.28 2.1 9.08
5/29/2022 8:00:00 PM 19.27 66.686 0.032 9.31 2.16 9.03
5/29/2022 8:15:00 PM 19.04 66.272 0.032 9.25 2.31 9.01
5/29/2022 8:30:00 PM 18.86 65.948 0.032 9.22 2.32 8.99
5/29/2022 8:45:00 PM 18.68 65.624 0.032 9.17 2.19 8.98
5/29/2022 9:00:00 PM 18.51 65.318 0.032 9.16 2.33 8.98
5/29/2022 9:15:00 PM 18.33 64.994 0.032 9.19 2.89 8.98
5/29/2022 9:30:00 PM 18.18 64.724 0.032 9.12 2.16 8.97
5/29/2022 9:45:00 PM 18.02 64.436 0.032 9.12 2.36 8.99
5/29/2022 10:00:00 PM 17.86 64.148 0.033 9.08 2.38 9
5/29/2022 10:15:00 PM 17.7 63.86 0.033 9.07 2.24 9.01
5/29/2022 10:30:00 PM 17.55 63.59 0.032 9.07 2.22 9.05
5/29/2022 10:45:00 PM 17.41 63.338 0.033 9.06 2.28 9.07
5/29/2022 11:00:00 PM 17.27 63.086 0.032 9.02 2.12 9.08
5/29/2022 11:15:00 PM 17.13 62.834 0.033 8.99 2.25 9.11
5/29/2022 11:30:00 PM 16.99 62.582 0.033 9.03 2.31 9.13
5/29/2022 11:45:00 PM 16.86 62.348 0.033 8.98 2.32 9.14
5/30/2022 12:00:00 AM 16.75 62.15 0.033 8.98 2.48 9.19
5/30/2022 12:15:00 AM 16.62 61.916 0.033 8.95 2.35 9.21
5/30/2022 12:30:00 AM 16.5 61.7 0.033 8.96 2.32 9.26
5/30/2022 12:45:00 AM 16.37 61.466 0.033 8.95 2.61 9.26
5/30/2022 1:00:00 AM 16.26 61.268 0.033 8.97 2.28 9.3
5/30/2022 1:15:00 AM 16.14 61.052 0.033 8.94 3.48 9.32
5/30/2022 1:30:00 AM 16.01 60.818 0.033 8.92 2.38 9.35
5/30/2022 1:45:00 AM 15.91 60.638 0.033 8.89 2.3 9.38
5/30/2022 2:00:00 AM 15.8 60.44 0.033 8.93 2.37 9.4
5/30/2022 2:15:00 AM 15.68 60.224 0.033 8.91 2.39 9.42
5/30/2022 2:30:00 AM 15.57 60.026 0.032 8.87 2.41 9.46
5/30/2022 2:45:00 AM 15.45 59.81 0.035 8.85 3.36 9.36
5/30/2022 3:00:00 AM 15.36 59.648 0.033 8.88 2.75 9.46
5/30/2022 3:15:00 AM 15.25 59.45 0.033 8.85 2.47 9.53
5/30/2022 3:30:00 AM 15.14 59.252 0.033 8.86 2.38 9.57
5/30/2022 3:45:00 AM 15.03 59.054 0.033 8.88 2.26 9.57
5/30/2022 4:00:00 AM 14.92 58.856 0.034 8.86 2.36 9.61
5/30/2022 4:15:00 AM 14.83 58.694 0.034 8.83 2.48 9.63
5/30/2022 4:30:00 AM 14.72 58.496 0.034 8.81 2.29 9.64
5/30/2022 4:45:00 AM 14.63 58.334 0.033 8.85 2.52 9.69
5/30/2022 5:00:00 AM 14.55 58.19 0.033 8.8 2.64 9.7
5/30/2022 5:15:00 AM 14.44 57.992 0.034 8.79 2.4 9.72
5/30/2022 5:30:00 AM 14.35 57.83 0.033 8.81 2.52 9.74
5/30/2022 5:45:00 AM 14.25 57.65 0.034 8.79 2.53 9.78
5/30/2022 6:00:00 AM 14.19 57.542 0.034 8.79 2.4 9.78
5/30/2022 6:15:00 AM 14.1 57.38 0.033 8.79 2.67 9.84
5/30/2022 6:30:00 AM 14.06 57.308 0.033 8.8 2.52 9.86
5/30/2022 6:45:00 AM 14.02 57.236 0.034 8.82 2.38 9.93
5/30/2022 7:00:00 AM 13.99 57.182 0.033 8.8 2.43 9.99
5/30/2022 7:15:00 AM 13.98 57.164 0.034 8.77 2.28 10.02
5/30/2022 7:30:00 AM 13.98 57.164 0.033 8.8 2.29 10.08
5/30/2022 7:45:00 AM 14.18 57.524 0.033 8.83 2.42 10.07
5/30/2022 8:00:00 AM 14.24 57.632 0.033 8.82 2.37 10.11
5/30/2022 8:15:00 AM 14.32 57.776 0.033 8.84 2.24 10.14
5/30/2022 8:30:00 AM 14.42 57.956 0.033 8.87 2.23 10.17
5/30/2022 8:45:00 AM 14.55 58.19 0.033 8.9 2.25 10.18
5/30/2022 9:00:00 AM 14.71 58.478 0.032 8.89 2.31 10.2
5/30/2022 9:15:00 AM 14.91 58.838 0.032 8.94 2.18 10.25
5/30/2022 9:30:00 AM 15.12 59.216 0.032 8.97 2.11 10.25
5/30/2022 9:45:00 AM 15.28 59.504 0.032 9.02 2.18 10.27
5/30/2022 10:00:00 AM 15.52 59.936 0.032 9.02 2.17 10.25
5/30/2022 10:15:00 AM 15.8 60.44 0.032 9.05 2.11 10.25
5/30/2022 10:30:00 AM 15.98 60.764 0.032 9.05 2.19 10.25
5/30/2022 10:45:00 AM 16.2 61.16 0.031 9.11 2.22 10.22
5/30/2022 11:00:00 AM 16.47 61.646 0.031 9.15 2.1 10.22
5/30/2022 11:15:00 AM 16.67 62.006 0.031 9.12 2.07 10.21
5/30/2022 11:30:00 AM 16.87 62.366 0.031 9.15 2.1 10.2
5/30/2022 11:45:00 AM 17.19 62.942 0.031 9.15 2.08 10.13
5/30/2022 12:00:00 PM 17.48 63.464 0.031 9.19 2.2 10.1
5/30/2022 12:15:00 PM 17.72 63.896 0.031 9.23 2.13 10.05
5/30/2022 12:30:00 PM 18.06 64.508 0.031 9.24 2.27 9.99
5/30/2022 12:45:00 PM 18.38 65.084 0.031 9.25 2.15 9.92
5/30/2022 1:00:00 PM 18.67 65.606 0.031 9.27 2.26 9.86
5/30/2022 1:15:00 PM 19.03 66.254 0.031 9.31 2.2 9.8
5/30/2022 1:30:00 PM 19.4 66.92 0.031 9.33 2.11 9.76
5/30/2022 1:45:00 PM 19.72 67.496 0.031 9.38 2.1 9.68
5/30/2022 2:00:00 PM 20.07 68.126 0.031 9.37 2.2 9.6
5/30/2022 2:15:00 PM 20.47 68.846 0.031 9.4 2.15 9.56
5/30/2022 2:30:00 PM 20.77 69.386 0.03 9.47 2.39 9.49
5/30/2022 2:45:00 PM 21.04 69.872 0.03 9.44 2.05 9.42
5/30/2022 3:00:00 PM 21.3 70.34 0.031 9.5 2.5 9.38
5/30/2022 3:15:00 PM 21.58 70.844 0.03 9.51 2.17 9.33
5/30/2022 3:30:00 PM 21.79 71.222 0.03 9.55 2.09 9.26
5/30/2022 3:45:00 PM 22 71.6 0.03 9.57 2.3 9.23
5/30/2022 4:00:00 PM 22.17 71.906 0.03 9.58 2.2 9.16
5/30/2022 4:15:00 PM 22.34 72.212 0.03 9.65 2.28 9.12
5/30/2022 4:30:00 PM 22.48 72.464 0.03 9.63 2.32 9.08
5/30/2022 4:45:00 PM 22.55 72.59 0.031 9.67 2.18 9.03
5/30/2022 5:00:00 PM 22.66 72.788 0.03 9.69 2.42 8.97
5/30/2022 5:15:00 PM 22.69 72.842 0.031 9.68 2.31 8.93
5/30/2022 5:30:00 PM 22.7 72.86 0.031 9.71 2.34 8.93
5/30/2022 5:45:00 PM 22.71 72.878 0.031 9.7 2.33 8.92
5/30/2022 6:00:00 PM 22.66 72.788 0.031 9.73 2.65 8.9
5/30/2022 6:15:00 PM 22.6 72.68 0.031 9.72 2.52 8.88
5/30/2022 6:30:00 PM 22.48 72.464 0.031 9.67 2.49 8.85
5/30/2022 6:45:00 PM 22.34 72.212 0.032 9.69 2.33 8.82
5/30/2022 7:00:00 PM 22.15 71.87 0.031 9.66 2.45 8.82
5/30/2022 7:15:00 PM 21.95 71.51 0.032 9.65 2.76 8.79
5/30/2022 7:30:00 PM 21.75 71.15 0.032 9.59 2.45 8.74
5/30/2022 7:45:00 PM 21.54 70.772 0.032 9.54 2.51 8.69
5/30/2022 8:00:00 PM 21.33 70.394 0.032 9.52 2.68 8.65
5/30/2022 8:15:00 PM 21.13 70.034 0.033 9.53 2.63 8.61
5/30/2022 8:30:00 PM 20.93 69.674 0.033 9.46 2.76 8.6
5/30/2022 8:45:00 PM 20.76 69.368 0.033 9.48 2.73 8.55
5/30/2022 9:00:00 PM 20.58 69.044 0.033 9.44 3 8.56
5/30/2022 9:15:00 PM 20.42 68.756 0.033 9.43 2.64 8.56
5/30/2022 9:30:00 PM 20.27 68.486 0.033 9.42 2.64 8.51
5/30/2022 9:45:00 PM 20.11 68.198 0.033 9.33 2.61 8.52
5/30/2022 10:00:00 PM 19.96 67.92799 0.033 9.34 2.57 8.55
5/30/2022 10:15:00 PM 19.82 67.676 0.033 9.37 2.56 8.57
5/30/2022 10:30:00 PM 19.68 67.424 0.033 9.32 2.51 8.55
5/30/2022 10:45:00 PM 19.54 67.172 0.034 9.31 2.86 8.58
5/30/2022 11:00:00 PM 19.4 66.92 0.034 9.31 2.59 8.58
5/30/2022 11:15:00 PM 19.28 66.704 0.034 9.29 2.63 8.62
5/30/2022 11:30:00 PM 19.15 66.47 0.034 9.28 2.56 8.62
5/30/2022 11:45:00 PM 19.02 66.236 0.034 9.31 2.6 8.63
5/31/2022 12:00:00 AM 18.91 66.038 0.034 9.28 2.59 8.6
5/31/2022 12:15:00 AM 18.79 65.82201 0.034 9.29 3.01 8.67
5/31/2022 12:30:00 AM 18.68 65.624 0.034 9.29 2.7 8.69
5/31/2022 12:45:00 AM 18.56 65.408 0.035 9.21 2.6 8.72
5/31/2022 1:00:00 AM 18.46 65.228 0.034 9.24 2.69 8.73
5/31/2022 1:15:00 AM 18.35 65.03 0.034 9.22 2.75 8.78
5/31/2022 1:30:00 AM 18.26 64.868 0.034 9.25 3.05 8.81
5/31/2022 1:45:00 AM 18.16 64.688 0.034 9.21 3.79 8.82
5/31/2022 2:00:00 AM 18.06 64.508 0.034 9.24 3.03 8.83
5/31/2022 2:15:00 AM 17.97 64.346 0.034 9.19 2.54 8.85
5/31/2022 2:30:00 AM 17.87 64.166 0.036 9.19 2.64 8.82
5/31/2022 2:45:00 AM 17.78 64.004 0.035 9.18 2.47 8.89
5/31/2022 3:00:00 AM 17.68 63.824 0.035 9.18 2.56 8.91
5/31/2022 3:15:00 AM 17.59 63.662 0.035 9.17 2.57 8.89
5/31/2022 3:30:00 AM 17.5 63.5 0.035 9.22 2.59 8.92
5/31/2022 3:45:00 AM 17.4 63.32 0.035 9.16 2.34 8.96
5/31/2022 4:00:00 AM 17.3 63.14 0.035 9.17 2.65 9.01
5/31/2022 4:15:00 AM 17.21 62.978 0.035 9.19 2.39 9.02
5/31/2022 4:30:00 AM 17.12 62.816 0.035 9.16 2.58 9.05
5/31/2022 4:45:00 AM 17.02 62.636 0.035 9.13 2.42 9.09
5/31/2022 5:00:00 AM 16.93 62.474 0.035 9.14 2.44 9.08
5/31/2022 5:15:00 AM 16.82 62.276 0.036 9.14 2.37 9.09
5/31/2022 5:30:00 AM 16.72 62.096 0.035 9.14 2.47 9.13
5/31/2022 5:45:00 AM 16.62 61.916 0.035 9.18 2.42 9.16
5/31/2022 6:00:00 AM 16.54 61.772 0.035 9.1 2.45 9.17
5/31/2022 6:15:00 AM 16.45 61.61 0.035 9.13 2.37 9.2
5/31/2022 6:30:00 AM 16.38 61.484 0.035 9.14 2.49 9.28
5/31/2022 6:45:00 AM 16.31 61.358 0.035 9.11 2.36 9.35
5/31/2022 7:00:00 AM 16.27 61.286 0.034 9.13 2.3 9.43
5/31/2022 7:15:00 AM 16.24 61.232 0.035 9.16 2.27 9.43
5/31/2022 7:30:00 AM 16.24 61.232 0.035 9.12 2.25 9.49
5/31/2022 7:45:00 AM 16.26 61.268 0.035 9.1 2.34 9.55
5/31/2022 8:00:00 AM 16.31 61.358 0.034 9.16 2.26 9.58
5/31/2022 8:15:00 AM 16.38 61.484 0.034 9.15 2.35 9.65
5/31/2022 8:30:00 AM 16.48 61.664 0.036 9.18 2.18 9.64
5/31/2022 8:45:00 AM 16.6 61.88 0.034 9.16 2.3 9.71
5/31/2022 9:00:00 AM 16.77 62.186 0.034 9.19 2.04 9.74
5/31/2022 9:15:00 AM 16.96 62.528 0.034 9.24 2.09 9.75
5/31/2022 9:30:00 AM 17.28 63.104 0.034 9.29 2.17 9.77
5/31/2022 9:45:00 AM 17.42 63.356 0.034 9.32 2.05 9.76
5/31/2022 10:00:00 AM 17.65 63.77 0.033 9.3 2.12 9.78
5/31/2022 10:15:00 AM 17.97 64.346 0.033 9.35 2.09 9.79
5/31/2022 10:30:00 AM 18.12 64.616 0.033 9.34 2 9.75
5/31/2022 10:45:00 AM 18.4 65.12 0.033 9.4 1.9 9.75
5/31/2022 11:00:00 AM 18.67 65.606 0.033 9.42 2.04 9.73
5/31/2022 11:15:00 AM 18.94 66.092 0.033 9.42 2.24 9.71
5/31/2022 11:30:00 AM 19.2 66.56 0.034 9.44 1.98 9.65
5/31/2022 11:45:00 AM 19.48 67.064 0.033 9.45 2.11 9.6
5/31/2022 12:00:00 PM 19.76 67.568 0.033 9.47 2.07 9.59
5/31/2022 12:15:00 PM 20.11 68.198 0.033 9.51 2.02 9.55
5/31/2022 12:30:00 PM 20.34 68.612 0.033 9.51 2.11 9.5
5/31/2022 12:45:00 PM 20.53 68.954 0.033 9.52 2.1 9.44
5/31/2022 1:00:00 PM 20.71 69.278 0.033 9.49 2.17 9.38
5/31/2022 1:15:00 PM 20.95 69.71 0.033 9.59 2.07 9.34
5/31/2022 1:30:00 PM 21.17 70.106 0.033 9.61 2.05 9.3
5/31/2022 1:45:00 PM 21.34 70.412 0.033 9.59 1.96 9.27
5/31/2022 2:00:00 PM 21.55 70.79 0.033 9.63 2.11 9.24
5/31/2022 2:15:00 PM 21.79 71.222 0.033 9.69 2.1 9.22
5/31/2022 2:30:00 PM 22 71.6 0.032 9.63 2.16 9.2
5/31/2022 2:45:00 PM 22.21 71.978 0.032 9.69 1.96 9.16
5/31/2022 3:00:00 PM 22.37 72.266 0.032 9.7 2.09 9.11
5/31/2022 3:15:00 PM 22.58 72.644 0.032 9.73 1.98 9.08
5/31/2022 3:30:00 PM 22.74 72.932 0.032 9.75 2 9.04
5/31/2022 3:45:00 PM 22.93 73.274 0.032 9.79 1.96 8.97
5/31/2022 4:00:00 PM 23.09 73.562 0.032 9.83 1.85 8.97
5/31/2022 4:15:00 PM 23.25 73.85 0.032 9.87 1.93 8.95
5/31/2022 4:30:00 PM 23.39 74.102 0.032 9.89 2.08 8.89
5/31/2022 4:45:00 PM 23.5 74.3 0.032 9.89 1.95 8.87
5/31/2022 5:00:00 PM 23.6 74.48 0.032 9.92 1.9 8.8
5/31/2022 5:15:00 PM 23.71 74.67799 0.032 9.92 2.01 8.73
5/31/2022 5:30:00 PM 23.74 74.732 0.032 9.96 1.92 8.75
5/31/2022 5:45:00 PM 23.71 74.67799 0.033 9.91 1.93 8.72
5/31/2022 6:00:00 PM 23.72 74.696 0.032 9.96 2 8.7
5/31/2022 6:15:00 PM 23.65 74.57 0.032 9.93 2.43 8.64
5/31/2022 6:30:00 PM 23.58 74.444 0.032 9.91 2.17 8.63
5/31/2022 6:45:00 PM 23.47 74.246 0.033 9.91 2.07 8.63
5/31/2022 7:00:00 PM 23.34 74.012 0.033 9.87 2.25 8.58
5/31/2022 7:15:00 PM 23.19 73.742 0.033 9.84 2.05 8.54
5/31/2022 7:30:00 PM 22.99 73.382 0.033 9.82 2.24 8.54
5/31/2022 7:45:00 PM 22.81 73.058 0.033 9.8 2.03 8.5
5/31/2022 8:00:00 PM 22.64 72.752 0.033 9.78 2.47 8.44
5/31/2022 8:15:00 PM 22.45 72.41 0.034 9.73 2.07 8.39
5/31/2022 8:30:00 PM 22.28 72.104 0.035 9.69 2.29 8.31
5/31/2022 8:45:00 PM 22.11 71.798 0.034 9.71 2.08 8.3
5/31/2022 9:00:00 PM 21.95 71.51 0.034 9.66 2.11 8.3
5/31/2022 9:15:00 PM 21.78 71.204 0.034 9.66 2.13 8.24
5/31/2022 9:30:00 PM 21.61 70.898 0.034 9.65 2.16 8.23
5/31/2022 9:45:00 PM 21.47 70.646 0.034 9.6 2.29 8.26
5/31/2022 10:00:00 PM 21.32 70.376 0.034 9.63 2.02 8.22
5/31/2022 10:15:00 PM 21.18 70.124 0.035 9.61 2.12 8.24
5/31/2022 10:30:00 PM 21.05 69.89 0.035 9.57 2.22 8.21
5/31/2022 10:45:00 PM 20.91 69.638 0.035 9.55 2.09 8.24
5/31/2022 11:00:00 PM 20.77 69.386 0.035 9.52 2.18 8.28
5/31/2022 11:15:00 PM 20.63 69.134 0.035 9.53 2.57 8.26
5/31/2022 11:30:00 PM 20.5 68.9 0.038 9.5 4.48 8.29
5/31/2022 11:45:00 PM 20.37 68.666 0.04 9.56 6.51 8.27
6/1/2022 12:00:00 AM 20.28 68.504 0.039 9.49 5.47 8.27
6/1/2022 12:15:00 AM 20.2 68.36 0.038 9.51 4.46 8.28
6/1/2022 12:30:00 AM 20.12 68.216 0.038 9.48 4.29 8.27
6/1/2022 12:45:00 AM 20.03 68.054 0.037 9.47 3.48 8.31
6/1/2022 1:00:00 AM 19.95 67.91 0.037 9.46 3.03 8.3
6/1/2022 1:15:00 AM 19.88 67.784 0.036 9.48 2.87 8.37
6/1/2022 1:30:00 AM 19.79 67.622 0.036 9.48 2.73 8.32
6/1/2022 1:45:00 AM 19.7 67.46 0.036 9.45 2.6 8.41
6/1/2022 2:00:00 AM 19.6 67.28 0.036 9.44 2.91 8.41
6/1/2022 2:15:00 AM 19.52 67.136 0.036 9.47 2.6 8.4
6/1/2022 2:30:00 AM 19.44 66.992 0.036 9.44 2.35 8.43
6/1/2022 2:45:00 AM 19.35 66.83 0.036 9.44 2.49 8.45
6/1/2022 3:00:00 AM 19.28 66.704 0.036 9.43 2.38 8.46
6/1/2022 3:15:00 AM 19.18 66.524 0.036 9.45 2.31 8.49
6/1/2022 3:30:00 AM 19.09 66.362 0.037 9.44 2.44 8.48
6/1/2022 3:45:00 AM 19.01 66.218 0.037 9.47 2.4 8.48
6/1/2022 4:00:00 AM 18.92 66.056 0.036 9.43 2.35 8.5
6/1/2022 4:15:00 AM 18.84 65.912 0.037 9.46 2.38 8.47
6/1/2022 4:30:00 AM 18.77 65.786 0.037 9.46 2.68 8.48
6/1/2022 4:45:00 AM 18.68 65.624 0.037 9.46 2.63 8.47
6/1/2022 5:00:00 AM 18.59 65.462 0.037 9.43 2.48 8.63
6/1/2022 5:15:00 AM 18.52 65.336 0.036 9.47 2.68 8.61
6/1/2022 5:30:00 AM 18.43 65.174 0.037 9.45 2.42 8.63
6/1/2022 5:45:00 AM 18.36 65.048 0.037 9.43 2.63 8.6
6/1/2022 6:00:00 AM 18.28 64.904 0.038 9.43 2.56 8.6
6/1/2022 6:15:00 AM 18.21 64.778 0.038 9.43 2.61 8.59
6/1/2022 6:30:00 AM 18.13 64.634 0.037 9.41 2.44 8.76
6/1/2022 6:45:00 AM 18.06 64.508 0.037 9.42 2.2 8.81
6/1/2022 7:00:00 AM 18.04 64.472 0.037 9.48 2.26 8.76
6/1/2022 7:15:00 AM 18.01 64.418 0.036 9.45 2.32 8.93
6/1/2022 7:30:00 AM 18 64.4 0.036 9.46 2.28 9.01
6/1/2022 7:45:00 AM 18.02 64.436 0.036 9.45 2.18 9.04
6/1/2022 8:00:00 AM 18.04 64.472 0.036 9.49 2.18 9.12
6/1/2022 8:15:00 AM 18.09 64.562 0.036 9.47 2.19 9.1
6/1/2022 8:30:00 AM 18.14 64.652 0.036 9.48 2.08 9.19
6/1/2022 8:45:00 AM 18.24 64.832 0.036 9.51 2.19 9.16
6/1/2022 9:00:00 AM 18.37 65.066 0.036 9.52 1.98 9.28
6/1/2022 9:15:00 AM 18.52 65.336 0.035 9.54 2.16 9.33
6/1/2022 9:30:00 AM 18.65 65.57 0.036 9.58 2.05 9.33
6/1/2022 9:45:00 AM 18.75 65.75 0.035 9.59 2.03 9.41
6/1/2022 10:00:00 AM 18.85 65.93 0.035 9.58 1.94 9.39
6/1/2022 10:15:00 AM 19.01 66.218 0.035 9.57 2.14 9.38
6/1/2022 10:30:00 AM 19.26 66.668 0.035 9.64 2 9.44
6/1/2022 10:45:00 AM 19.47 67.046 0.035 9.62 2 9.44
6/1/2022 11:00:00 AM 19.67 67.406 0.035 9.65 2.01 9.42
6/1/2022 11:15:00 AM 19.9 67.82 0.035 9.63 2.03 9.42
6/1/2022 11:30:00 AM 20.13 68.234 0.035 9.65 1.97 9.41
6/1/2022 11:45:00 AM 20.4 68.72 0.035 9.67 1.87 9.41
6/1/2022 12:00:00 PM 20.61 69.098 0.035 9.67 1.9 9.35
6/1/2022 12:15:00 PM 20.88 69.584 0.035 9.71 1.99 9.32
6/1/2022 12:30:00 PM 21.15 70.07 0.035 9.72 1.9 9.31
6/1/2022 12:45:00 PM 21.37 70.466 0.035 9.74 2.09 9.24
6/1/2022 1:00:00 PM 21.56 70.808 0.035 9.74 1.9 9.21
6/1/2022 1:15:00 PM 21.7 71.06 0.035 9.75 1.81 9.16
6/1/2022 1:30:00 PM 21.8 71.24 0.035 9.79 1.96 9.11
6/1/2022 1:45:00 PM 21.86 71.348 0.035 9.76 1.95 8.99
6/1/2022 2:00:00 PM 21.94 71.492 0.035 9.74 1.95 8.96
6/1/2022 2:15:00 PM 22.04 71.672 0.035 9.77 2.01 8.92
6/1/2022 2:30:00 PM 22.11 71.798 0.035 9.75 1.84 8.95
6/1/2022 2:45:00 PM 22.2 71.96 0.035 9.82 1.86 8.93
6/1/2022 3:00:00 PM 22.28 72.104 0.035 9.78 1.84 8.96
6/1/2022 3:15:00 PM 22.38 72.284 0.035 9.79 1.77 8.95
6/1/2022 3:30:00 PM 22.52 72.536 0.035 9.83 1.96 8.98
6/1/2022 3:45:00 PM 22.66 72.788 0.034 9.88 1.95 8.94
6/1/2022 4:00:00 PM 22.7 72.86 0.035 9.87 1.86 8.86
6/1/2022 4:15:00 PM 22.83 73.094 0.035 9.93 1.88 8.88
6/1/2022 4:30:00 PM 23 73.4 0.034 9.92 1.89 8.89
6/1/2022 4:45:00 PM 23.03 73.454 0.035 9.94 1.92 8.83
6/1/2022 5:00:00 PM 23.08 73.544 0.034 9.97 1.87 8.78
6/1/2022 5:15:00 PM 23.05 73.49 0.034 9.98 1.94 8.76
6/1/2022 5:30:00 PM 23.02 73.436 0.034 9.96 1.94 8.68
6/1/2022 5:45:00 PM 22.96 73.328 0.034 10.01 1.86 8.63
6/1/2022 6:00:00 PM 22.85 73.13 0.035 9.9 5.06 8.45
6/1/2022 6:15:00 PM 22.69 72.842 0.035 9.93 2.18 8.56
6/1/2022 6:30:00 PM 22.54 72.57201 0.035 9.9 2.03 8.47
6/1/2022 6:45:00 PM 22.39 72.302 0.035 9.89 2.23 8.49
6/1/2022 7:00:00 PM 22.17 71.906 0.035 9.89 2.53 8.44
6/1/2022 7:15:00 PM 21.94 71.492 0.046 9.95 32.44 8.38
6/1/2022 7:30:00 PM 21.69 71.042 0.055 9.97 36.22 8.29
6/1/2022 7:45:00 PM 21.48 70.664 0.054 9.91 26.78 8.25
6/1/2022 8:00:00 PM 21.32 70.376 0.053 9.88 23.44 8.23
6/1/2022 8:15:00 PM 21.15 70.07 0.052 9.84 17.12 8.23
6/1/2022 8:30:00 PM 21 69.8 0.049 9.85 14.07 8.22
6/1/2022 8:45:00 PM 20.85 69.53 0.045 9.78 10.19 8.22
6/1/2022 9:00:00 PM 20.73 69.314 0.042 9.75 7.98 8.22
6/1/2022 9:15:00 PM 20.61 69.098 0.04 9.74 5.55 8.26
6/1/2022 9:30:00 PM 20.49 68.882 0.039 9.72 4.68 8.29
6/1/2022 9:45:00 PM 20.39 68.702 0.038 9.7 4.16 8.27
6/1/2022 10:00:00 PM 20.31 68.558 0.037 9.69 3.62 8.31
6/1/2022 10:15:00 PM 20.21 68.378 0.037 9.68 4.1 8.33
6/1/2022 10:30:00 PM 20.11 68.198 0.038 9.7 3.42 8.33
6/1/2022 10:45:00 PM 20.01 68.018 0.039 9.7 3.42 8.37
6/1/2022 11:00:00 PM 19.92 67.856 0.04 9.68 3.88 8.37
6/1/2022 11:15:00 PM 19.83 67.694 0.04 9.71 3.58 8.39
6/1/2022 11:30:00 PM 19.75 67.55 0.039 9.73 4.04 8.43
6/1/2022 11:45:00 PM 19.67 67.406 0.039 9.64 4.25 8.38
6/2/2022 12:00:00 AM 19.61 67.298 0.037 9.72 4.3 8.47
6/2/2022 12:15:00 AM 19.56 67.208 0.036 9.7 3.98 8.53
6/2/2022 12:30:00 AM 19.49 67.082 0.036 9.67 3.81 8.56
6/2/2022 12:45:00 AM 19.43 66.974 0.036 9.67 3.92 8.58
6/2/2022 1:00:00 AM 19.36 66.848 0.035 9.64 3.94 8.53
6/2/2022 1:15:00 AM 19.3 66.74 0.035 9.64 3.41 8.57
6/2/2022 1:30:00 AM 19.23 66.614 0.035 9.69 3.68 8.61
6/2/2022 1:45:00 AM 19.17 66.506 0.035 9.63 3.76 8.6
6/2/2022 2:00:00 AM 19.1 66.38 0.036 9.67 3.8 8.64
6/2/2022 2:15:00 AM 19.01 66.218 0.036 9.65 3.8 8.66
6/2/2022 2:30:00 AM 18.93 66.074 0.037 9.65 3.75 8.65
6/2/2022 2:45:00 AM 18.85 65.93 0.038 9.65 3.96 8.64
6/2/2022 3:00:00 AM 18.76 65.768 0.038 9.66 4.02 8.67
6/2/2022 3:15:00 AM 18.7 65.66 0.038 9.66 4.35 8.74
6/2/2022 3:30:00 AM 18.64 65.552 0.038 9.67 4.96 8.63
6/2/2022 3:45:00 AM 18.57 65.426 0.038 9.64 4.51 8.74
6/2/2022 4:00:00 AM 18.52 65.336 0.038 9.64 4.87 8.84
6/2/2022 4:15:00 AM 18.48 65.264 0.038 9.66 4.85 8.75
6/2/2022 4:30:00 AM 18.44 65.192 0.038 9.64 5.33 8.79
6/2/2022 4:45:00 AM 18.4 65.12 0.038 9.66 5.26 8.79
6/2/2022 5:00:00 AM 18.35 65.03 0.039 9.62 5.41 8.73
6/2/2022 5:15:00 AM 18.31 64.958 0.04 9.57 5.49 8.68
6/2/2022 5:30:00 AM 18.26 64.868 0.042 9.57 5.04 8.71
6/2/2022 5:45:00 AM 18.24 64.832 0.038 9.59 4.75 8.78
6/2/2022 6:00:00 AM 18.19 64.742 0.039 9.61 5.63 8.78
6/2/2022 6:15:00 AM 18.16 64.688 0.039 9.59 4.95 8.86
6/2/2022 6:30:00 AM 18.14 64.652 0.038 9.62 4.46 8.84
6/2/2022 6:45:00 AM 18.11 64.598 0.039 9.63 4.58 8.8
6/2/2022 7:00:00 AM 18.09 64.562 0.039 9.6 4.36 8.82
6/2/2022 7:15:00 AM 18.08 64.544 0.038 9.61 4.11 8.89
6/2/2022 7:30:00 AM 18.08 64.544 0.039 9.58 3.89 8.9
6/2/2022 7:45:00 AM 18.07 64.526 0.038 9.6 5.34 8.9
6/2/2022 8:00:00 AM 18.07 64.526 0.038 9.56 3.81 8.88
6/2/2022 8:15:00 AM 18.09 64.562 0.038 9.6 3.96 8.99
6/2/2022 8:30:00 AM 18.09 64.562 0.037 9.63 3.79 8.99
6/2/2022 8:45:00 AM 18.14 64.652 0.036 9.61 3.71 9.07
6/2/2022 9:00:00 AM 18.16 64.688 0.037 9.59 3.32 9.1
6/2/2022 9:15:00 AM 18.65 65.57 0.034 7.72 7.26 8.73
6/2/2022 9:30:00 AM 18.5 65.3 0.032 7.15 3.58 8.88
6/2/2022 9:45:00 AM 18.63 65.534 0.033 6.9 3.06 8.87
6/2/2022 10:00:00 AM 18.74 65.732 0.033 6.81 3.07 8.79
6/2/2022 10:15:00 AM 18.87 65.966 0.033 6.79 3.05 8.81
6/2/2022 10:30:00 AM 19.02 66.236 0.031 6.74 4 8.82
6/2/2022 10:45:00 AM 19.14 66.452 0.033 6.73 3.08 8.8
6/2/2022 11:00:00 AM 19.3 66.74 0.032 6.78 3.23 8.81
6/2/2022 11:15:00 AM 19.37 66.866 0.032 6.75 3.15 8.78
6/2/2022 11:30:00 AM 19.37 66.866 0.034 6.7 3.22 8.76
6/2/2022 11:45:00 AM 19.46 67.028 0.032 6.75 3.22 8.8
6/2/2022 12:00:00 PM 19.49 67.082 0.032 6.72 2.88 8.78
6/2/2022 12:15:00 PM 19.56 67.208 0.031 6.77 2.9 8.84
6/2/2022 12:30:00 PM 19.56 67.208 0.033 6.74 2.95 8.8
6/2/2022 12:45:00 PM 19.63 67.334 0.031 6.71 3.95 8.84
6/2/2022 1:00:00 PM 19.74 67.532 0.031 6.74 3.05 8.83
6/2/2022 1:15:00 PM 19.79 67.622 0.032 6.74 2.95 8.82
6/2/2022 1:30:00 PM 19.88 67.784 0.031 6.76 2.81 8.82
6/2/2022 1:45:00 PM 19.84 67.712 0.033 6.72 2.97 8.74
6/2/2022 2:00:00 PM 19.86 67.748 0.032 6.73 2.93 8.73
6/2/2022 2:15:00 PM 19.87 67.766 0.032 6.74 2.81 8.73
6/2/2022 2:30:00 PM 19.86 67.748 0.031 6.74 2.86 8.75
6/2/2022 2:45:00 PM 19.86 67.748 0.03 6.78 2.9 8.76
6/2/2022 3:00:00 PM 19.84 67.712 0.032 6.72 2.82 8.7
6/2/2022 3:15:00 PM 19.86 67.748 0.032 6.69 2.73 8.7
6/2/2022 3:30:00 PM 19.96 67.92799 0.031 6.7 2.76 8.75
6/2/2022 3:45:00 PM 20.04 68.07201 0.031 6.72 2.75 8.75
6/2/2022 4:00:00 PM 20.14 68.252 0.031 6.74 2.69 8.74
6/2/2022 4:15:00 PM 20.21 68.378 0.031 6.73 2.64 8.73
6/2/2022 4:30:00 PM 20.25 68.45 0.031 6.73 2.68 8.67
6/2/2022 4:45:00 PM 20.26 68.468 0.029 6.71 3.6 8.64
6/2/2022 5:00:00 PM 20.24 68.432 0.03 6.7 3.56 8.6
6/2/2022 5:15:00 PM 20.22 68.396 0.031 6.68 2.66 8.62
6/2/2022 5:30:00 PM 20.2 68.36 0.031 6.72 2.76 8.62
6/2/2022 5:45:00 PM 20.21 68.378 0.03 6.74 2.61 8.63
6/2/2022 6:00:00 PM 20.15 68.27 0.032 6.67 2.38 8.58
6/2/2022 6:15:00 PM 20.16 68.288 0.031 6.66 2.99 8.58
6/2/2022 6:30:00 PM 20.16 68.288 0.032 6.68 2.69 8.58
6/2/2022 6:45:00 PM 20.19 68.342 0.03 6.69 2.67 8.6
6/2/2022 7:00:00 PM 20.17 68.306 0.03 6.73 2.68 8.6
6/2/2022 7:15:00 PM 20.08 68.144 0.033 6.66 2.55 8.49
6/2/2022 7:30:00 PM 20 68 0.031 6.67 2.66 8.52
6/2/2022 7:45:00 PM 19.88 67.784 0.032 6.64 3.05 8.46
6/2/2022 8:00:00 PM 19.79 67.622 0.03 6.61 3.75 8.43
6/2/2022 8:15:00 PM 19.68 67.424 0.031 6.63 2.73 8.42
6/2/2022 8:30:00 PM 19.58 67.244 0.033 6.55 2.8 8.31
6/2/2022 8:45:00 PM 19.46 67.028 0.033 6.59 3.02 8.31
6/2/2022 9:00:00 PM 19.36 66.848 0.032 6.6 2.99 8.33
6/2/2022 9:15:00 PM 19.26 66.668 0.032 6.57 2.92 8.28
6/2/2022 9:30:00 PM 19.16 66.488 0.031 6.65 2.83 8.38
6/2/2022 9:45:00 PM 19.07 66.326 0.032 6.64 2.83 8.33
6/2/2022 10:00:00 PM 18.99 66.182 0.031 6.64 2.87 8.37
6/2/2022 10:15:00 PM 18.91 66.038 0.031 6.64 2.72 8.38
6/2/2022 10:30:00 PM 18.84 65.912 0.032 6.62 2.64 8.37
6/2/2022 10:45:00 PM 18.78 65.804 0.031 6.62 2.77 8.38
6/2/2022 11:00:00 PM 18.71 65.67799 0.033 6.53 2.83 8.3
6/2/2022 11:15:00 PM 18.64 65.552 0.032 6.58 3.37 8.38
6/2/2022 11:30:00 PM 18.59 65.462 0.033 6.58 3.52 8.37
6/2/2022 11:45:00 PM 18.52 65.336 0.033 6.52 3.61 8.31
6/3/2022 12:00:00 AM 18.44 65.192 0.034 6.56 2.77 8.36
6/3/2022 12:15:00 AM 18.39 65.102 0.033 6.5 3.03 8.36
6/3/2022 12:30:00 AM 18.31 64.958 0.033 6.55 2.87 8.39
6/3/2022 12:45:00 AM 18.26 64.868 0.033 6.56 2.83 8.4
6/3/2022 1:00:00 AM 18.21 64.778 0.032 6.54 3.05 8.47
6/3/2022 1:15:00 AM 18.14 64.652 0.032 6.58 3.12 8.5
6/3/2022 1:30:00 AM 18.08 64.544 0.032 6.55 2.95 8.47
6/3/2022 1:45:00 AM 18.02 64.436 0.034 6.54 2.87 8.41
6/3/2022 2:00:00 AM 17.96 64.328 0.033 6.55 2.71 8.47
6/3/2022 2:15:00 AM 17.91 64.238 0.034 6.53 2.78 8.45
6/3/2022 2:30:00 AM 17.84 64.112 0.033 6.54 2.7 8.48
6/3/2022 2:45:00 AM 17.8 64.04 0.033 6.53 3.04 8.47
6/3/2022 3:00:00 AM 17.74 63.932 0.032 6.51 3.75 8.46
6/3/2022 3:15:00 AM 17.7 63.86 0.032 6.53 2.85 8.55
6/3/2022 3:30:00 AM 17.65 63.77 0.031 6.54 3.75 8.57
6/3/2022 3:45:00 AM 17.59 63.662 0.034 6.54 2.83 8.49
6/3/2022 4:00:00 AM 17.55 63.59 0.032 6.5 2.9 8.54
6/3/2022 4:15:00 AM 17.5 63.5 0.033 6.55 2.84 8.55
6/3/2022 4:30:00 AM 17.43 63.374 0.034 6.53 2.86 8.57
6/3/2022 4:45:00 AM 17.39 63.302 0.033 6.54 3.31 8.6
6/3/2022 5:00:00 AM 17.35 63.23 0.032 6.53 2.9 8.6
6/3/2022 5:15:00 AM 17.28 63.104 0.032 6.53 2.64 8.61
6/3/2022 5:30:00 AM 17.24 63.032 0.032 6.55 2.75 8.67
6/3/2022 5:45:00 AM 17.17 62.906 0.031 6.53 3.54 8.65
6/3/2022 6:00:00 AM 17.13 62.834 0.032 6.5 2.76 8.66
6/3/2022 6:15:00 AM 17.05 62.69 0.032 6.54 2.75 8.68
6/3/2022 6:30:00 AM 17 62.6 0.032 6.56 2.65 8.72
6/3/2022 6:45:00 AM 16.95 62.51 0.033 6.49 2.66 8.7
6/3/2022 7:00:00 AM 16.95 62.51 0.032 6.52 2.95 8.77
6/3/2022 7:15:00 AM 16.9 62.42 0.032 6.53 2.62 8.82
6/3/2022 7:30:00 AM 16.88 62.384 0.032 6.54 3.04 8.92
6/3/2022 7:45:00 AM 16.95 62.51 0.033 6.51 2.84 8.85
6/3/2022 8:00:00 AM 16.98 62.564 0.032 6.56 2.64 8.96
6/3/2022 8:15:00 AM 17.01 62.618 0.032 6.55 2.56 8.99
6/3/2022 8:30:00 AM 17.09 62.762 0.031 6.58 2.8 9.03
6/3/2022 8:45:00 AM 17.16 62.888 0.031 6.59 2.65 9.07
6/3/2022 9:00:00 AM 17.25 63.05 0.031 6.61 2.68 9.1
6/3/2022 9:15:00 AM 17.33 63.194 0.03 6.6 3.42 9.09
6/3/2022 9:30:00 AM 17.43 63.374 0.032 6.61 2.69 9.1
6/3/2022 9:45:00 AM 17.54 63.572 0.03 6.59 3.52 9.09
6/3/2022 10:00:00 AM 17.67 63.806 0.031 6.67 2.74 9.14
6/3/2022 10:15:00 AM 17.78 64.004 0.031 6.66 2.49 9.15
6/3/2022 10:30:00 AM 17.91 64.238 0.03 6.71 2.52 9.16
6/3/2022 10:45:00 AM 18.08 64.544 0.03 6.75 2.46 9.15
6/3/2022 11:00:00 AM 18.22 64.796 0.029 6.69 3.45 9.12
6/3/2022 11:15:00 AM 18.48 65.264 0.03 6.74 2.65 9.1
6/3/2022 11:30:00 AM 18.64 65.552 0.029 6.74 2.54 9.07
6/3/2022 11:45:00 AM 18.89 66.002 0.03 6.75 2.68 9.05
6/3/2022 12:00:00 PM 19.1 66.38 0.03 6.74 2.48 9.02
6/3/2022 12:15:00 PM 19.36 66.848 0.03 6.76 2.6 8.99
6/3/2022 12:30:00 PM 19.65 67.37 0.029 6.75 3.52 8.95
6/3/2022 12:45:00 PM 19.84 67.712 0.029 6.78 2.48 8.92
6/3/2022 1:00:00 PM 20.06 68.108 0.03 6.74 2.41 8.87
6/3/2022 1:15:00 PM 20.28 68.504 0.03 6.76 2.56 8.82
6/3/2022 1:30:00 PM 20.56 69.008 0.029 6.76 3.32 8.79
6/3/2022 1:45:00 PM 20.81 69.458 0.029 6.76 2.53 8.74
6/3/2022 2:00:00 PM 20.96 69.728 0.029 6.79 2.54 8.71
6/3/2022 2:15:00 PM 21.16 70.088 0.029 6.76 2.39 8.68
6/3/2022 2:30:00 PM 21.39 70.502 0.029 6.77 2.55 8.64
6/3/2022 2:45:00 PM 21.59 70.862 0.029 6.8 2.76 8.62
6/3/2022 3:00:00 PM 21.8 71.24 0.029 6.79 2.82 8.57
6/3/2022 3:15:00 PM 21.96 71.528 0.029 6.8 3.35 8.54
6/3/2022 3:30:00 PM 22.09 71.762 0.029 6.75 2.54 8.51
6/3/2022 3:45:00 PM 22.24 72.032 0.029 6.8 2.46 8.5
6/3/2022 4:00:00 PM 22.31 72.158 0.029 6.8 2.43 8.44
6/3/2022 4:15:00 PM 22.48 72.464 0.028 6.78 3.29 8.43
6/3/2022 4:30:00 PM 22.5 72.5 0.029 6.76 2.37 8.41
6/3/2022 4:45:00 PM 22.55 72.59 0.029 6.78 2.99 8.39
6/3/2022 5:00:00 PM 22.56 72.608 0.029 6.79 2.8 8.37
6/3/2022 5:15:00 PM 22.5 72.5 0.029 6.79 2.44 8.33
6/3/2022 5:30:00 PM 22.38 72.284 0.029 6.75 3.29 8.3
6/3/2022 5:45:00 PM 22.3 72.14 0.029 6.75 3.27 8.31
6/3/2022 6:00:00 PM 22.16 71.888 0.03 6.74 2.51 8.32
6/3/2022 6:15:00 PM 22.06 71.708 0.029 6.73 3.22 8.29
6/3/2022 6:30:00 PM 21.94 71.492 0.03 6.77 2.62 8.31
6/3/2022 6:45:00 PM 21.72 71.096 0.03 6.72 2.55 8.3
6/3/2022 7:00:00 PM 21.49 70.682 0.031 6.69 2.44 8.3
6/3/2022 7:15:00 PM 21.21 70.17799 0.03 6.67 3.27 8.31
6/3/2022 7:30:00 PM 20.97 69.746 0.031 6.7 2.59 8.32
6/3/2022 7:45:00 PM 20.69 69.242 0.031 6.69 2.53 8.32
6/3/2022 8:00:00 PM 20.43 68.774 0.031 6.62 3.37 8.27
6/3/2022 8:15:00 PM 20.21 68.378 0.031 6.67 2.41 8.28
6/3/2022 8:30:00 PM 20 68 0.031 6.66 2.58 8.29
6/3/2022 8:45:00 PM 19.78 67.604 0.031 6.64 2.56 8.29
6/3/2022 9:00:00 PM 19.61 67.298 0.031 6.63 2.58 8.3
6/3/2022 9:15:00 PM 19.39 66.902 0.031 6.63 2.53 8.32
6/3/2022 9:30:00 PM 19.22 66.596 0.032 6.59 2.88 8.28
6/3/2022 9:45:00 PM 19.03 66.254 0.032 6.6 2.59 8.32
6/3/2022 10:00:00 PM 18.85 65.93 0.031 6.59 3.32 8.35
6/3/2022 10:15:00 PM 18.67 65.606 0.031 6.59 2.53 8.37
6/3/2022 10:30:00 PM 18.51 65.318 0.031 6.58 3.27 8.41
6/3/2022 10:45:00 PM 18.34 65.012 0.032 6.59 2.7 8.45
6/3/2022 11:00:00 PM 18.19 64.742 0.031 6.6 2.66 8.48
6/3/2022 11:15:00 PM 18.03 64.454 0.032 6.52 2.49 8.48
6/3/2022 11:30:00 PM 17.88 64.184 0.031 6.6 2.47 8.55
6/3/2022 11:45:00 PM 17.72 63.896 0.031 6.58 2.63 8.54
6/4/2022 12:00:00 AM 17.57 63.626 0.031 6.53 2.61 8.6
6/4/2022 12:15:00 AM 17.43 63.374 0.032 6.56 2.47 8.61
6/4/2022 12:30:00 AM 17.28 63.104 0.032 6.56 2.44 8.63
6/4/2022 12:45:00 AM 17.14 62.852 0.032 6.56 2.54 8.67
6/4/2022 1:00:00 AM 16.99 62.582 0.032 6.49 2.63 8.7
6/4/2022 1:15:00 AM 16.85 62.33 0.032 6.55 2.42 8.73
6/4/2022 1:30:00 AM 16.7 62.06 0.031 6.53 3.19 8.77
6/4/2022 1:45:00 AM 16.56 61.808 0.032 6.5 2.63 8.8
6/4/2022 2:00:00 AM 16.41 61.538 0.031 6.54 3.35 8.84
6/4/2022 2:15:00 AM 16.28 61.304 0.031 6.55 2.5 8.86
6/4/2022 2:30:00 AM 16.13 61.034 0.03 6.54 3.28 8.9
6/4/2022 2:45:00 AM 16 60.8 0.032 6.52 2.7 8.93
6/4/2022 3:00:00 AM 15.87 60.566 0.031 6.49 3.3 8.97
6/4/2022 3:15:00 AM 15.74 60.332 0.032 6.5 2.83 8.98
6/4/2022 3:30:00 AM 15.61 60.098 0.032 6.47 2.75 9.01
6/4/2022 3:45:00 AM 15.47 59.846 0.031 6.55 2.75 9.06
6/4/2022 4:00:00 AM 15.33 59.594 0.032 6.51 2.6 9.06
6/4/2022 4:15:00 AM 15.21 59.378 0.032 6.51 2.7 9.11
6/4/2022 4:30:00 AM 15.09 59.162 0.032 6.51 2.92 9.13
6/4/2022 4:45:00 AM 14.96 58.928 0.031 6.51 2.62 9.17
6/4/2022 5:00:00 AM 14.85 58.73 0.032 6.5 2.96 9.19
6/4/2022 5:15:00 AM 14.72 58.496 0.031 6.53 2.64 9.25
6/4/2022 5:30:00 AM 14.6 58.28 0.031 6.52 2.69 9.27
6/4/2022 5:45:00 AM 14.5 58.1 0.031 6.48 2.55 9.29
6/4/2022 6:00:00 AM 14.38 57.884 0.03 6.49 3.36 9.33
6/4/2022 6:15:00 AM 14.29 57.722 0.03 6.48 3.6 9.35
6/4/2022 6:30:00 AM 14.2 57.56 0.031 6.51 2.51 9.41
6/4/2022 6:45:00 AM 14.15 57.47 0.031 6.49 3.3 9.44
6/4/2022 7:00:00 AM 14.1 57.38 0.032 6.49 2.47 9.46
6/4/2022 7:15:00 AM 14.07 57.326 0.032 6.51 2.5 9.54
6/4/2022 7:30:00 AM 14.06 57.308 0.031 6.49 3.21 9.58
6/4/2022 7:45:00 AM 14.08 57.344 0.032 6.52 2.56 9.63
6/4/2022 8:00:00 AM 14.11 57.398 0.033 6.53 2.5 9.64
6/4/2022 8:15:00 AM 14.19 57.542 0.033 6.55 2.46 9.69
6/4/2022 8:30:00 AM 14.5 58.1 0.03 6.58 3.02 9.68
6/4/2022 8:45:00 AM 14.61 58.298 0.03 6.54 3.12 9.65
6/4/2022 9:00:00 AM 14.78 58.604 0.03 6.59 3.11 9.68
6/4/2022 9:15:00 AM 14.95 58.91 0.031 6.65 2.37 9.69
6/4/2022 9:30:00 AM 15.16 59.288 0.031 6.5 2.3 9.7
6/4/2022 9:45:00 AM 15.34 59.612 0.03 6.69 2.39 9.7
6/4/2022 10:00:00 AM 15.54 59.972 0.03 6.71 2.27 9.7
6/4/2022 10:15:00 AM 15.78 60.404 0.029 6.7 3.11 9.68
6/4/2022 10:30:00 AM 16 60.8 0.03 6.56 2.32 9.65
6/4/2022 10:45:00 AM 16.22 61.196 0.029 6.74 3.14 9.63
6/4/2022 11:00:00 AM 16.51 61.718 0.031 6.74 2.15 9.58
6/4/2022 11:15:00 AM 16.75 62.15 0.03 6.75 2.3 9.55
6/4/2022 11:30:00 AM 17 62.6 0.031 6.74 2.28 9.49
6/4/2022 11:45:00 AM 17.28 63.104 0.03 6.75 2.26 9.46
6/4/2022 12:00:00 PM 17.57 63.626 0.031 6.75 2.35 9.39
6/4/2022 12:15:00 PM 17.87 64.166 0.03 6.77 2.17 9.38
6/4/2022 12:30:00 PM 18.17 64.706 0.03 6.73 2.7 9.31
6/4/2022 12:45:00 PM 18.43 65.174 0.03 6.79 2.13 9.27
6/4/2022 1:00:00 PM 18.72 65.696 0.029 6.76 3.15 9.21
6/4/2022 1:15:00 PM 19.03 66.254 0.03 6.78 2.49 9.16
6/4/2022 1:30:00 PM 19.31 66.758 0.03 6.81 2.25 9.12
6/4/2022 1:45:00 PM 19.58 67.244 0.03 6.64 2.19 9.07
6/4/2022 2:00:00 PM 19.91 67.838 0.03 6.82 2.15 9.02
6/4/2022 2:15:00 PM 20.21 68.378 0.03 6.81 2.16 8.96
6/4/2022 2:30:00 PM 20.39 68.702 0.028 6.8 2.99 8.92
6/4/2022 2:45:00 PM 20.64 69.152 0.028 6.8 3.17 8.87
6/4/2022 3:00:00 PM 20.85 69.53 0.03 6.82 2.29 8.84
6/4/2022 3:15:00 PM 21.07 69.926 0.03 6.83 2.2 8.79
6/4/2022 3:30:00 PM 21.24 70.232 0.029 6.81 2.9 8.75
6/4/2022 3:45:00 PM 21.37 70.466 0.03 6.81 2.17 8.72
6/4/2022 4:00:00 PM 21.53 70.754 0.029 6.84 2.16 8.69
6/4/2022 4:15:00 PM 21.61 70.898 0.03 6.69 2.11 8.66
6/4/2022 4:30:00 PM 21.7 71.06 0.029 6.84 2.23 8.63
6/4/2022 4:45:00 PM 21.77 71.186 0.029 6.84 2.26 8.6
6/4/2022 5:00:00 PM 21.82 71.276 0.03 6.71 2.25 8.58
6/4/2022 5:15:00 PM 21.82 71.276 0.029 6.84 2.16 8.56
6/4/2022 5:30:00 PM 21.76 71.168 0.029 6.83 2.15 8.55
6/4/2022 5:45:00 PM 21.76 71.168 0.03 6.84 2.14 8.53
6/4/2022 6:00:00 PM 21.69 71.042 0.03 6.68 2.19 8.52
6/4/2022 6:15:00 PM 21.6 70.88 0.03 6.83 2.22 8.5
6/4/2022 6:30:00 PM 21.45 70.61 0.03 6.66 2.46 8.51
6/4/2022 6:45:00 PM 21.25 70.25 0.03 6.8 2.33 8.49
6/4/2022 7:00:00 PM 21.04 69.872 0.03 6.78 2.27 8.48
6/4/2022 7:15:00 PM 20.78 69.404 0.03 6.75 3.08 8.47
6/4/2022 7:30:00 PM 20.51 68.918 0.029 6.73 3.07 8.47
6/4/2022 7:45:00 PM 20.26 68.468 0.031 6.73 2.26 8.45
6/4/2022 8:00:00 PM 19.95 67.91 0.031 6.71 2.24 8.43
6/4/2022 8:15:00 PM 19.66 67.388 0.031 6.71 2.4 8.44
6/4/2022 8:30:00 PM 19.42 66.956 0.031 6.68 2.49 8.42
6/4/2022 8:45:00 PM 19.16 66.488 0.032 6.64 2.34 8.41
6/4/2022 9:00:00 PM 18.95 66.11 0.032 6.68 2.3 8.43
6/4/2022 9:15:00 PM 18.71 65.67799 0.032 6.65 2.28 8.42
6/4/2022 9:30:00 PM 18.49 65.282 0.032 6.64 2.39 8.44
6/4/2022 9:45:00 PM 18.29 64.922 0.032 6.65 2.34 8.48
6/4/2022 10:00:00 PM 18.08 64.544 0.032 6.65 2.34 8.51
6/4/2022 10:15:00 PM 17.85 64.13 0.032 6.64 2.41 8.55
6/4/2022 10:30:00 PM 17.65 63.77 0.033 6.55 2.39 8.53
6/4/2022 10:45:00 PM 17.46 63.428 0.033 6.62 2.41 8.58
6/4/2022 11:00:00 PM 17.25 63.05 0.033 6.61 2.29 8.62
6/4/2022 11:15:00 PM 17.07 62.726 0.033 6.61 2.28 8.65
6/4/2022 11:30:00 PM 16.88 62.384 0.033 6.63 2.36 8.7
6/4/2022 11:45:00 PM 16.67 62.006 0.033 6.61 2.35 8.75
6/5/2022 12:00:00 AM 16.52 61.736 0.033 6.55 2.39 8.77
6/5/2022 12:15:00 AM 16.31 61.358 0.033 6.61 2.25 8.82
6/5/2022 12:30:00 AM 16.15 61.07 0.032 6.58 3.14 8.84
6/5/2022 12:45:00 AM 15.96 60.728 0.033 6.59 2.4 8.89
6/5/2022 1:00:00 AM 15.8 60.44 0.035 6.57 2.26 8.89
6/5/2022 1:15:00 AM 15.62 60.116 0.034 6.55 2.3 8.97
6/5/2022 1:30:00 AM 15.44 59.792 0.034 6.6 2.54 9.02
6/5/2022 1:45:00 AM 15.29 59.522 0.034 6.58 2.32 9.05
6/5/2022 2:00:00 AM 15.14 59.252 0.034 6.57 2.33 9.07
6/5/2022 2:15:00 AM 14.99 58.982 0.034 6.59 2.28 9.13
6/5/2022 2:30:00 AM 14.83 58.694 0.034 6.57 2.28 9.15
6/5/2022 2:45:00 AM 14.68 58.424 0.034 6.58 2.26 9.19
6/5/2022 3:00:00 AM 14.54 58.172 0.034 6.52 3.18 9.22
6/5/2022 3:15:00 AM 14.4 57.92 0.033 6.52 3.18 9.24
6/5/2022 3:30:00 AM 14.27 57.686 0.034 6.52 2.31 9.29
6/5/2022 3:45:00 AM 14.13 57.434 0.033 6.54 3.18 9.33
6/5/2022 4:00:00 AM 14.01 57.218 0.034 6.54 2.5 9.34
6/5/2022 4:15:00 AM 13.92 57.056 0.033 6.53 3.08 9.37
6/5/2022 4:30:00 AM 13.98 57.164 0.033 6.52 3.18 9.34
6/5/2022 4:45:00 AM 13.85 56.93 0.034 6.47 2.17 9.35
6/5/2022 5:00:00 AM 13.73 56.714 0.033 6.5 3.19 9.37
6/5/2022 5:15:00 AM 13.6 56.48 0.034 6.46 2.3 9.42
6/5/2022 5:30:00 AM 13.51 56.318 0.034 6.53 2.28 9.45
6/5/2022 5:45:00 AM 13.38 56.084 0.034 6.54 2.32 9.49
6/5/2022 6:00:00 AM 13.27 55.886 0.034 6.52 2.61 9.5
6/5/2022 6:15:00 AM 13.17 55.706 0.032 6.49 3.49 9.55
6/5/2022 6:30:00 AM 13.08 55.544 0.032 6.49 3.41 9.61
6/5/2022 6:45:00 AM 13.02 55.436 0.032 6.52 3.31 9.66
6/5/2022 7:00:00 AM 12.94 55.292 0.034 6.48 2.34 9.69
6/5/2022 7:15:00 AM 12.91 55.238 0.033 6.51 3.15 9.76
6/5/2022 7:30:00 AM 12.9 55.22 0.032 6.52 3.05 9.81
6/5/2022 7:45:00 AM 12.91 55.238 0.033 6.57 2.16 9.86
6/5/2022 8:00:00 AM 12.95 55.31 0.034 6.49 2.3 9.86
6/5/2022 8:15:00 AM 12.99 55.382 0.033 6.59 2.14 9.93
6/5/2022 8:30:00 AM 13.08 55.544 0.033 6.56 2.95 9.97
6/5/2022 8:45:00 AM 13.16 55.688 0.033 6.63 2.19 10.02
6/5/2022 9:00:00 AM 13.31 55.958 0.032 6.59 2.18 10.03
6/5/2022 9:15:00 AM 13.45 56.21 0.032 6.67 2.15 10.06
6/5/2022 9:30:00 AM 13.61 56.498 0.031 6.66 2.98 10.08
6/5/2022 9:45:00 AM 13.76 56.768 0.033 6.69 2.02 10.07
6/5/2022 10:00:00 AM 13.88 56.984 0.031 6.68 2.93 10.09
6/5/2022 10:15:00 AM 14.01 57.218 0.03 6.69 2.94 10.09
6/5/2022 10:30:00 AM 14.18 57.524 0.031 6.71 2.9 10.09
6/5/2022 10:45:00 AM 14.33 57.794 0.031 6.72 2.98 10.09
6/5/2022 11:00:00 AM 14.47 58.046 0.031 6.71 2.11 10.08
6/5/2022 11:15:00 AM 14.61 58.298 0.031 6.78 2.16 10.07
6/5/2022 11:30:00 AM 14.82 58.676 0.03 6.76 2.95 10.06
6/5/2022 11:45:00 AM 14.97 58.946 0.031 6.74 2.09 10.04
6/5/2022 12:00:00 PM 15.17 59.306 0.031 6.81 2.14 10.02
6/5/2022 12:15:00 PM 15.41 59.738 0.031 6.81 2.12 9.99
6/5/2022 12:30:00 PM 15.62 60.116 0.031 6.74 2.02 9.94
6/5/2022 12:45:00 PM 15.82 60.476 0.032 6.81 2.09 9.9
6/5/2022 1:00:00 PM 16.06 60.908 0.031 6.78 2.11 9.85
6/5/2022 1:15:00 PM 16.3 61.34 0.031 6.83 2.06 9.81
6/5/2022 1:30:00 PM 16.54 61.772 0.031 6.83 2.02 9.76
6/5/2022 1:45:00 PM 16.83 62.294 0.031 6.79 2.21 9.71
6/5/2022 2:00:00 PM 17.15 62.87 0.03 6.84 2.08 9.66
6/5/2022 2:15:00 PM 17.36 63.248 0.03 6.85 2.01 9.6
6/5/2022 2:30:00 PM 17.66 63.788 0.03 6.85 2.02 9.55
6/5/2022 2:45:00 PM 17.98 64.364 0.03 6.81 2.87 9.48
6/5/2022 3:00:00 PM 18.23 64.814 0.031 6.82 2.04 9.42
6/5/2022 3:15:00 PM 18.54 65.372 0.03 6.83 2.91 9.37
6/5/2022 3:30:00 PM 18.8 65.84 0.029 6.81 2.93 9.31
6/5/2022 3:45:00 PM 19.06 66.308 0.029 6.82 2.85 9.25
6/5/2022 4:00:00 PM 19.33 66.794 0.03 6.85 1.98 9.2
6/5/2022 4:15:00 PM 19.6 67.28 0.03 6.85 2.02 9.17
6/5/2022 4:30:00 PM 19.83 67.694 0.03 6.79 1.99 9.12
6/5/2022 4:45:00 PM 19.93 67.874 0.029 6.83 2.77 9.09
6/5/2022 5:00:00 PM 19.89 67.802 0.03 6.85 2.11 9.03
6/5/2022 5:15:00 PM 19.88 67.784 0.031 6.8 2.02 8.96
6/5/2022 5:30:00 PM 19.97 67.946 0.03 6.82 2 8.94
6/5/2022 5:45:00 PM 20.03 68.054 0.031 6.84 1.95 8.93
6/5/2022 6:00:00 PM 19.99 67.982 0.031 6.82 2.03 8.92
6/5/2022 6:15:00 PM 19.91 67.838 0.03 6.8 2.9 8.91
6/5/2022 6:30:00 PM 19.84 67.712 0.029 6.78 2.82 8.9
6/5/2022 6:45:00 PM 19.72 67.496 0.031 6.83 2.19 8.9
6/5/2022 7:00:00 PM 19.57 67.226 0.031 6.81 2.08 8.88
6/5/2022 7:15:00 PM 19.36 66.848 0.031 6.81 2.13 8.86
6/5/2022 7:30:00 PM 19.16 66.488 0.031 6.79 1.98 8.84
6/5/2022 7:45:00 PM 18.92 66.056 0.032 6.77 2.11 8.79
6/5/2022 8:00:00 PM 18.68 65.624 0.032 6.74 2.05 8.77
6/5/2022 8:15:00 PM 18.46 65.228 0.032 6.75 2.16 8.73
6/5/2022 8:30:00 PM 18.2 64.76 0.032 6.73 2.11 8.72
6/5/2022 8:45:00 PM 17.98 64.364 0.032 6.69 2.94 8.72
6/5/2022 9:00:00 PM 17.75 63.95 0.032 6.7 2.17 8.73
6/5/2022 9:15:00 PM 17.56 63.608 0.033 6.64 2.12 8.74
6/5/2022 9:30:00 PM 17.35 63.23 0.031 6.67 2.98 8.74
6/5/2022 9:45:00 PM 17.14 62.852 0.031 6.64 2.98 8.76
6/5/2022 10:00:00 PM 16.98 62.564 0.033 6.66 2.16 8.76
6/5/2022 10:15:00 PM 16.84 62.312 0.033 6.65 2.37 8.77
6/5/2022 10:30:00 PM 16.67 62.006 0.033 6.66 2.42 8.82
6/5/2022 10:45:00 PM 16.52 61.736 0.033 6.65 2.11 8.83
6/5/2022 11:00:00 PM 16.37 61.466 0.033 6.64 2.41 8.85
6/5/2022 11:15:00 PM 16.22 61.196 0.033 6.64 2.15 8.88
6/5/2022 11:30:00 PM 16.05 60.89 0.032 6.61 2.98 8.9
6/5/2022 11:45:00 PM 15.92 60.656 0.034 6.64 2.34 8.93
6/6/2022 12:00:00 AM 15.79 60.422 0.034 6.63 2.52 8.94
6/6/2022 12:15:00 AM 15.67 60.206 0.034 6.6 2.58 8.95
6/6/2022 12:30:00 AM 15.55 59.99 0.033 6.61 2.47 9.01
6/6/2022 12:45:00 AM 15.42 59.756 0.034 6.63 2.43 9.05
6/6/2022 1:00:00 AM 15.3 59.54 0.032 6.59 3.23 9.06
6/6/2022 1:15:00 AM 15.17 59.306 0.032 6.57 3.35 9.06
6/6/2022 1:30:00 AM 15.04 59.072 0.034 6.61 2.55 9.12
6/6/2022 1:45:00 AM 14.93 58.874 0.033 6.57 3.11 9.13
6/6/2022 2:00:00 AM 14.82 58.676 0.033 6.6 2.24 9.17
6/6/2022 2:15:00 AM 14.72 58.496 0.032 6.57 3.07 9.18
6/6/2022 2:30:00 AM 14.61 58.298 0.033 6.57 3.02 9.22
6/6/2022 2:45:00 AM 14.52 58.136 0.032 6.57 3.02 9.25
6/6/2022 3:00:00 AM 14.41 57.938 0.034 6.53 2.14 9.26
6/6/2022 3:15:00 AM 14.3 57.74 0.034 6.61 2.23 9.31
6/6/2022 3:30:00 AM 14.22 57.596 0.034 6.6 2.12 9.28
6/6/2022 3:45:00 AM 14.1 57.38 0.033 6.56 2.99 9.34
6/6/2022 4:00:00 AM 14.02 57.236 0.033 6.53 2.22 9.36
6/6/2022 4:15:00 AM 13.94 57.092 0.033 6.57 2.97 9.34
6/6/2022 4:30:00 AM 14.02 57.236 0.034 6.57 2.3 9.29
6/6/2022 4:45:00 AM 13.9 57.02 0.034 6.59 2.15 9.35
6/6/2022 5:00:00 AM 13.81 56.858 0.034 6.59 2.21 9.37
6/6/2022 5:15:00 AM 13.73 56.714 0.034 6.59 2.39 9.39
6/6/2022 5:30:00 AM 13.66 56.588 0.036 6.55 2.45 9.32
6/6/2022 5:45:00 AM 13.55 56.39 0.034 6.52 3.05 9.36
6/6/2022 6:00:00 AM 13.46 56.228 0.035 6.49 3.42 9.37
6/6/2022 6:15:00 AM 13.36 56.048 0.034 6.54 2.15 9.5
6/6/2022 6:30:00 AM 13.27 55.886 0.034 6.6 2.29 9.56
6/6/2022 6:45:00 AM 13.24 55.832 0.034 6.58 2.31 9.58
6/6/2022 7:00:00 AM 13.19 55.742 0.034 6.59 2.31 9.62
6/6/2022 7:15:00 AM 13.18 55.724 0.033 6.56 3.08 9.66
6/6/2022 7:30:00 AM 13.18 55.724 0.034 6.61 2.09 9.75
6/6/2022 7:45:00 AM 13.2 55.76 0.033 6.57 3.12 9.77
6/6/2022 8:00:00 AM 13.24 55.832 0.035 6.61 2.19 9.8
6/6/2022 8:15:00 AM 13.31 55.958 0.034 6.63 2.06 9.85
6/6/2022 8:30:00 AM 13.42 56.156 0.033 6.65 2.13 9.89
6/6/2022 8:45:00 AM 13.54 56.372 0.033 6.66 2.04 9.92
6/6/2022 9:00:00 AM 13.71 56.678 0.033 6.67 2.03 9.92
6/6/2022 9:15:00 AM 13.94 57.092 0.034 6.6 2.02 9.94
6/6/2022 9:30:00 AM 14.15 57.47 0.033 6.69 2.22 9.96
6/6/2022 9:45:00 AM 14.39 57.902 0.033 6.72 2.04 9.95
6/6/2022 10:00:00 AM 14.56 58.208 0.033 6.73 2.01 9.95
6/6/2022 10:15:00 AM 14.86 58.748 0.033 6.73 2.11 9.94
6/6/2022 10:30:00 AM 15.16 59.288 0.032 6.75 2.11 9.94
6/6/2022 10:45:00 AM 15.34 59.612 0.032 6.75 1.92 9.9
6/6/2022 11:00:00 AM 15.66 60.188 0.032 6.7 2.89 9.87
6/6/2022 11:15:00 AM 15.85 60.53 0.031 6.73 2.83 9.84
6/6/2022 11:30:00 AM 16.13 61.034 0.032 6.78 2 9.79
6/6/2022 11:45:00 AM 16.45 61.61 0.032 6.79 1.95 9.76
6/6/2022 12:00:00 PM 16.7 62.06 0.031 6.77 2.86 9.71
6/6/2022 12:15:00 PM 17.01 62.618 0.032 6.81 1.93 9.67
6/6/2022 12:30:00 PM 17.36 63.248 0.032 6.81 1.99 9.6
6/6/2022 12:45:00 PM 17.72 63.896 0.032 6.79 2.01 9.52
6/6/2022 1:00:00 PM 18.07 64.526 0.032 6.75 2.07 9.47
6/6/2022 1:15:00 PM 18.44 65.192 0.031 6.8 2.82 9.41
6/6/2022 1:30:00 PM 18.8 65.84 0.03 6.8 3.02 9.35
6/6/2022 1:45:00 PM 19.13 66.434 0.032 6.83 2 9.3
6/6/2022 2:00:00 PM 19.46 67.028 0.032 6.84 2 9.23
6/6/2022 2:15:00 PM 19.79 67.622 0.031 6.82 2.75 9.17
6/6/2022 2:30:00 PM 20.22 68.396 0.032 6.83 1.98 9.09
6/6/2022 2:45:00 PM 20.45 68.81 0.032 6.84 1.91 9.05
6/6/2022 3:00:00 PM 20.71 69.278 0.032 6.84 1.98 9
6/6/2022 3:15:00 PM 20.95 69.71 0.032 6.85 1.96 8.94
6/6/2022 3:30:00 PM 21.22 70.196 0.032 6.85 1.88 8.89
6/6/2022 3:45:00 PM 21.45 70.61 0.032 6.85 1.89 8.86
6/6/2022 4:00:00 PM 21.6 70.88 0.031 6.84 2.72 8.82
6/6/2022 4:15:00 PM 21.73 71.114 0.031 6.84 2.3 8.81
6/6/2022 4:30:00 PM 21.79 71.222 0.03 6.83 2.73 8.77
6/6/2022 4:45:00 PM 21.87 71.366 0.031 6.84 2.81 8.73
6/6/2022 5:00:00 PM 21.93 71.474 0.032 6.82 1.95 8.71
6/6/2022 5:15:00 PM 21.94 71.492 0.032 6.87 1.87 8.69
6/6/2022 5:30:00 PM 21.92 71.456 0.032 6.86 1.96 8.68
6/6/2022 5:45:00 PM 21.87 71.366 0.032 6.87 2.05 8.66
6/6/2022 6:00:00 PM 21.73 71.114 0.032 6.85 2.06 8.65
6/6/2022 6:15:00 PM 21.65 70.97 0.032 6.81 1.98 8.64
6/6/2022 6:30:00 PM 21.55 70.79 0.032 6.86 2.05 8.64
6/6/2022 6:45:00 PM 21.4 70.52 0.032 6.85 2.21 8.63
6/6/2022 7:00:00 PM 21.25 70.25 0.032 6.84 2.06 8.61
6/6/2022 7:15:00 PM 21.07 69.926 0.032 6.8 2.02 8.59
6/6/2022 7:30:00 PM 20.85 69.53 0.032 6.84 2 8.57
6/6/2022 7:45:00 PM 20.65 69.17 0.031 6.79 2.89 8.54
6/6/2022 8:00:00 PM 20.46 68.828 0.032 6.81 2.55 8.52
6/6/2022 8:15:00 PM 20.23 68.414 0.031 6.76 2.83 8.48
6/6/2022 8:30:00 PM 20.04 68.07201 0.033 6.76 2.04 8.45
6/6/2022 8:45:00 PM 19.84 67.712 0.032 6.72 2.87 8.42
6/6/2022 9:00:00 PM 19.66 67.388 0.034 6.73 2.16 8.35
6/6/2022 9:15:00 PM 19.44 66.992 0.033 6.67 2.05 8.34
6/6/2022 9:30:00 PM 19.27 66.686 0.034 6.72 2.08 8.35
6/6/2022 9:45:00 PM 19.1 66.38 0.034 6.69 2.1 8.34
6/6/2022 10:00:00 PM 18.94 66.092 0.034 6.68 2.26 8.36
6/6/2022 10:15:00 PM 18.78 65.804 0.034 6.69 2.15 8.35
6/6/2022 10:30:00 PM 18.63 65.534 0.034 6.64 2.94 8.34
6/6/2022 10:45:00 PM 18.47 65.246 0.034 6.63 3.08 8.34
6/6/2022 11:00:00 PM 18.34 65.012 0.034 6.66 2.23 8.34
6/6/2022 11:15:00 PM 18.19 64.742 0.035 6.66 2.13 8.41
6/6/2022 11:30:00 PM 18.08 64.544 0.035 6.61 2.26 8.41
6/6/2022 11:45:00 PM 17.93 64.274 0.034 6.64 2.99 8.41
6/7/2022 12:00:00 AM 17.8 64.04 0.036 6.63 2.06 8.41
6/7/2022 12:15:00 AM 17.68 63.824 0.035 6.58 2.19 8.47
6/7/2022 12:30:00 AM 17.55 63.59 0.035 6.63 2.13 8.46
6/7/2022 12:45:00 AM 17.44 63.392 0.035 6.63 2.82 8.44
6/7/2022 1:00:00 AM 17.32 63.176 0.036 6.56 3.9 8.39
6/7/2022 1:15:00 AM 17.2 62.96 0.035 6.58 2.59 8.44
6/7/2022 1:30:00 AM 17.13 62.834 0.037 6.56 2.82 8.44
6/7/2022 1:45:00 AM 17.03 62.654 0.039 6.55 2.9 8.35
6/7/2022 2:00:00 AM 16.92 62.456 0.038 6.54 2.54 8.43
6/7/2022 2:15:00 AM 16.84 62.312 0.039 6.46 3.39 8.33
6/7/2022 2:30:00 AM 16.73 62.114 0.036 6.51 2.51 8.44
6/7/2022 2:45:00 AM 16.64 61.952 0.039 6.52 2.98 8.38
6/7/2022 3:00:00 AM 16.56 61.808 0.037 6.48 3.21 8.45
6/7/2022 3:15:00 AM 16.47 61.646 0.036 6.55 3 8.6
6/7/2022 3:30:00 AM 16.38 61.484 0.037 6.55 2.19 8.67
6/7/2022 3:45:00 AM 16.31 61.358 0.038 6.56 2.33 8.59
6/7/2022 4:00:00 AM 16.22 61.196 0.035 6.56 3.11 8.71
6/7/2022 4:15:00 AM 16.12 61.016 0.037 6.57 2.26 8.67
6/7/2022 4:30:00 AM 16.04 60.872 0.039 6.49 3.11 8.62
6/7/2022 4:45:00 AM 15.96 60.728 0.037 6.56 3.02 8.62
6/7/2022 5:00:00 AM 15.87 60.566 0.036 6.58 2.23 8.69
6/7/2022 5:15:00 AM 15.79 60.422 0.036 6.6 2.31 8.83
6/7/2022 5:30:00 AM 15.73 60.314 0.035 6.58 2.18 8.78
6/7/2022 5:45:00 AM 15.62 60.116 0.036 6.61 2.46 8.88
6/7/2022 6:00:00 AM 15.55 59.99 0.036 6.61 2.56 8.95
6/7/2022 6:15:00 AM 15.48 59.864 0.035 6.59 2.53 8.87
6/7/2022 6:30:00 AM 15.42 59.756 0.037 6.58 2.63 8.95
6/7/2022 6:45:00 AM 15.38 59.684 0.038 6.54 2.36 8.96
6/7/2022 7:00:00 AM 15.34 59.612 0.038 6.6 2.28 9.03
6/7/2022 7:15:00 AM 15.32 59.576 0.036 6.62 2.19 9.1
6/7/2022 7:30:00 AM 15.28 59.504 0.036 6.64 2.13 9.16
6/7/2022 7:45:00 AM 15.23 59.414 0.035 6.62 2.87 9.26
6/7/2022 8:00:00 AM 15.26 59.468 0.036 6.66 2.05 9.29
6/7/2022 8:15:00 AM 15.3 59.54 0.035 6.67 2.11 9.32
6/7/2022 8:30:00 AM 15.38 59.684 0.035 6.64 2.92 9.36
6/7/2022 8:45:00 AM 15.44 59.792 0.035 6.63 2.05 9.4
6/7/2022 9:00:00 AM 15.5 59.9 0.035 6.72 2.16 9.48
6/7/2022 9:15:00 AM 15.65 60.17 0.036 6.65 2.22 9.51
6/7/2022 9:30:00 AM 15.84 60.512 0.035 6.72 1.93 9.5
6/7/2022 9:45:00 AM 16 60.8 0.034 6.69 2.87 9.55
6/7/2022 10:00:00 AM 16.2 61.16 0.036 6.67 2.86 9.52
6/7/2022 10:15:00 AM 16.4 61.52 0.036 6.74 2 9.59
6/7/2022 10:30:00 AM 16.49 61.682 0.035 6.77 2.06 9.6
6/7/2022 10:45:00 AM 16.63 61.934 0.033 6.75 2.85 9.6
6/7/2022 11:00:00 AM 16.76 62.168 0.034 6.73 2.09 9.59
6/7/2022 11:15:00 AM 16.91 62.438 0.034 6.82 1.93 9.59
6/7/2022 11:30:00 AM 17.11 62.798 0.032 6.77 2.92 9.57
6/7/2022 11:45:00 AM 17.25 63.05 0.034 6.76 2.07 9.54
6/7/2022 12:00:00 PM 17.36 63.248 0.033 6.81 2.87 9.52
6/7/2022 12:15:00 PM 17.4 63.32 0.034 6.78 1.93 9.5
6/7/2022 12:30:00 PM 17.45 63.41 0.034 6.81 1.93 9.45
6/7/2022 12:45:00 PM 17.52 63.536 0.034 6.84 2.1 9.42
6/7/2022 1:00:00 PM 17.61 63.698 0.033 6.81 2.8 9.39
6/7/2022 1:15:00 PM 17.72 63.896 0.032 6.82 2.92 9.4
6/7/2022 1:30:00 PM 17.74 63.932 0.033 6.81 2.26 9.38
6/7/2022 1:45:00 PM 17.74 63.932 0.033 6.85 2 9.35
6/7/2022 2:00:00 PM 17.71 63.878 0.033 6.85 1.94 9.31
6/7/2022 2:15:00 PM 17.7 63.86 0.033 6.84 2.1 9.27
6/7/2022 2:30:00 PM 17.68 63.824 0.033 6.84 2.18 9.25
6/7/2022 2:45:00 PM 17.66 63.788 0.033 6.83 2 9.23
6/7/2022 3:00:00 PM 17.67 63.806 0.032 6.81 2.87 9.22
6/7/2022 3:15:00 PM 17.66 63.788 0.032 6.8 2.76 9.24
6/7/2022 3:30:00 PM 17.62 63.716 0.033 6.83 2.18 9.21
6/7/2022 3:45:00 PM 17.64 63.752 0.032 6.79 2.85 9.18
6/7/2022 4:00:00 PM 17.63 63.734 0.033 6.81 1.98 9.18
6/7/2022 4:15:00 PM 17.6 63.68 0.032 6.79 2.85 9.15
6/7/2022 4:30:00 PM 17.59 63.662 0.034 6.8 2.26 9.15
6/7/2022 4:45:00 PM 17.56 63.608 0.034 6.75 2.18 9.13
6/7/2022 5:00:00 PM 17.57 63.626 0.034 6.8 2.14 9.13
6/7/2022 5:15:00 PM 17.58 63.644 0.034 6.79 2.19 9.12
6/7/2022 5:30:00 PM 17.56 63.608 0.034 6.8 2.16 9.12
6/7/2022 5:45:00 PM 17.52 63.536 0.034 6.79 2.17 9.1
6/7/2022 6:00:00 PM 17.49 63.482 0.035 6.77 2.09 9.04
6/7/2022 6:15:00 PM 17.47 63.446 0.035 6.77 2.22 9.04
6/7/2022 6:30:00 PM 17.45 63.41 0.034 6.74 3.12 9.03
6/7/2022 6:45:00 PM 17.42 63.356 0.034 6.74 2.93 9.04
6/7/2022 7:00:00 PM 17.38 63.284 0.034 6.75 3.06 9.01
6/7/2022 7:15:00 PM 17.32 63.176 0.035 6.75 3.17 8.99
6/7/2022 7:30:00 PM 17.28 63.104 0.036 6.77 2.36 8.96
6/7/2022 7:45:00 PM 17.21 62.978 0.037 6.73 2.42 8.89
6/7/2022 8:00:00 PM 17.16 62.888 0.036 6.71 3.52 8.87
6/7/2022 8:15:00 PM 17.11 62.798 0.038 6.73 2.56 8.86
6/7/2022 8:30:00 PM 17.06 62.708 0.035 6.69 3.33 8.83
6/7/2022 8:45:00 PM 17 62.6 0.037 6.72 2.51 8.83
6/7/2022 9:00:00 PM 16.94 62.492 0.035 6.68 3.25 8.81
6/7/2022 9:15:00 PM 16.88 62.384 0.035 6.67 3.19 8.79
6/7/2022 9:30:00 PM 16.84 62.312 0.036 6.69 2.42 8.78
6/7/2022 9:45:00 PM 16.79 62.222 0.035 6.64 3.17 8.76
6/7/2022 10:00:00 PM 16.74 62.132 0.036 6.67 2.32 8.75
6/7/2022 10:15:00 PM 16.71 62.078 0.035 6.65 3.21 8.77
6/7/2022 10:30:00 PM 16.66 61.988 0.035 6.64 3.18 8.74
6/7/2022 10:45:00 PM 16.63 61.934 0.036 6.66 2.43 8.74
6/7/2022 11:00:00 PM 16.6 61.88 0.035 6.63 3.21 8.73
6/7/2022 11:15:00 PM 16.57 61.826 0.036 6.61 3.4 8.71
6/7/2022 11:30:00 PM 16.54 61.772 0.035 6.61 3.15 8.73
6/7/2022 11:45:00 PM 16.51 61.718 0.036 6.62 3.19 8.76
6/8/2022 12:00:00 AM 16.5 61.7 0.036 6.66 2.59 8.78
6/8/2022 12:15:00 AM 16.47 61.646 0.035 6.61 3.83 8.78
6/8/2022 12:30:00 AM 16.45 61.61 0.036 6.59 5.19 8.77
6/8/2022 12:45:00 AM 16.44 61.592 0.036 6.56 4.07 8.74
6/8/2022 1:00:00 AM 16.42 61.556 0.036 6.66 2.62 8.81
6/8/2022 1:15:00 AM 16.4 61.52 0.036 6.64 2.7 8.75
6/8/2022 1:30:00 AM 16.38 61.484 0.036 6.62 2.71 8.77
6/8/2022 1:45:00 AM 16.37 61.466 0.035 6.64 2.68 8.83
6/8/2022 2:00:00 AM 16.35 61.43 0.035 6.59 2.44 8.84
6/8/2022 2:15:00 AM 16.34 61.412 0.035 6.64 2.56 8.87
6/8/2022 2:30:00 AM 16.32 61.376 0.035 6.64 2.42 8.86
6/8/2022 2:45:00 AM 16.31 61.358 0.034 6.62 3.29 8.88
6/8/2022 3:00:00 AM 16.29 61.322 0.035 6.64 2.58 8.88
6/8/2022 3:15:00 AM 16.26 61.268 0.033 6.62 3.21 8.88
6/8/2022 3:30:00 AM 16.23 61.214 0.035 6.63 2.41 8.87
6/8/2022 3:45:00 AM 16.21 61.178 0.035 6.57 2.44 8.88
6/8/2022 4:00:00 AM 16.19 61.142 0.034 6.61 3.29 8.88
6/8/2022 4:15:00 AM 16.15 61.07 0.035 6.57 2.57 8.9
6/8/2022 4:30:00 AM 16.12 61.016 0.035 6.63 2.42 8.91
6/8/2022 4:45:00 AM 16.09 60.962 0.034 6.6 3.1 8.91
6/8/2022 5:00:00 AM 16.06 60.908 0.034 6.61 3.07 8.92
6/8/2022 5:15:00 AM 16.01 60.818 0.035 6.61 2.42 8.92
6/8/2022 5:30:00 AM 15.96 60.728 0.035 6.62 2.47 8.95
6/8/2022 5:45:00 AM 15.92 60.656 0.035 6.56 2.38 8.96
6/8/2022 6:00:00 AM 15.87 60.566 0.038 6.63 2.44 8.95
6/8/2022 6:15:00 AM 15.83 60.494 0.035 6.61 3.17 8.99
6/8/2022 6:30:00 AM 15.79 60.422 0.034 6.59 3.17 9
6/8/2022 6:45:00 AM 15.77 60.386 0.036 6.63 2.5 9
6/8/2022 7:00:00 AM 15.75 60.35 0.035 6.6 3.15 9.03
6/8/2022 7:15:00 AM 15.75 60.35 0.034 6.62 3.24 9.12
6/8/2022 7:30:00 AM 15.76 60.368 0.035 6.63 3 9.15
6/8/2022 7:45:00 AM 15.77 60.386 0.035 6.64 3.03 9.21
6/8/2022 8:00:00 AM 15.78 60.404 0.036 6.69 2.31 9.28
6/8/2022 8:15:00 AM 15.82 60.476 0.035 6.72 2.34 9.34
6/8/2022 8:30:00 AM 15.93 60.674 0.035 6.68 2.99 9.35
6/8/2022 8:45:00 AM 16.06 60.908 0.035 6.68 3.03 9.37
6/8/2022 9:00:00 AM 16.1 60.98 0.033 6.71 3.1 9.42
6/8/2022 9:15:00 AM 16.2 61.16 0.035 6.74 2.26 9.44
6/8/2022 9:30:00 AM 16.32 61.376 0.035 6.77 2.29 9.45
6/8/2022 9:45:00 AM 16.49 61.682 0.035 6.77 2.14 9.45
6/8/2022 10:00:00 AM 16.52 61.736 0.034 6.79 2.22 9.48
6/8/2022 10:15:00 AM 16.58 61.844 0.033 6.77 3.05 9.47
6/8/2022 10:30:00 AM 16.68 62.024 0.034 6.8 2.21 9.46
6/8/2022 10:45:00 AM 16.78 62.204 0.034 6.81 2.13 9.47
6/8/2022 11:00:00 AM 16.98 62.564 0.034 6.81 2.21 9.47
6/8/2022 11:15:00 AM 17.14 62.852 0.033 6.78 3.03 9.46
6/8/2022 11:30:00 AM 17.29 63.122 0.034 6.81 2.13 9.44
6/8/2022 11:45:00 AM 17.61 63.698 0.033 6.79 3.1 9.42
6/8/2022 12:00:00 PM 17.87 64.166 0.034 6.78 2.15 9.39
6/8/2022 12:15:00 PM 18.14 64.652 0.033 6.84 2.35 9.36
6/8/2022 12:30:00 PM 18.46 65.228 0.033 6.85 2.1 9.32
6/8/2022 12:45:00 PM 18.85 65.93 0.033 6.85 2.21 9.27
6/8/2022 1:00:00 PM 19.19 66.542 0.033 6.85 2.14 9.22
6/8/2022 1:15:00 PM 19.5 67.1 0.033 6.81 2.09 9.16
6/8/2022 1:30:00 PM 19.79 67.622 0.033 6.87 2.15 9.12
6/8/2022 1:45:00 PM 20.06 68.108 0.033 6.82 2.13 9.07
6/8/2022 2:00:00 PM 20.33 68.594 0.033 6.87 2.13 9.03
6/8/2022 2:15:00 PM 20.54 68.972 0.033 6.82 2.03 8.96
6/8/2022 2:30:00 PM 20.8 69.44 0.033 6.87 2.03 8.92
6/8/2022 2:45:00 PM 21.11 69.998 0.032 6.84 2.98 8.87
6/8/2022 3:00:00 PM 21.35 70.43 0.031 6.85 2.93 8.83
6/8/2022 3:15:00 PM 21.56 70.808 0.033 6.88 2.05 8.79
6/8/2022 3:30:00 PM 21.79 71.222 0.032 6.86 2.88 8.75
6/8/2022 3:45:00 PM 22.01 71.618 0.033 6.88 2.2 8.7
6/8/2022 4:00:00 PM 22.17 71.906 0.033 6.83 2.02 8.65
6/8/2022 4:15:00 PM 22.35 72.23 0.032 6.86 2.43 8.62
6/8/2022 4:30:00 PM 22.49 72.482 0.031 6.84 2.94 8.58
6/8/2022 4:45:00 PM 22.61 72.698 0.031 6.85 2.83 8.55
6/8/2022 5:00:00 PM 22.7 72.86 0.033 6.88 2.05 8.52
6/8/2022 5:15:00 PM 22.79 73.022 0.032 6.86 2.85 8.49
6/8/2022 5:30:00 PM 22.82 73.076 0.033 6.87 2.91 8.47
6/8/2022 5:45:00 PM 22.77 72.986 0.033 6.86 2.87 8.46
6/8/2022 6:00:00 PM 22.69 72.842 0.033 6.87 2.98 8.43
6/8/2022 6:15:00 PM 22.54 72.57201 0.034 6.88 2.23 8.4
6/8/2022 6:30:00 PM 22.41 72.338 0.034 6.87 2.15 8.38
6/8/2022 6:45:00 PM 22.19 71.942 0.032 6.84 2.91 8.37
6/8/2022 7:00:00 PM 21.97 71.546 0.033 6.83 2.99 8.35
6/8/2022 7:15:00 PM 21.74 71.132 0.032 6.81 2.98 8.34
6/8/2022 7:30:00 PM 21.54 70.772 0.034 6.82 2.19 8.3
6/8/2022 7:45:00 PM 21.31 70.358 0.034 6.81 2.09 8.29
6/8/2022 8:00:00 PM 21.07 69.926 0.034 6.73 3.15 8.25
6/8/2022 8:15:00 PM 20.92 69.656 0.035 6.79 2.22 8.28
6/8/2022 8:30:00 PM 20.73 69.314 0.035 6.76 2.19 8.23
6/8/2022 8:45:00 PM 20.54 68.972 0.035 6.72 2.27 8.2
6/8/2022 9:00:00 PM 20.37 68.666 0.035 6.75 2.27 8.2
6/8/2022 9:15:00 PM 20.19 68.342 0.035 6.73 2.3 8.17
6/8/2022 9:30:00 PM 20.01 68.018 0.035 6.72 2.32 8.17
6/8/2022 9:45:00 PM 19.85 67.73 0.035 6.67 3.2 8.17
6/8/2022 10:00:00 PM 19.71 67.478 0.035 6.7 2.27 8.17
6/8/2022 10:15:00 PM 19.55 67.19 0.035 6.69 2.22 8.12
6/8/2022 10:30:00 PM 19.4 66.92 0.035 6.65 3.3 8.15
6/8/2022 10:45:00 PM 19.25 66.65 0.037 6.65 2.54 8.13
6/8/2022 11:00:00 PM 19.11 66.398 0.036 6.71 2.14 8.23
6/8/2022 11:15:00 PM 18.95 66.11 0.036 6.66 2.33 8.22
6/8/2022 11:30:00 PM 18.81 65.858 0.036 6.61 2.26 8.25
6/8/2022 11:45:00 PM 18.67 65.606 0.037 6.66 2.25 8.27
6/9/2022 12:00:00 AM 18.56 65.408 0.036 6.67 2.35 8.32
6/9/2022 12:15:00 AM 18.44 65.192 0.035 6.62 3.09 8.32
6/9/2022 12:30:00 AM 18.34 65.012 0.034 6.62 2.95 8.32
6/9/2022 12:45:00 AM 18.22 64.796 0.036 6.6 2.2 8.38
6/9/2022 1:00:00 AM 18.12 64.616 0.036 6.67 2.26 8.43
6/9/2022 1:15:00 AM 18.02 64.436 0.036 6.67 2.3 8.43
6/9/2022 1:30:00 AM 17.91 64.238 0.037 6.66 2.59 8.44
6/9/2022 1:45:00 AM 17.81 64.058 0.035 6.63 3.25 8.5
6/9/2022 2:00:00 AM 17.7 63.86 0.036 6.67 2.52 8.53
6/9/2022 2:15:00 AM 17.57 63.626 0.038 6.68 3.56 8.56
6/9/2022 2:30:00 AM 17.45 63.41 0.04 6.67 3.64 8.59
6/9/2022 2:45:00 AM 17.31 63.158 0.041 6.72 4.93 8.64
6/9/2022 3:00:00 AM 17.18 62.924 0.045 6.75 9.88 8.67
6/9/2022 3:15:00 AM 17.03 62.654 0.045 6.74 12.25 8.7
6/9/2022 3:30:00 AM 16.93 62.474 0.046 6.78 12.2 8.72
6/9/2022 3:45:00 AM 16.82 62.276 0.044 6.75 9.82 8.7
6/9/2022 4:00:00 AM 16.7 62.06 0.039 6.72 7.76 8.79
6/9/2022 4:15:00 AM 16.61 61.898 0.036 6.71 6.66 8.79
6/9/2022 4:30:00 AM 16.57 61.826 0.036 6.7 5.59 8.79
6/9/2022 4:45:00 AM 16.53 61.754 0.034 6.66 6.53 8.83
6/9/2022 5:00:00 AM 16.48 61.664 0.036 6.67 6.32 8.85
6/9/2022 5:15:00 AM 16.42 61.556 0.036 6.71 7.13 8.88
6/9/2022 5:30:00 AM 16.36 61.448 0.036 6.71 7.88 8.9
6/9/2022 5:45:00 AM 16.31 61.358 0.035 6.71 9.44 8.93
6/9/2022 6:00:00 AM 16.27 61.286 0.033 6.69 9.72 8.95
6/9/2022 6:15:00 AM 16.24 61.232 0.032 6.67 9.17 8.98
6/9/2022 6:30:00 AM 16.22 61.196 0.032 6.62 15.61 9
6/9/2022 6:45:00 AM 16.21 61.178 0.031 6.69 6.96 9.02
6/9/2022 7:00:00 AM 16.21 61.178 0.03 6.69 7.58 9.06
6/9/2022 7:15:00 AM 16.21 61.178 0.03 6.69 7.51 9.08
6/9/2022 7:30:00 AM 16.22 61.196 0.03 6.62 7.95 9.1
6/9/2022 7:45:00 AM 16.24 61.232 0.03 6.7 10.98 9.11
6/9/2022 8:00:00 AM 16.24 61.232 0.03 6.67 9.83 9.12
6/9/2022 8:15:00 AM 16.24 61.232 0.031 6.67 10.92 9.14
6/9/2022 8:30:00 AM 16.28 61.304 0.031 6.71 10.61 9.16
6/9/2022 8:45:00 AM 16.31 61.358 0.03 6.64 11.76 9.17
6/9/2022 9:00:00 AM 16.32 61.376 0.029 6.68 11.99 9.18
6/9/2022 9:15:00 AM 16.33 61.394 0.03 6.7 11.6 9.18
6/9/2022 9:30:00 AM 16.35 61.43 0.029 6.67 10.16 9.19
6/9/2022 9:45:00 AM 16.39 61.502 0.029 6.7 9.43 9.2
6/9/2022 10:00:00 AM 16.45 61.61 0.027 6.67 10.07 9.21
6/9/2022 10:15:00 AM 16.49 61.682 0.028 6.67 8.95 9.21
6/9/2022 10:30:00 AM 16.62 61.916 0.027 6.68 9.2 9.22
6/9/2022 10:45:00 AM 16.8 62.24 0.028 6.68 8.26 9.22
6/9/2022 11:00:00 AM 16.89 62.402 0.027 6.69 8.75 9.21
6/9/2022 11:15:00 AM 16.91 62.438 0.027 6.71 7.96 9.2
6/9/2022 11:30:00 AM 16.9 62.42 0.027 6.71 7.78 9.21
6/9/2022 11:45:00 AM 16.91 62.438 0.027 6.71 7.94 9.23
6/9/2022 12:00:00 PM 16.99 62.582 0.026 6.68 7.93 9.23
6/9/2022 12:15:00 PM 17.14 62.852 0.027 6.7 7.66 9.22
6/9/2022 12:30:00 PM 17.27 63.086 0.027 6.73 6.79 9.21
6/9/2022 12:45:00 PM 17.32 63.176 0.027 6.72 6.27 9.19
6/9/2022 1:00:00 PM 17.36 63.248 0.026 6.72 6.36 9.18
6/9/2022 1:15:00 PM 17.38 63.284 0.026 6.72 6 9.15
6/9/2022 1:30:00 PM 17.45 63.41 0.027 6.71 6.02 9.14
6/9/2022 1:45:00 PM 17.47 63.446 0.025 6.67 6.85 9.11
6/9/2022 2:00:00 PM 17.47 63.446 0.026 6.66 6.96 9.09
6/9/2022 2:15:00 PM 17.56 63.608 0.027 6.64 6.89 9.11
6/9/2022 2:30:00 PM 17.61 63.698 0.027 6.72 6.42 9.08
6/9/2022 2:45:00 PM 17.69 63.842 0.027 6.72 6.42 9.09
6/9/2022 3:00:00 PM 17.75 63.95 0.027 6.72 7.74 9.08
6/9/2022 3:15:00 PM 17.75 63.95 0.027 6.69 7.07 9.07
6/9/2022 3:30:00 PM 17.78 64.004 0.026 6.73 7.4 9.09
6/9/2022 3:45:00 PM 17.8 64.04 0.026 6.73 7.02 9.08
6/9/2022 4:00:00 PM 17.81 64.058 0.026 6.73 6.92 9.08
6/9/2022 4:15:00 PM 17.83 64.094 0.026 6.73 6.63 9.07
6/9/2022 4:30:00 PM 17.84 64.112 0.026 6.72 6.76 9.05
6/9/2022 4:45:00 PM 17.86 64.148 0.025 6.68 7.11 9.05
6/9/2022 5:00:00 PM 17.83 64.094 0.025 6.68 6.95 9.04
6/9/2022 5:15:00 PM 17.81 64.058 0.026 6.63 6.85 9.06
6/9/2022 5:30:00 PM 17.8 64.04 0.026 6.72 6.38 9.05
6/9/2022 5:45:00 PM 17.81 64.058 0.025 6.67 7.61 9.04
6/9/2022 6:00:00 PM 17.73 63.914 0.025 6.65 6.7 9.02
6/9/2022 6:15:00 PM 17.65 63.77 0.025 6.67 6.93 9.02
6/9/2022 6:30:00 PM 17.59 63.662 0.026 6.69 6.28 9.01
6/9/2022 6:45:00 PM 17.54 63.572 0.026 6.68 6.09 9.02
6/9/2022 7:00:00 PM 17.49 63.482 0.025 6.64 6.95 9.01
6/9/2022 7:15:00 PM 17.43 63.374 0.026 6.66 5.83 9
6/9/2022 7:30:00 PM 17.37 63.266 0.026 6.66 6.08 8.99
6/9/2022 7:45:00 PM 17.32 63.176 0.025 6.65 5.73 8.99
6/9/2022 8:00:00 PM 17.24 63.032 0.025 6.56 5.55 9
6/9/2022 8:15:00 PM 17.17 62.906 0.025 6.64 5.69 8.99
6/9/2022 8:30:00 PM 17.11 62.798 0.025 6.63 5.78 8.98
6/9/2022 8:45:00 PM 17.05 62.69 0.025 6.62 5.15 8.98
6/9/2022 9:00:00 PM 17 62.6 0.024 6.57 5.94 8.98
6/9/2022 9:15:00 PM 16.93 62.474 0.025 6.56 5.98 8.97
6/9/2022 9:30:00 PM 16.86 62.348 0.025 6.59 5.04 8.97
6/9/2022 9:45:00 PM 16.79 62.222 0.024 6.54 6.39 8.98
6/9/2022 10:00:00 PM 16.71 62.078 0.025 6.58 5.56 8.99
6/9/2022 10:15:00 PM 16.65 61.97 0.025 6.47 5.33 9
6/9/2022 10:30:00 PM 16.58 61.844 0.024 6.54 5.94 9.01
6/9/2022 10:45:00 PM 16.51 61.718 0.025 6.48 4.95 9.03
6/9/2022 11:00:00 PM 16.44 61.592 0.025 6.56 4.86 9.03
6/9/2022 11:15:00 PM 16.37 61.466 0.025 6.56 5.48 9.05
6/9/2022 11:30:00 PM 16.29 61.322 0.024 6.52 5.76 9.07
6/9/2022 11:45:00 PM 16.22 61.196 0.025 6.55 4.94 9.08
6/10/2022 12:00:00 AM 16.14 61.052 0.024 6.5 5.9 9.1
6/10/2022 12:15:00 AM 16.07 60.926 0.025 6.54 5.09 9.12
6/10/2022 12:30:00 AM 15.99 60.782 0.025 6.54 4.74 9.13
6/10/2022 12:45:00 AM 15.92 60.656 0.025 6.54 4.81 9.15
6/10/2022 1:00:00 AM 15.84 60.512 0.024 6.49 5.59 9.16
6/10/2022 1:15:00 AM 15.76 60.368 0.025 6.54 4.59 9.18
6/10/2022 1:30:00 AM 15.68 60.224 0.024 6.49 5.27 9.2
6/10/2022 1:45:00 AM 15.6 60.08 0.025 6.43 4.08 9.21
6/10/2022 2:00:00 AM 15.52 59.936 0.025 6.53 4.52 9.23
6/10/2022 2:15:00 AM 15.44 59.792 0.025 6.52 4.36 9.25
6/10/2022 2:30:00 AM 15.35 59.63 0.025 6.52 4.43 9.27
6/10/2022 2:45:00 AM 15.27 59.486 0.025 6.52 4.16 9.29
6/10/2022 3:00:00 AM 15.18 59.324 0.024 6.48 4.98 9.3
6/10/2022 3:15:00 AM 15.11 59.198 0.025 6.42 4.18 9.33
6/10/2022 3:30:00 AM 15.02 59.036 0.025 6.52 4.12 9.34
6/10/2022 3:45:00 AM 14.95 58.91 0.024 6.47 5.03 9.36
6/10/2022 4:00:00 AM 14.87 58.766 0.025 6.51 3.91 9.38
6/10/2022 4:15:00 AM 14.79 58.622 0.025 6.51 4.06 9.4
6/10/2022 4:30:00 AM 14.71 58.478 0.025 6.51 4.12 9.41
6/10/2022 4:45:00 AM 14.64 58.352 0.024 6.46 4.77 9.42
6/10/2022 5:00:00 AM 14.56 58.208 0.023 6.47 4.97 9.44
6/10/2022 5:15:00 AM 14.49 58.082 0.025 6.41 4.03 9.46
6/10/2022 5:30:00 AM 14.41 57.938 0.025 6.44 3.93 9.47
6/10/2022 5:45:00 AM 14.34 57.812 0.025 6.51 3.87 9.49
6/10/2022 6:00:00 AM 14.27 57.686 0.024 6.5 3.89 9.52
6/10/2022 6:15:00 AM 14.21 57.578 0.025 6.5 3.94 9.53
6/10/2022 6:30:00 AM 14.16 57.488 0.023 6.46 4.71 9.57
6/10/2022 6:45:00 AM 14.13 57.434 0.023 6.47 4.6 9.6
6/10/2022 7:00:00 AM 14.1 57.38 0.025 6.41 3.88 9.64
6/10/2022 7:15:00 AM 14.1 57.38 0.025 6.52 3.61 9.66
6/10/2022 7:30:00 AM 14.11 57.398 0.025 6.52 3.71 9.69
6/10/2022 7:45:00 AM 14.16 57.488 0.024 6.48 4.92 9.72
6/10/2022 8:00:00 AM 14.23 57.614 0.024 6.48 4.29 9.73
6/10/2022 8:15:00 AM 14.32 57.776 0.024 6.45 3.45 9.76
6/10/2022 8:30:00 AM 14.42 57.956 0.024 6.53 4.31 9.77
6/10/2022 8:45:00 AM 14.52 58.136 0.025 6.46 3.56 9.76
6/10/2022 9:00:00 AM 14.65 58.37 0.024 6.53 4.11 9.76
6/10/2022 9:15:00 AM 14.78 58.604 0.025 6.45 3.56 9.74
6/10/2022 9:30:00 AM 14.94 58.892 0.024 6.54 4.22 9.74
6/10/2022 9:45:00 AM 15.08 59.144 0.025 6.47 3.15 9.72
6/10/2022 10:00:00 AM 15.27 59.486 0.025 6.58 3.33 9.71
6/10/2022 10:15:00 AM 15.44 59.792 0.024 6.53 4.16 9.67
6/10/2022 10:30:00 AM 15.66 60.188 0.025 6.48 3.35 9.65
6/10/2022 10:45:00 AM 15.9 60.62